Darstellungsparameter: Aktuell verwendete Einstellungen:
Skalierung der Graphiken ... ?
xyx+y,   Skalierungsfaktor:      Skalierung: Modus: x, Faktor: 1
Darstellungszeitraum ... ?
Vom - - bis: - -   Zeitraum: 25.04.2019 - 24.04.2020
Min/Max/Avg-Anzeige ... ?
Zeige MMA aktuell
Zeige MMA Monat
Zeige MMA alles
Zeige --A aktuell
Zeige --A Monat
Zeige --A alles
Keine MMA-Anzeige
MMA:
Keine MMA-Graphiken
MMA-Basis: 25.04.2019 - 24.04.2020
Quicknavigation für Darstellung... ?
Tage:      1T, 2T, 3T, 5T -1T -2T -3T -5T +1T +2T +3T +5T
Wochen: 1W, 2W, 3W -1W -2W -3W +1W +2W +3W
Monate: 1M, 3M, 6M -1M -3M -6M +1M +3M +6M
Jahre:    1J, 3J, 5J, 10J -1J -3J -5J -10J +1J +3J +5J +10J
Nutze für die Darstellung ... ?
Originaldaten oder Mittelwerte auf ...
Stundenbasis Tagesbasis Wochenbasis
Monatsbasis Jahresbasis      Datenbasis: Original-Daten
Darstellen als:
Statistik (Auto) Statistik J:M      Darstellung:
Zur Graphik,    zurück zur Übersicht aller Sensoren.
 
Tabellarische Datenbersicht: ?
 
Sensor: Nr:Datum:Temp:Abs-Feuchte:Windchill:Wind:
Aussen-T/F 1 25-04-2019 00:00:00 9.1 C 8.43 g/m*3 9.1 C 0 km/h
2 25-04-2019 00:05:00 9.1 C 8.43 g/m*3 9.1 C 0 km/h
3 25-04-2019 00:10:00 9.1 C 8.43 g/m*3 9.1 C 0 km/h
4 25-04-2019 00:15:00 9 C 8.38 g/m*3 9 C 0 km/h
5 25-04-2019 00:20:00 9 C 8.38 g/m*3 9 C 0 km/h
6 25-04-2019 00:25:00 8.9 C 8.32 g/m*3 8.9 C 0 km/h
7 25-04-2019 00:30:00 8.8 C 8.27 g/m*3 8.8 C 0 km/h
8 25-04-2019 00:35:00 8.8 C 8.27 g/m*3 8.8 C 0 km/h
9 25-04-2019 00:40:00 8.7 C 8.22 g/m*3 8.7 C 0 km/h
10 25-04-2019 00:45:00 8.7 C 8.22 g/m*3 8.7 C 1.6 km/h
11 25-04-2019 00:50:00 8.6 C 8.16 g/m*3 8.6 C 1.6 km/h
12 25-04-2019 00:55:00 8.5 C 8.11 g/m*3 8.5 C 1.6 km/h
13 25-04-2019 01:00:00 8.4 C 8.06 g/m*3 8.4 C 0 km/h
14 25-04-2019 01:05:00 8.4 C 8.06 g/m*3 8.4 C 0 km/h
15 25-04-2019 01:10:00 8.3 C 8.01 g/m*3 8.3 C 1.6 km/h
16 25-04-2019 01:15:00 8.3 C 8.01 g/m*3 8.3 C 1.6 km/h
17 25-04-2019 01:20:00 8.3 C 8.01 g/m*3 8.3 C 0 km/h
18 25-04-2019 01:25:00 8.2 C 7.96 g/m*3 8.2 C 1.6 km/h
19 25-04-2019 01:30:00 8.1 C 7.9 g/m*3 8.1 C 1.6 km/h
20 25-04-2019 01:35:00 8.1 C 7.9 g/m*3 8.1 C 0 km/h
21 25-04-2019 01:40:00 8 C 7.85 g/m*3 8 C 0 km/h
22 25-04-2019 01:45:00 7.9 C 7.8 g/m*3 7.9 C 0 km/h
23 25-04-2019 01:50:00 7.8 C 7.75 g/m*3 7.8 C 0 km/h
24 25-04-2019 01:55:00 7.7 C 7.7 g/m*3 7.7 C 1.6 km/h
25 25-04-2019 02:00:00 7.6 C 7.65 g/m*3 7.6 C 0 km/h
Sensor: Nr:Datum:Temp:Abs-Feuchte:Windchill:Wind:
Aussen-T/F 26 25-04-2019 02:05:00 7.6 C 7.65 g/m*3 7.6 C 0 km/h
27 25-04-2019 02:10:00 7.5 C 7.6 g/m*3 7.5 C 0 km/h
28 25-04-2019 02:15:00 7.5 C 7.6 g/m*3 7.5 C 0 km/h
29 25-04-2019 02:20:00 7.5 C 7.6 g/m*3 7.5 C 0 km/h
30 25-04-2019 02:25:00 7.5 C 7.6 g/m*3 7.5 C 0 km/h
31 25-04-2019 02:30:00 7.4 C 7.55 g/m*3 7.4 C 0 km/h
32 25-04-2019 02:35:00 7.4 C 7.55 g/m*3 7.4 C 0 km/h
33 25-04-2019 02:40:00 7.4 C 7.63 g/m*3 7.4 C 0 km/h
34 25-04-2019 02:45:00 7.3 C 7.51 g/m*3 7.3 C 0 km/h
35 25-04-2019 02:50:00 7.3 C 7.58 g/m*3 7.3 C 0 km/h
36 25-04-2019 02:55:00 7.4 C 7.63 g/m*3 7.4 C 0 km/h
37 25-04-2019 03:00:00 7.3 C 7.58 g/m*3 7.3 C 0 km/h
38 25-04-2019 03:05:00 7.3 C 7.58 g/m*3 7.3 C 0 km/h
39 25-04-2019 03:10:00 7.3 C 7.58 g/m*3 7.3 C 0 km/h
40 25-04-2019 03:15:00 7.3 C 7.58 g/m*3 7.3 C 0 km/h
41 25-04-2019 03:20:00 7.2 C 7.54 g/m*3 7.2 C 0 km/h
42 25-04-2019 03:25:00 7.2 C 7.54 g/m*3 7.2 C 0 km/h
43 25-04-2019 03:30:00 7.2 C 7.54 g/m*3 7.2 C 0 km/h
44 25-04-2019 03:35:00 7.2 C 7.54 g/m*3 7.2 C 0 km/h
45 25-04-2019 03:40:00 7.2 C 7.54 g/m*3 7.2 C 0 km/h
46 25-04-2019 03:45:00 7.1 C 7.49 g/m*3 7.1 C 0 km/h
47 25-04-2019 03:50:00 7.1 C 7.49 g/m*3 7.1 C 0 km/h
48 25-04-2019 03:55:00 7 C 7.44 g/m*3 7 C 0 km/h
49 25-04-2019 04:00:00 6.9 C 7.39 g/m*3 6.9 C 0 km/h
50 25-04-2019 04:05:00 7 C 7.44 g/m*3 7 C 0 km/h
Sensor: Nr:Datum:Temp:Abs-Feuchte:Windchill:Wind:
Aussen-T/F 51 25-04-2019 04:10:00 7 C 7.44 g/m*3 7 C 0 km/h
52 25-04-2019 04:15:00 7 C 7.44 g/m*3 7 C 0 km/h
53 25-04-2019 04:20:00 7 C 7.44 g/m*3 7 C 0 km/h
54 25-04-2019 04:25:00 7.1 C 7.49 g/m*3 7.1 C 0 km/h
55 25-04-2019 04:30:00 7.1 C 7.49 g/m*3 7.1 C 0 km/h
56 25-04-2019 04:35:00 7.1 C 7.49 g/m*3 7.1 C 0 km/h
57 25-04-2019 04:40:00 7.1 C 7.49 g/m*3 7.1 C 0 km/h
58 25-04-2019 04:45:00 7.1 C 7.49 g/m*3 7.1 C 0 km/h
59 25-04-2019 04:50:00 7.1 C 7.49 g/m*3 7.1 C 0 km/h
60 25-04-2019 04:55:00 7.2 C 7.54 g/m*3 7.2 C 0 km/h
61 25-04-2019 05:00:00 7.2 C 7.54 g/m*3 7.2 C 0 km/h
62 25-04-2019 05:05:00 7.2 C 7.54 g/m*3 7.2 C 0 km/h
63 25-04-2019 05:10:00 7.1 C 7.49 g/m*3 7.1 C 0 km/h
64 25-04-2019 05:15:00 7.1 C 7.49 g/m*3 7.1 C 0 km/h
65 25-04-2019 05:20:00 7 C 7.44 g/m*3 7 C 0 km/h
66 25-04-2019 05:25:00 7.1 C 7.49 g/m*3 7.1 C 0 km/h
67 25-04-2019 05:30:00 7.1 C 7.49 g/m*3 7.1 C 0 km/h
68 25-04-2019 05:35:00 7.1 C 7.49 g/m*3 7.1 C 0 km/h
69 25-04-2019 05:40:00 7.1 C 7.49 g/m*3 7.1 C 0 km/h
70 25-04-2019 05:45:00 7.1 C 7.49 g/m*3 7.1 C 0 km/h
71 25-04-2019 05:50:00 7.1 C 7.49 g/m*3 7.1 C 0 km/h
72 25-04-2019 05:55:00 7.1 C 7.49 g/m*3 7.1 C 0 km/h
73 25-04-2019 06:00:00 7.1 C 7.49 g/m*3 7.1 C 0 km/h
74 25-04-2019 06:05:00 7 C 7.44 g/m*3 7 C 0 km/h
75 25-04-2019 06:10:00 7 C 7.44 g/m*3 7 C 0 km/h
Sensor: Nr:Datum:Temp:Abs-Feuchte:Windchill:Wind:
Aussen-T/F 76 25-04-2019 06:15:00 7 C 7.52 g/m*3 7 C 0 km/h
77 25-04-2019 06:20:00 7 C 7.52 g/m*3 7 C 0 km/h
78 25-04-2019 06:25:00 7 C 7.52 g/m*3 7 C 0 km/h
79 25-04-2019 06:30:00 7 C 7.52 g/m*3 7 C 0 km/h
80 25-04-2019 06:35:00 7 C 7.52 g/m*3 7 C 0 km/h
81 25-04-2019 06:40:00 7.1 C 7.57 g/m*3 7.1 C 0 km/h
82 25-04-2019 06:45:00 7.1 C 7.57 g/m*3 7.1 C 3.2 km/h
83 25-04-2019 06:50:00 7.2 C 7.61 g/m*3 7.2 C 1.6 km/h
84 25-04-2019 06:55:00 7.2 C 7.61 g/m*3 7.2 C 0 km/h
85 25-04-2019 07:00:00 7.3 C 7.66 g/m*3 7.3 C 0 km/h
86 25-04-2019 07:05:00 7.4 C 7.71 g/m*3 7.4 C 0 km/h
87 25-04-2019 07:10:00 7.5 C 7.76 g/m*3 7.5 C 0 km/h
88 25-04-2019 07:15:00 7.6 C 7.81 g/m*3 7.6 C 0 km/h
89 25-04-2019 07:20:00 7.6 C 7.81 g/m*3 7.6 C 0 km/h
90 25-04-2019 07:25:00 7.7 C 7.87 g/m*3 7.7 C 0 km/h
91 25-04-2019 07:30:00 7.8 C 7.92 g/m*3 7.8 C 0 km/h
92 25-04-2019 07:35:00 7.9 C 7.97 g/m*3 7.9 C 0 km/h
93 25-04-2019 07:40:00 8.1 C 8.07 g/m*3 8.1 C 0 km/h
94 25-04-2019 07:45:00 8.3 C 8.18 g/m*3 8.3 C 0 km/h
95 25-04-2019 07:50:00 8.5 C 8.28 g/m*3 7.64 C 6.4 km/h
96 25-04-2019 07:55:00 8.6 C 8.34 g/m*3 8.6 C 0 km/h
97 25-04-2019 08:00:00 8.7 C 8.39 g/m*3 8.7 C 0 km/h
98 25-04-2019 08:05:00 8.8 C 8.44 g/m*3 8.8 C 3.2 km/h
99 25-04-2019 08:10:00 8.9 C 8.5 g/m*3 8.9 C 3.2 km/h
100 25-04-2019 08:15:00 9 C 8.55 g/m*3 8.21 C 6.4 km/h
Sensor: Nr:Datum:Temp:Abs-Feuchte:Windchill:Wind:
Aussen-T/F 101 25-04-2019 08:20:00 9.1 C 8.61 g/m*3 9.1 C 3.2 km/h
102 25-04-2019 08:25:00 9.1 C 8.61 g/m*3 9.1 C 1.6 km/h
103 25-04-2019 08:30:00 9.2 C 8.66 g/m*3 8.45 C 6.4 km/h
104 25-04-2019 08:35:00 9.2 C 8.66 g/m*3 9.2 C 4.8 km/h
105 25-04-2019 08:40:00 9.3 C 8.72 g/m*3 9.3 C 3.2 km/h
106 25-04-2019 08:45:00 9.4 C 8.77 g/m*3 9.4 C 0 km/h
107 25-04-2019 08:50:00 9.6 C 8.89 g/m*3 9.6 C 4.8 km/h
108 25-04-2019 08:55:00 9.7 C 8.94 g/m*3 9.7 C 0 km/h
109 25-04-2019 09:00:00 9.8 C 9 g/m*3 9.8 C 1.6 km/h
110 25-04-2019 09:05:00 10.1 C 9.17 g/m*3 10.1 C 0 km/h
111 25-04-2019 09:10:00 10.2 C 9.23 g/m*3 10.2 C 0 km/h
112 25-04-2019 09:15:00 10.2 C 9.23 g/m*3 10.2 C 0 km/h
113 25-04-2019 09:20:00 10.2 C 9.23 g/m*3 10.2 C 0 km/h
114 25-04-2019 09:25:00 10.3 C 9.29 g/m*3 10.3 C 0 km/h
115 25-04-2019 09:30:00 10.6 C 9.47 g/m*3 10.6 C 0 km/h
116 25-04-2019 09:35:00 10.9 C 9.65 g/m*3 10.9 C 0 km/h
117 25-04-2019 09:40:00 11.2 C 9.83 g/m*3 11.2 C 0 km/h
118 25-04-2019 09:45:00 11.3 C 9.89 g/m*3 11.3 C 0 km/h
119 25-04-2019 09:50:00 11.4 C 9.96 g/m*3 11.4 C 0 km/h
120 25-04-2019 09:55:00 11.4 C 9.96 g/m*3 11.4 C 0 km/h
121 25-04-2019 10:00:00 11.4 C 9.96 g/m*3 11.4 C 0 km/h
122 25-04-2019 10:05:00 11.4 C 9.96 g/m*3 11.4 C 9.7 km/h
123 25-04-2019 10:10:00 11.2 C 9.73 g/m*3 11.2 C 9.7 km/h
124 25-04-2019 10:15:00 11.3 C 9.79 g/m*3 11.3 C 0 km/h
125 25-04-2019 10:20:00 11.5 C 9.92 g/m*3 11.5 C 0 km/h
Sensor: Nr:Datum:Temp:Abs-Feuchte:Windchill:Wind:
Aussen-T/F 126 25-04-2019 10:25:00 11.6 C 9.98 g/m*3 11.6 C 0 km/h
127 25-04-2019 10:30:00 11.6 C 9.98 g/m*3 11.6 C 0 km/h
128 25-04-2019 10:35:00 11.6 C 9.98 g/m*3 11.6 C 0 km/h
129 25-04-2019 10:40:00 11.7 C 10.04 g/m*3 11.7 C 0 km/h
130 25-04-2019 10:45:00 11.7 C 9.94 g/m*3 11.7 C 1.6 km/h
131 25-04-2019 10:50:00 11.7 C 9.94 g/m*3 11.7 C 0 km/h
132 25-04-2019 10:55:00 11.8 C 10 g/m*3 11.8 C 0 km/h
133 25-04-2019 11:00:00 12 C 10.02 g/m*3 12 C 8.1 km/h
134 25-04-2019 11:05:00 12.2 C 9.82 g/m*3 12.2 C 9.7 km/h
135 25-04-2019 11:10:00 12.6 C 9.85 g/m*3 12.6 C 6.4 km/h
136 25-04-2019 11:15:00 13.1 C 9.93 g/m*3 13.1 C 9.7 km/h
137 25-04-2019 11:20:00 13.6 C 10.24 g/m*3 13.6 C 3.2 km/h
138 25-04-2019 11:25:00 13.9 C 9.47 g/m*3 13.9 C 6.4 km/h
139 25-04-2019 11:30:00 14.4 C 9.52 g/m*3 14.4 C 9.7 km/h
140 25-04-2019 11:35:00 14.8 C 9.5 g/m*3 14.8 C 8.1 km/h
141 25-04-2019 11:40:00 15.2 C 9.61 g/m*3 15.2 C 6.4 km/h
142 25-04-2019 11:45:00 15.6 C 9.18 g/m*3 15.6 C 9.7 km/h
143 25-04-2019 11:50:00 16 C 9.13 g/m*3 16 C 8.1 km/h
144 25-04-2019 11:55:00 16.3 C 9.3 g/m*3 16.3 C 11.3 km/h
145 25-04-2019 12:00:00 16.4 C 9.21 g/m*3 16.4 C 11.3 km/h
146 25-04-2019 12:05:00 16.5 C 8.99 g/m*3 16.5 C 8.1 km/h
147 25-04-2019 12:10:00 16.6 C 9.18 g/m*3 16.6 C 9.7 km/h
148 25-04-2019 12:15:00 16.7 C 9.1 g/m*3 16.7 C 8.1 km/h
149 25-04-2019 12:20:00 16.9 C 9.21 g/m*3 16.9 C 8.1 km/h
150 25-04-2019 12:25:00 17 C 8.97 g/m*3 17 C 9.7 km/h
Sensor: Nr:Datum:Temp:Abs-Feuchte:Windchill:Wind:
Aussen-T/F 151 25-04-2019 12:30:00 17.1 C 9.61 g/m*3 17.1 C 6.4 km/h
152 25-04-2019 12:35:00 17.1 C 9.32 g/m*3 17.1 C 6.4 km/h
153 25-04-2019 12:40:00 17.3 C 9.43 g/m*3 17.3 C 9.7 km/h
154 25-04-2019 12:45:00 17.3 C 9.28 g/m*3 17.3 C 6.4 km/h
155 25-04-2019 12:50:00 17.3 C 9.28 g/m*3 17.3 C 11.3 km/h
156 25-04-2019 12:55:00 17.4 C 9.34 g/m*3 17.4 C 8.1 km/h
157 25-04-2019 13:00:00 17.5 C 9.24 g/m*3 17.5 C 4.8 km/h
158 25-04-2019 13:05:00 17.7 C 9.35 g/m*3 17.7 C 11.3 km/h
159 25-04-2019 13:10:00 17.8 C 9.41 g/m*3 17.8 C 8.1 km/h
160 25-04-2019 13:15:00 18.1 C 9.58 g/m*3 18.1 C 8.1 km/h
161 25-04-2019 13:20:00 18.3 C 9.38 g/m*3 18.3 C 8.1 km/h
162 25-04-2019 13:25:00 18.6 C 9.23 g/m*3 18.6 C 8.1 km/h
163 25-04-2019 13:30:00 18.8 C 9.34 g/m*3 18.8 C 8.1 km/h
164 25-04-2019 13:35:00 18.9 C 9.23 g/m*3 18.9 C 8.1 km/h
165 25-04-2019 13:40:00 19.1 C 9.34 g/m*3 19.1 C 12.9 km/h
166 25-04-2019 13:45:00 19.3 C 9.29 g/m*3 19.3 C 11.3 km/h
167 25-04-2019 13:50:00 19.5 C 9.23 g/m*3 19.5 C 6.4 km/h
168 25-04-2019 13:55:00 19.6 C 9.45 g/m*3 19.6 C 8.1 km/h
169 25-04-2019 14:00:00 19.7 C 9.34 g/m*3 19.7 C 4.8 km/h
170 25-04-2019 14:05:00 19.8 C 9.05 g/m*3 19.8 C 11.3 km/h
171 25-04-2019 14:10:00 19.8 C 9.22 g/m*3 19.8 C 1.6 km/h
172 25-04-2019 14:15:00 19.9 C 9.28 g/m*3 19.9 C 8.1 km/h
173 25-04-2019 14:20:00 20.1 C 9.21 g/m*3 20.1 C 6.4 km/h
174 25-04-2019 14:25:00 20.3 C 9.67 g/m*3 20.3 C 8.1 km/h
175 25-04-2019 14:30:00 20.4 C 9.02 g/m*3 20.4 C 11.3 km/h
Sensor: Nr:Datum:Temp:Abs-Feuchte:Windchill:Wind:
Aussen-T/F 176 25-04-2019 14:35:00 20.4 C 9.2 g/m*3 20.4 C 8.1 km/h
177 25-04-2019 14:40:00 20.6 C 9.31 g/m*3 20.6 C 8.1 km/h
178 25-04-2019 14:45:00 20.6 C 9.66 g/m*3 20.6 C 8.1 km/h
179 25-04-2019 14:50:00 20.7 C 9 g/m*3 20.7 C 6.4 km/h
180 25-04-2019 14:55:00 20.8 C 9.6 g/m*3 20.8 C 6.4 km/h
181 25-04-2019 15:00:00 20.9 C 9.29 g/m*3 20.9 C 6.4 km/h
182 25-04-2019 15:05:00 20.9 C 9.11 g/m*3 20.9 C 6.4 km/h
183 25-04-2019 15:10:00 21.1 C 9.4 g/m*3 21.1 C 4.8 km/h
184 25-04-2019 15:15:00 21.2 C 9.08 g/m*3 21.2 C 6.4 km/h
185 25-04-2019 15:20:00 21.3 C 8.95 g/m*3 21.3 C 8.1 km/h
186 25-04-2019 15:25:00 21.3 C 9.13 g/m*3 21.3 C 6.4 km/h
187 25-04-2019 15:30:00 21.6 C 9.48 g/m*3 21.6 C 9.7 km/h
188 25-04-2019 15:35:00 21.7 C 9.16 g/m*3 21.7 C 11.3 km/h
189 25-04-2019 15:40:00 21.9 C 9.65 g/m*3 21.9 C 8.1 km/h
190 25-04-2019 15:45:00 22.1 C 8.98 g/m*3 22.1 C 11.3 km/h
191 25-04-2019 15:50:00 22.1 C 10.35 g/m*3 22.1 C 9.7 km/h
192 25-04-2019 15:55:00 22.2 C 9.23 g/m*3 22.2 C 9.7 km/h
193 25-04-2019 16:00:00 22.2 C 9.23 g/m*3 22.2 C 8.1 km/h
194 25-04-2019 16:05:00 22.2 C 9.62 g/m*3 22.2 C 4.8 km/h
195 25-04-2019 16:10:00 22.2 C 9.03 g/m*3 22.2 C 8.1 km/h
196 25-04-2019 16:15:00 22.3 C 9.68 g/m*3 22.3 C 4.8 km/h
197 25-04-2019 16:20:00 22.3 C 10.86 g/m*3 22.3 C 0 km/h
198 25-04-2019 16:25:00 22.3 C 9.28 g/m*3 22.3 C 4.8 km/h
199 25-04-2019 16:30:00 22.3 C 10.27 g/m*3 22.3 C 1.6 km/h
200 25-04-2019 16:35:00 22.3 C 12.05 g/m*3 22.3 C 0 km/h
Sensor: Nr:Datum:Temp:Abs-Feuchte:Windchill:Wind:
Aussen-T/F 201 25-04-2019 16:40:00 22.1 C 12.49 g/m*3 22.1 C 1.6 km/h
202 25-04-2019 16:45:00 21.9 C 11.77 g/m*3 21.9 C 3.2 km/h
203 25-04-2019 16:50:00 21.8 C 12.28 g/m*3 21.8 C 1.6 km/h
204 25-04-2019 16:55:00 21.6 C 12.33 g/m*3 21.6 C 0 km/h
205 25-04-2019 17:00:00 21.3 C 12.3 g/m*3 21.3 C 0 km/h
206 25-04-2019 17:05:00 21.2 C 12.42 g/m*3 21.2 C 0 km/h
207 25-04-2019 17:10:00 21.3 C 13.05 g/m*3 21.3 C 0 km/h
208 25-04-2019 17:15:00 21.6 C 13.28 g/m*3 21.6 C 0 km/h
209 25-04-2019 17:20:00 21.6 C 11 g/m*3 21.6 C 8.1 km/h
210 25-04-2019 17:25:00 21.4 C 10.5 g/m*3 21.4 C 11.3 km/h
211 25-04-2019 17:30:00 21.4 C 10.69 g/m*3 21.4 C 11.3 km/h
212 25-04-2019 17:35:00 21.3 C 10.07 g/m*3 21.3 C 9.7 km/h
213 25-04-2019 17:40:00 21.2 C 9.82 g/m*3 21.2 C 9.7 km/h
214 25-04-2019 17:45:00 21.2 C 9.82 g/m*3 21.2 C 4.8 km/h
215 25-04-2019 17:50:00 21.3 C 9.88 g/m*3 21.3 C 14.5 km/h
216 25-04-2019 17:55:00 21.4 C 10.12 g/m*3 21.4 C 11.3 km/h
217 25-04-2019 18:00:00 21.4 C 10.12 g/m*3 21.4 C 12.9 km/h
218 25-04-2019 18:05:00 21.2 C 10.01 g/m*3 21.2 C 9.7 km/h
219 25-04-2019 18:10:00 21.2 C 10.38 g/m*3 21.2 C 9.7 km/h
220 25-04-2019 18:15:00 21.1 C 10.32 g/m*3 21.1 C 11.3 km/h
221 25-04-2019 18:20:00 20.9 C 10.02 g/m*3 20.9 C 8.1 km/h
222 25-04-2019 18:25:00 20.8 C 9.96 g/m*3 20.8 C 8.1 km/h
223 25-04-2019 18:30:00 20.8 C 10.14 g/m*3 20.8 C 6.4 km/h
224 25-04-2019 18:35:00 20.9 C 9.65 g/m*3 20.9 C 17.7 km/h
225 25-04-2019 18:40:00 20.5 C 9.43 g/m*3 20.5 C 24.1 km/h
Sensor: Nr:Datum:Temp:Abs-Feuchte:Windchill:Wind:
Aussen-T/F 226 25-04-2019 18:45:00 19.9 C 9.28 g/m*3 19.9 C 22.5 km/h
227 25-04-2019 18:50:00 19.3 C 9.29 g/m*3 19.3 C 20.9 km/h
228 25-04-2019 18:55:00 18.7 C 9.13 g/m*3 18.7 C 16.1 km/h
229 25-04-2019 19:00:00 18.3 C 9.07 g/m*3 18.3 C 24.1 km/h
230 25-04-2019 19:05:00 17.9 C 8.86 g/m*3 17.9 C 27.4 km/h
231 25-04-2019 19:10:00 17.6 C 8.85 g/m*3 17.6 C 27.4 km/h
232 25-04-2019 19:15:00 17.3 C 8.99 g/m*3 17.3 C 14.5 km/h
233 25-04-2019 19:20:00 17 C 8.83 g/m*3 17 C 14.5 km/h
234 25-04-2019 19:25:00 16.8 C 8.72 g/m*3 16.8 C 20.9 km/h
235 25-04-2019 19:30:00 16.6 C 8.9 g/m*3 16.6 C 14.5 km/h
236 25-04-2019 19:35:00 16.4 C 8.65 g/m*3 16.4 C 16.1 km/h
237 25-04-2019 19:40:00 16.3 C 8.74 g/m*3 16.3 C 12.9 km/h
238 25-04-2019 19:45:00 16.2 C 8.69 g/m*3 16.2 C 14.5 km/h
239 25-04-2019 19:50:00 16.1 C 8.64 g/m*3 16.1 C 12.9 km/h
240 25-04-2019 19:55:00 16.1 C 8.91 g/m*3 16.1 C 9.7 km/h
241 25-04-2019 20:00:00 15.9 C 8.67 g/m*3 15.9 C 17.7 km/h
242 25-04-2019 20:05:00 15.8 C 8.75 g/m*3 15.8 C 6.4 km/h
243 25-04-2019 20:10:00 15.7 C 8.83 g/m*3 15.7 C 6.4 km/h
244 25-04-2019 20:15:00 15.4 C 8.54 g/m*3 15.4 C 22.5 km/h
245 25-04-2019 20:20:00 15.3 C 8.49 g/m*3 15.3 C 14.5 km/h
246 25-04-2019 20:25:00 15.2 C 8.44 g/m*3 15.2 C 12.9 km/h
247 25-04-2019 20:30:00 15 C 8.59 g/m*3 15 C 11.3 km/h
248 25-04-2019 20:35:00 14.9 C 8.54 g/m*3 14.9 C 16.1 km/h
249 25-04-2019 20:40:00 14.8 C 8.61 g/m*3 14.8 C 12.9 km/h
250 25-04-2019 20:45:00 14.6 C 8.63 g/m*3 14.6 C 8.1 km/h
Sensor: Nr:Datum:Temp:Abs-Feuchte:Windchill:Wind:
Aussen-T/F 251 25-04-2019 20:50:00 14.5 C 8.71 g/m*3 14.5 C 9.7 km/h
252 25-04-2019 20:55:00 14.4 C 8.65 g/m*3 14.4 C 12.9 km/h
253 25-04-2019 21:00:00 14.3 C 8.72 g/m*3 14.3 C 9.7 km/h
254 25-04-2019 21:05:00 14.2 C 8.79 g/m*3 14.2 C 12.9 km/h
255 25-04-2019 21:10:00 14.1 C 8.62 g/m*3 14.1 C 8.1 km/h
256 25-04-2019 21:15:00 14 C 8.56 g/m*3 14 C 6.4 km/h
257 25-04-2019 21:20:00 13.9 C 8.63 g/m*3 13.9 C 8.1 km/h
258 25-04-2019 21:25:00 13.9 C 8.63 g/m*3 13.9 C 4.8 km/h
259 25-04-2019 21:30:00 13.8 C 8.58 g/m*3 13.8 C 8.1 km/h
260 25-04-2019 21:35:00 13.8 C 8.7 g/m*3 13.8 C 3.2 km/h
261 25-04-2019 21:40:00 13.7 C 8.76 g/m*3 13.7 C 1.6 km/h
262 25-04-2019 21:45:00 13.6 C 8.59 g/m*3 13.6 C 9.7 km/h
263 25-04-2019 21:50:00 13.5 C 8.54 g/m*3 13.5 C 4.8 km/h
264 25-04-2019 21:55:00 13.4 C 8.6 g/m*3 13.4 C 8.1 km/h
265 25-04-2019 22:00:00 13.4 C 8.49 g/m*3 13.4 C 3.2 km/h
266 25-04-2019 22:05:00 13.3 C 8.55 g/m*3 13.3 C 1.6 km/h
267 25-04-2019 22:10:00 13.3 C 8.66 g/m*3 13.3 C 0 km/h
268 25-04-2019 22:15:00 13.2 C 8.61 g/m*3 13.2 C 3.2 km/h
269 25-04-2019 22:20:00 13.2 C 8.61 g/m*3 13.2 C 0 km/h
270 25-04-2019 22:25:00 13.1 C 8.56 g/m*3 13.1 C 4.8 km/h
271 25-04-2019 22:30:00 13 C 8.51 g/m*3 13 C 3.2 km/h
272 25-04-2019 22:35:00 12.9 C 8.45 g/m*3 12.9 C 4.8 km/h
273 25-04-2019 22:40:00 12.8 C 8.29 g/m*3 12.8 C 6.4 km/h
274 25-04-2019 22:45:00 12.8 C 8.4 g/m*3 12.8 C 1.6 km/h
275 25-04-2019 22:50:00 12.8 C 8.4 g/m*3 12.8 C 0 km/h
Sensor: Nr:Datum:Temp:Abs-Feuchte:Windchill:Wind:
Aussen-T/F 276 25-04-2019 22:55:00 12.7 C 8.35 g/m*3 12.7 C 0 km/h
277 25-04-2019 23:00:00 12.7 C 8.46 g/m*3 12.7 C 0 km/h
278 25-04-2019 23:05:00 12.7 C 8.46 g/m*3 12.7 C 0 km/h
279 25-04-2019 23:10:00 12.6 C 8.52 g/m*3 12.6 C 0 km/h
280 25-04-2019 23:15:00 12.6 C 8.52 g/m*3 12.6 C 0 km/h
281 25-04-2019 23:20:00 12.5 C 8.58 g/m*3 12.5 C 0 km/h
282 25-04-2019 23:25:00 12.4 C 8.52 g/m*3 12.4 C 0 km/h
283 25-04-2019 23:30:00 12.4 C 8.63 g/m*3 12.4 C 0 km/h
284 25-04-2019 23:35:00 12.4 C 8.63 g/m*3 12.4 C 0 km/h
285 25-04-2019 23:40:00 12.3 C 8.69 g/m*3 12.3 C 0 km/h
286 25-04-2019 23:45:00 12.2 C 8.63 g/m*3 12.2 C 0 km/h
287 25-04-2019 23:50:00 12.2 C 8.63 g/m*3 12.2 C 0 km/h
288 25-04-2019 23:55:00 12.1 C 8.58 g/m*3 12.1 C 0 km/h
289 26-04-2019 00:00:00 11.9 C 8.47 g/m*3 11.9 C 0 km/h
290 26-04-2019 00:05:00 11.8 C 8.42 g/m*3 11.8 C 0 km/h
291 26-04-2019 00:10:00 11.7 C 8.47 g/m*3 11.7 C 0 km/h
292 26-04-2019 00:15:00 11.6 C 8.42 g/m*3 11.6 C 0 km/h
293 26-04-2019 00:20:00 11.4 C 8.42 g/m*3 11.4 C 0 km/h
294 26-04-2019 00:25:00 11.3 C 8.36 g/m*3 11.3 C 0 km/h
295 26-04-2019 00:30:00 11.2 C 8.41 g/m*3 11.2 C 0 km/h
296 26-04-2019 00:35:00 11.2 C 8.41 g/m*3 11.2 C 0 km/h
297 26-04-2019 00:40:00 11.2 C 8.41 g/m*3 11.2 C 0 km/h
298 26-04-2019 00:45:00 11.1 C 8.36 g/m*3 11.1 C 0 km/h
299 26-04-2019 00:50:00 11.2 C 8.51 g/m*3 11.2 C 0 km/h
300 26-04-2019 00:55:00 11.1 C 8.46 g/m*3 11.1 C 0 km/h
Sensor: Nr:Datum:Temp:Abs-Feuchte:Windchill:Wind:
Aussen-T/F 301 26-04-2019 01:00:00 11.1 C 8.46 g/m*3 11.1 C 0 km/h
302 26-04-2019 01:05:00 11.1 C 8.46 g/m*3 11.1 C 0 km/h
303 26-04-2019 01:10:00 11 C 8.51 g/m*3 11 C 0 km/h
304 26-04-2019 01:15:00 11 C 8.51 g/m*3 11 C 0 km/h
305 26-04-2019 01:20:00 10.9 C 8.45 g/m*3 10.9 C 0 km/h
306 26-04-2019 01:25:00 10.9 C 8.55 g/m*3 10.9 C 0 km/h
307 26-04-2019 01:30:00 10.9 C 8.55 g/m*3 10.9 C 0 km/h
308 26-04-2019 01:35:00 10.9 C 8.55 g/m*3 10.9 C 0 km/h
309 26-04-2019 01:40:00 10.9 C 8.45 g/m*3 10.9 C 0 km/h
310 26-04-2019 01:45:00 10.9 C 8.45 g/m*3 10.9 C 0 km/h
311 26-04-2019 01:50:00 10.8 C 8.5 g/m*3 10.8 C 0 km/h
312 26-04-2019 01:55:00 10.8 C 8.5 g/m*3 10.8 C 0 km/h
313 26-04-2019 02:00:00 10.8 C 8.5 g/m*3 10.8 C 0 km/h
314 26-04-2019 02:05:00 10.8 C 8.4 g/m*3 10.8 C 0 km/h
315 26-04-2019 02:10:00 10.9 C 8.45 g/m*3 10.9 C 0 km/h
316 26-04-2019 02:15:00 10.9 C 8.36 g/m*3 10.9 C 0 km/h
317 26-04-2019 02:20:00 11 C 8.41 g/m*3 11 C 0 km/h
318 26-04-2019 02:25:00 11.1 C 8.36 g/m*3 11.1 C 0 km/h
319 26-04-2019 02:30:00 11.1 C 8.46 g/m*3 11.1 C 0 km/h
320 26-04-2019 02:35:00 11.1 C 8.46 g/m*3 11.1 C 0 km/h
321 26-04-2019 02:40:00 11.1 C 8.46 g/m*3 11.1 C 0 km/h
322 26-04-2019 02:45:00 11.1 C 8.46 g/m*3 11.1 C 0 km/h
323 26-04-2019 02:50:00 11.1 C 8.46 g/m*3 11.1 C 0 km/h
324 26-04-2019 02:55:00 11.1 C 8.46 g/m*3 11.1 C 0 km/h
325 26-04-2019 03:00:00 11.1 C 8.36 g/m*3 11.1 C 0 km/h
Sensor: Nr:Datum:Temp:Abs-Feuchte:Windchill:Wind:
Aussen-T/F 326 26-04-2019 03:05:00 11.1 C 8.46 g/m*3 11.1 C 0 km/h
327 26-04-2019 03:10:00 11.1 C 8.36 g/m*3 11.1 C 0 km/h
328 26-04-2019 03:15:00 11.1 C 8.36 g/m*3 11.1 C 0 km/h
329 26-04-2019 03:20:00 11.1 C 8.36 g/m*3 11.1 C 0 km/h
330 26-04-2019 03:25:00 11 C 8.31 g/m*3 11 C 0 km/h
331 26-04-2019 03:30:00 10.9 C 8.26 g/m*3 10.9 C 0 km/h
332 26-04-2019 03:35:00 10.9 C 8.26 g/m*3 10.9 C 0 km/h
333 26-04-2019 03:40:00 10.9 C 8.26 g/m*3 10.9 C 0 km/h
334 26-04-2019 03:45:00 10.9 C 8.26 g/m*3 10.9 C 0 km/h
335 26-04-2019 03:50:00 10.9 C 8.26 g/m*3 10.9 C 0 km/h
336 26-04-2019 03:55:00 10.8 C 8.2 g/m*3 10.8 C 0 km/h
337 26-04-2019 04:00:00 10.9 C 8.36 g/m*3 10.9 C 0 km/h
338 26-04-2019 04:05:00 10.8 C 8.3 g/m*3 10.8 C 0 km/h
339 26-04-2019 04:10:00 10.8 C 8.3 g/m*3 10.8 C 0 km/h
340 26-04-2019 04:15:00 10.8 C 8.3 g/m*3 9.16 C 12.9 km/h
341 26-04-2019 04:20:00 10.8 C 8.3 g/m*3 10.8 C 4.8 km/h
342 26-04-2019 04:25:00 10.8 C 8.3 g/m*3 10.8 C 1.6 km/h
343 26-04-2019 04:30:00 10.8 C 8.2 g/m*3 10.8 C 3.2 km/h
344 26-04-2019 04:35:00 10.8 C 8.2 g/m*3 10.8 C 1.6 km/h
345 26-04-2019 04:40:00 10.8 C 8.3 g/m*3 10.8 C 0 km/h
346 26-04-2019 04:45:00 10.8 C 8.2 g/m*3 10.8 C 4.8 km/h
347 26-04-2019 04:50:00 10.8 C 8.3 g/m*3 10.8 C 0 km/h
348 26-04-2019 04:55:00 10.7 C 8.15 g/m*3 10.7 C 4.8 km/h
349 26-04-2019 05:00:00 10.7 C 8.15 g/m*3 9.52 C 9.7 km/h
350 26-04-2019 05:05:00 10.7 C 8.25 g/m*3 10.7 C 4.8 km/h
Sensor: Nr:Datum:Temp:Abs-Feuchte:Windchill:Wind:
Aussen-T/F 351 26-04-2019 05:10:00 10.7 C 8.25 g/m*3 10.18 C 6.4 km/h
352 26-04-2019 05:15:00 10.7 C 8.35 g/m*3 10.7 C 3.2 km/h
353 26-04-2019 05:20:00 10.6 C 8.39 g/m*3 10.6 C 3.2 km/h
354 26-04-2019 05:25:00 10.4 C 8.38 g/m*3 10.4 C 3.2 km/h
355 26-04-2019 05:30:00 10.3 C 8.43 g/m*3 10.3 C 0 km/h
356 26-04-2019 05:35:00 10.3 C 8.43 g/m*3 10.3 C 0 km/h
357 26-04-2019 05:40:00 10.2 C 8.47 g/m*3 10.2 C 1.6 km/h
358 26-04-2019 05:45:00 10.1 C 8.42 g/m*3 10.1 C 0 km/h
359 26-04-2019 05:50:00 10.1 C 8.51 g/m*3 10.1 C 0 km/h
360 26-04-2019 05:55:00 10 C 8.46 g/m*3 10 C 1.6 km/h
361 26-04-2019 06:00:00 9.9 C 8.5 g/m*3 9.9 C 0 km/h
362 26-04-2019 06:05:00 9.8 C 8.44 g/m*3 9.8 C 1.6 km/h
363 26-04-2019 06:10:00 9.8 C 8.44 g/m*3 9.8 C 0 km/h
364 26-04-2019 06:15:00 9.7 C 8.48 g/m*3 9.7 C 1.6 km/h
365 26-04-2019 06:20:00 9.7 C 8.48 g/m*3 9.7 C 1.6 km/h
366 26-04-2019 06:25:00 9.6 C 8.43 g/m*3 9.6 C 0 km/h
367 26-04-2019 06:30:00 9.6 C 8.43 g/m*3 9.6 C 0 km/h
368 26-04-2019 06:35:00 9.6 C 8.43 g/m*3 9.6 C 1.6 km/h
369 26-04-2019 06:40:00 9.5 C 8.37 g/m*3 9.5 C 1.6 km/h
370 26-04-2019 06:45:00 9.5 C 8.47 g/m*3 9.5 C 1.6 km/h
371 26-04-2019 06:50:00 9.4 C 8.41 g/m*3 9.4 C 0 km/h
372 26-04-2019 06:55:00 9.4 C 8.41 g/m*3 9.4 C 1.6 km/h
373 26-04-2019 07:00:00 9.4 C 8.41 g/m*3 9.4 C 0 km/h
374 26-04-2019 07:05:00 9.4 C 8.5 g/m*3 9.4 C 0 km/h
375 26-04-2019 07:10:00 9.5 C 8.56 g/m*3 9.5 C 0 km/h
Sensor: Nr:Datum:Temp:Abs-Feuchte:Windchill:Wind:
Aussen-T/F 376 26-04-2019 07:15:00 9.5 C 8.56 g/m*3 9.5 C 1.6 km/h
377 26-04-2019 07:20:00 9.5 C 8.56 g/m*3 9.5 C 0 km/h
378 26-04-2019 07:25:00 9.4 C 8.5 g/m*3 9.4 C 0 km/h
379 26-04-2019 07:30:00 9.5 C 8.56 g/m*3 9.5 C 0 km/h
380 26-04-2019 07:35:00 9.6 C 8.61 g/m*3 9.6 C 1.6 km/h
381 26-04-2019 07:40:00 9.6 C 8.61 g/m*3 9.6 C 0 km/h
382 26-04-2019 07:45:00 9.6 C 8.61 g/m*3 9.6 C 1.6 km/h
383 26-04-2019 07:50:00 9.5 C 8.56 g/m*3 9.5 C 1.6 km/h
384 26-04-2019 07:55:00 9.5 C 8.56 g/m*3 9.5 C 4.8 km/h
385 26-04-2019 08:00:00 9.5 C 8.56 g/m*3 9.5 C 1.6 km/h
386 26-04-2019 08:05:00 9.5 C 8.56 g/m*3 9.5 C 0 km/h
387 26-04-2019 08:10:00 9.5 C 8.56 g/m*3 9.5 C 1.6 km/h
388 26-04-2019 08:15:00 9.5 C 8.56 g/m*3 9.5 C 0 km/h
389 26-04-2019 08:20:00 9.5 C 8.65 g/m*3 9.5 C 0 km/h
390 26-04-2019 08:25:00 9.5 C 8.65 g/m*3 9.5 C 1.6 km/h
391 26-04-2019 08:30:00 9.5 C 8.65 g/m*3 9.5 C 3.2 km/h
392 26-04-2019 08:35:00 9.5 C 8.65 g/m*3 9.5 C 0 km/h
393 26-04-2019 08:40:00 9.5 C 8.65 g/m*3 9.5 C 0 km/h
394 26-04-2019 08:45:00 9.5 C 8.65 g/m*3 9.5 C 1.6 km/h
395 26-04-2019 08:50:00 9.5 C 8.65 g/m*3 9.5 C 0 km/h
396 26-04-2019 08:55:00 9.6 C 8.7 g/m*3 9.6 C 0 km/h
397 26-04-2019 09:00:00 9.7 C 8.76 g/m*3 9.7 C 0 km/h
398 26-04-2019 09:05:00 9.8 C 8.81 g/m*3 9.8 C 0 km/h
399 26-04-2019 09:10:00 9.8 C 8.81 g/m*3 9.8 C 1.6 km/h
400 26-04-2019 09:15:00 9.9 C 8.87 g/m*3 9.9 C 0 km/h
Sensor: Nr:Datum:Temp:Abs-Feuchte:Windchill:Wind:
Aussen-T/F 401 26-04-2019 09:20:00 10 C 8.93 g/m*3 10 C 1.6 km/h
402 26-04-2019 09:25:00 10.1 C 8.98 g/m*3 10.1 C 1.6 km/h
403 26-04-2019 09:30:00 10.1 C 8.98 g/m*3 9.48 C 6.4 km/h
404 26-04-2019 09:35:00 10.1 C 8.98 g/m*3 8.8 C 9.7 km/h
405 26-04-2019 09:40:00 10.1 C 8.98 g/m*3 10.1 C 0 km/h
406 26-04-2019 09:45:00 10.1 C 8.98 g/m*3 10.1 C 3.2 km/h
407 26-04-2019 09:50:00 10.1 C 8.98 g/m*3 8.54 C 11.3 km/h
408 26-04-2019 09:55:00 10.1 C 8.98 g/m*3 10.1 C 1.6 km/h
409 26-04-2019 10:00:00 10.2 C 9.04 g/m*3 10.2 C 1.6 km/h
410 26-04-2019 10:05:00 10.2 C 9.04 g/m*3 10.2 C 1.6 km/h
411 26-04-2019 10:10:00 10.2 C 9.04 g/m*3 10.2 C 3.2 km/h
412 26-04-2019 10:15:00 10.3 C 9.1 g/m*3 10.3 C 0 km/h
413 26-04-2019 10:20:00 10.2 C 9.04 g/m*3 9.22 C 8.1 km/h
414 26-04-2019 10:25:00 10.3 C 9.1 g/m*3 10.3 C 3.2 km/h
415 26-04-2019 10:30:00 10.2 C 9.04 g/m*3 9.22 C 8.1 km/h
416 26-04-2019 10:35:00 10.3 C 9.1 g/m*3 10.3 C 1.6 km/h
417 26-04-2019 10:40:00 10.3 C 9.1 g/m*3 10.3 C 1.6 km/h
418 26-04-2019 10:45:00 10.4 C 9.16 g/m*3 10.4 C 4.8 km/h
419 26-04-2019 10:50:00 10.3 C 9 g/m*3 10.3 C 4.8 km/h
420 26-04-2019 10:55:00 10.4 C 9.16 g/m*3 10.4 C 3.2 km/h
421 26-04-2019 11:00:00 10.6 C 9.27 g/m*3 10.6 C 3.2 km/h
422 26-04-2019 11:05:00 10.7 C 9.33 g/m*3 10.7 C 1.6 km/h
423 26-04-2019 11:10:00 10.8 C 9.39 g/m*3 10.8 C 0 km/h
424 26-04-2019 11:15:00 10.9 C 9.35 g/m*3 10.9 C 1.6 km/h
425 26-04-2019 11:20:00 11 C 9.41 g/m*3 11 C 3.2 km/h
Sensor: Nr:Datum:Temp:Abs-Feuchte:Windchill:Wind:
Aussen-T/F 426 26-04-2019 11:25:00 10.9 C 9.25 g/m*3 9.76 C 9.7 km/h
427 26-04-2019 11:30:00 10.9 C 9.25 g/m*3 10.41 C 6.4 km/h
428 26-04-2019 11:35:00 10.9 C 9.25 g/m*3 9.76 C 9.7 km/h
429 26-04-2019 11:40:00 10.9 C 9.15 g/m*3 10.04 C 8.1 km/h
430 26-04-2019 11:45:00 10.9 C 9.25 g/m*3 10.9 C 3.2 km/h
431 26-04-2019 11:50:00 11 C 9.31 g/m*3 11 C 3.2 km/h
432 26-04-2019 11:55:00 11.1 C 9.27 g/m*3 11.1 C 4.8 km/h
433 26-04-2019 12:00:00 11.1 C 9.27 g/m*3 11.1 C 6.4 km/h
434 26-04-2019 12:05:00 11.2 C 9.33 g/m*3 11.2 C 8.1 km/h
435 26-04-2019 12:10:00 11.4 C 9.44 g/m*3 11.4 C 6.4 km/h
436 26-04-2019 12:15:00 11.7 C 9.52 g/m*3 11.7 C 8.1 km/h
437 26-04-2019 12:20:00 11.9 C 9.64 g/m*3 11.9 C 3.2 km/h
438 26-04-2019 12:25:00 11.9 C 9.32 g/m*3 11.9 C 11.3 km/h
439 26-04-2019 12:30:00 12.2 C 9.6 g/m*3 12.2 C 9.7 km/h
440 26-04-2019 12:35:00 12.3 C 9.56 g/m*3 12.3 C 8.1 km/h
441 26-04-2019 12:40:00 12.4 C 9.51 g/m*3 12.4 C 6.4 km/h
442 26-04-2019 12:45:00 12.4 C 9.4 g/m*3 12.4 C 11.3 km/h
443 26-04-2019 12:50:00 12.5 C 9.24 g/m*3 12.5 C 14.5 km/h
444 26-04-2019 12:55:00 12.5 C 9.24 g/m*3 12.5 C 11.3 km/h
445 26-04-2019 13:00:00 12.5 C 9.24 g/m*3 12.5 C 11.3 km/h
446 26-04-2019 13:05:00 12.6 C 9.29 g/m*3 12.6 C 9.7 km/h
447 26-04-2019 13:10:00 12.7 C 9.24 g/m*3 12.7 C 8.1 km/h
448 26-04-2019 13:15:00 12.9 C 9.58 g/m*3 12.9 C 4.8 km/h
449 26-04-2019 13:20:00 12.9 C 9.24 g/m*3 12.9 C 12.9 km/h
450 26-04-2019 13:25:00 13.1 C 9.47 g/m*3 13.1 C 11.3 km/h
Sensor: Nr:Datum:Temp:Abs-Feuchte:Windchill:Wind:
Aussen-T/F 451 26-04-2019 13:30:00 13.1 C 9.36 g/m*3 13.1 C 11.3 km/h
452 26-04-2019 13:35:00 13.1 C 9.36 g/m*3 13.1 C 12.9 km/h
453 26-04-2019 13:40:00 13.2 C 9.42 g/m*3 13.2 C 9.7 km/h
454 26-04-2019 13:45:00 13.3 C 9.36 g/m*3 13.3 C 9.7 km/h
455 26-04-2019 13:50:00 13.3 C 9.36 g/m*3 13.3 C 6.4 km/h
456 26-04-2019 13:55:00 13.4 C 9.42 g/m*3 13.4 C 8.1 km/h
457 26-04-2019 14:00:00 13.3 C 9.01 g/m*3 13.3 C 9.7 km/h
458 26-04-2019 14:05:00 13.3 C 9.24 g/m*3 13.3 C 11.3 km/h
459 26-04-2019 14:10:00 13.4 C 9.3 g/m*3 13.4 C 11.3 km/h
460 26-04-2019 14:15:00 13.5 C 9.24 g/m*3 13.5 C 12.9 km/h
461 26-04-2019 14:20:00 13.5 C 9.24 g/m*3 13.5 C 8.1 km/h
462 26-04-2019 14:25:00 13.5 C 9.24 g/m*3 13.5 C 11.3 km/h
463 26-04-2019 14:30:00 13.6 C 9.3 g/m*3 13.6 C 8.1 km/h
464 26-04-2019 14:35:00 13.7 C 9.24 g/m*3 13.7 C 11.3 km/h
465 26-04-2019 14:40:00 13.7 C 9.12 g/m*3 13.7 C 9.7 km/h
466 26-04-2019 14:45:00 13.7 C 9 g/m*3 13.7 C 16.1 km/h
467 26-04-2019 14:50:00 13.6 C 8.94 g/m*3 13.6 C 12.9 km/h
468 26-04-2019 14:55:00 13.6 C 9.06 g/m*3 13.6 C 8.1 km/h
469 26-04-2019 15:00:00 13.5 C 8.89 g/m*3 13.5 C 14.5 km/h
470 26-04-2019 15:05:00 13.4 C 9.07 g/m*3 13.4 C 8.1 km/h
471 26-04-2019 15:10:00 13.4 C 9.07 g/m*3 13.4 C 11.3 km/h
472 26-04-2019 15:15:00 13.4 C 9.07 g/m*3 13.4 C 6.4 km/h
473 26-04-2019 15:20:00 13.4 C 8.95 g/m*3 13.4 C 6.4 km/h
474 26-04-2019 15:25:00 13.4 C 9.07 g/m*3 13.4 C 8.1 km/h
475 26-04-2019 15:30:00 13.4 C 8.95 g/m*3 13.4 C 6.4 km/h
Sensor: Nr:Datum:Temp:Abs-Feuchte:Windchill:Wind:
Aussen-T/F 476 26-04-2019 15:35:00 13.5 C 9.01 g/m*3 13.5 C 8.1 km/h
477 26-04-2019 15:40:00 13.5 C 8.77 g/m*3 13.5 C 11.3 km/h
478 26-04-2019 15:45:00 13.6 C 8.94 g/m*3 13.6 C 6.4 km/h
479 26-04-2019 15:50:00 13.8 C 8.94 g/m*3 13.8 C 9.7 km/h
480 26-04-2019 15:55:00 14 C 9.05 g/m*3 14 C 11.3 km/h
481 26-04-2019 16:00:00 14.2 C 9.04 g/m*3 14.2 C 12.9 km/h
482 26-04-2019 16:05:00 14.4 C 9.02 g/m*3 14.4 C 11.3 km/h
483 26-04-2019 16:10:00 14.6 C 8.76 g/m*3 14.6 C 9.7 km/h
484 26-04-2019 16:15:00 14.7 C 9.07 g/m*3 14.7 C 8.1 km/h
485 26-04-2019 16:20:00 14.8 C 9.12 g/m*3 14.8 C 8.1 km/h
486 26-04-2019 16:25:00 14.9 C 9.18 g/m*3 14.9 C 8.1 km/h
487 26-04-2019 16:30:00 15.2 C 9.35 g/m*3 15.2 C 6.4 km/h
488 26-04-2019 16:35:00 15.4 C 9.2 g/m*3 15.4 C 9.7 km/h
489 26-04-2019 16:40:00 15.6 C 8.91 g/m*3 15.6 C 9.7 km/h
490 26-04-2019 16:45:00 15.6 C 9.04 g/m*3 15.6 C 9.7 km/h
491 26-04-2019 16:50:00 15.7 C 9.23 g/m*3 15.7 C 4.8 km/h
492 26-04-2019 16:55:00 15.7 C 9.23 g/m*3 15.7 C 6.4 km/h
493 26-04-2019 17:00:00 15.6 C 8.64 g/m*3 15.6 C 6.4 km/h
494 26-04-2019 17:05:00 15.5 C 9.25 g/m*3 15.5 C 1.6 km/h
495 26-04-2019 17:10:00 15.6 C 8.91 g/m*3 15.6 C 8.1 km/h
496 26-04-2019 17:15:00 15.8 C 8.75 g/m*3 15.8 C 6.4 km/h
497 26-04-2019 17:20:00 15.8 C 8.88 g/m*3 15.8 C 9.7 km/h
498 26-04-2019 17:25:00 15.7 C 8.83 g/m*3 15.7 C 3.2 km/h
499 26-04-2019 17:30:00 15.6 C 8.91 g/m*3 15.6 C 6.4 km/h
500 26-04-2019 17:35:00 15.4 C 8.54 g/m*3 15.4 C 8.1 km/h
Sensor: Nr:Datum:Temp:Abs-Feuchte:Windchill:Wind:
Aussen-T/F 501 26-04-2019 17:40:00 15.3 C 8.75 g/m*3 15.3 C 4.8 km/h
502 26-04-2019 17:45:00 15.7 C 8.96 g/m*3 15.7 C 6.4 km/h
503 26-04-2019 17:50:00 16.2 C 8.96 g/m*3 16.2 C 4.8 km/h
504 26-04-2019 17:55:00 16.7 C 8.81 g/m*3 16.7 C 6.4 km/h
505 26-04-2019 18:00:00 16.7 C 8.67 g/m*3 16.7 C 6.4 km/h
506 26-04-2019 18:05:00 17 C 8.83 g/m*3 17 C 8.1 km/h
507 26-04-2019 18:10:00 17.3 C 8.84 g/m*3 17.3 C 6.4 km/h
508 26-04-2019 18:15:00 17.5 C 8.65 g/m*3 17.5 C 6.4 km/h
509 26-04-2019 18:20:00 17.4 C 8.6 g/m*3 17.4 C 4.8 km/h
510 26-04-2019 18:25:00 17.3 C 8.54 g/m*3 17.3 C 4.8 km/h
511 26-04-2019 18:30:00 17.2 C 8.49 g/m*3 17.2 C 0 km/h
512 26-04-2019 18:35:00 16.9 C 8.63 g/m*3 16.9 C 3.2 km/h
513 26-04-2019 18:40:00 16.7 C 8.81 g/m*3 16.7 C 3.2 km/h
514 26-04-2019 18:45:00 16.5 C 9.41 g/m*3 16.5 C 0 km/h
515 26-04-2019 18:50:00 16.3 C 9.71 g/m*3 16.3 C 0 km/h
516 26-04-2019 18:55:00 16.3 C 9.85 g/m*3 16.3 C 0 km/h
517 26-04-2019 19:00:00 16.3 C 9.71 g/m*3 16.3 C 0 km/h
518 26-04-2019 19:05:00 16.3 C 8.6 g/m*3 16.3 C 0 km/h
519 26-04-2019 19:10:00 16.3 C 8.74 g/m*3 16.3 C 0 km/h
520 26-04-2019 19:15:00 16.3 C 9.57 g/m*3 16.3 C 0 km/h
521 26-04-2019 19:20:00 16.3 C 10.13 g/m*3 16.3 C 0 km/h
522 26-04-2019 19:25:00 16.3 C 10.13 g/m*3 16.3 C 0 km/h
523 26-04-2019 19:30:00 16.1 C 10.14 g/m*3 16.1 C 0 km/h
524 26-04-2019 19:35:00 15.9 C 10.16 g/m*3 15.9 C 0 km/h
525 26-04-2019 19:40:00 15.6 C 10.11 g/m*3 15.6 C 0 km/h
Sensor: Nr:Datum:Temp:Abs-Feuchte:Windchill:Wind:
Aussen-T/F 526 26-04-2019 19:45:00 15.2 C 9.73 g/m*3 15.2 C 0 km/h
527 26-04-2019 19:50:00 14.9 C 9.69 g/m*3 14.9 C 0 km/h
528 26-04-2019 19:55:00 14.6 C 9.64 g/m*3 14.6 C 0 km/h
529 26-04-2019 20:00:00 14.3 C 9.71 g/m*3 14.3 C 22.5 km/h
530 26-04-2019 20:05:00 13.8 C 9.06 g/m*3 13.8 C 22.5 km/h
531 26-04-2019 20:10:00 13.4 C 9.07 g/m*3 13.4 C 8.1 km/h
532 26-04-2019 20:15:00 13.1 C 9.01 g/m*3 13.1 C 3.2 km/h
533 26-04-2019 20:20:00 12.8 C 8.85 g/m*3 12.8 C 6.4 km/h
534 26-04-2019 20:25:00 12.6 C 8.85 g/m*3 12.6 C 6.4 km/h
535 26-04-2019 20:30:00 12.3 C 8.8 g/m*3 12.3 C 4.8 km/h
536 26-04-2019 20:35:00 12.1 C 8.79 g/m*3 12.1 C 4.8 km/h
537 26-04-2019 20:40:00 11.9 C 8.79 g/m*3 11.9 C 6.4 km/h
538 26-04-2019 20:45:00 11.7 C 8.79 g/m*3 11.7 C 4.8 km/h
539 26-04-2019 20:50:00 11.5 C 8.68 g/m*3 11.5 C 3.2 km/h
540 26-04-2019 20:55:00 11.4 C 8.62 g/m*3 11.4 C 1.6 km/h
541 26-04-2019 21:00:00 11.3 C 8.77 g/m*3 11.3 C 3.2 km/h
542 26-04-2019 21:05:00 11.3 C 8.87 g/m*3 11.3 C 1.6 km/h
543 26-04-2019 21:10:00 11.2 C 8.82 g/m*3 11.2 C 0 km/h
544 26-04-2019 21:15:00 11.1 C 8.76 g/m*3 11.1 C 0 km/h
545 26-04-2019 21:20:00 10.8 C 8.6 g/m*3 10.8 C 1.6 km/h
546 26-04-2019 21:25:00 10.7 C 8.55 g/m*3 10.7 C 3.2 km/h
547 26-04-2019 21:30:00 10.7 C 8.55 g/m*3 10.7 C 3.2 km/h
548 26-04-2019 21:35:00 10.7 C 8.55 g/m*3 10.7 C 4.8 km/h
549 26-04-2019 21:40:00 10.7 C 8.55 g/m*3 10.7 C 3.2 km/h
550 26-04-2019 21:45:00 10.7 C 8.55 g/m*3 10.7 C 1.6 km/h
Sensor: Nr:Datum:Temp:Abs-Feuchte:Windchill:Wind:
Aussen-T/F 551 26-04-2019 21:50:00 10.7 C 8.64 g/m*3 10.7 C 0 km/h
552 26-04-2019 21:55:00 10.8 C 8.7 g/m*3 10.8 C 3.2 km/h
553 26-04-2019 22:00:00 10.8 C 8.7 g/m*3 10.8 C 0 km/h
554 26-04-2019 22:05:00 10.8 C 8.7 g/m*3 10.8 C 0 km/h
555 26-04-2019 22:10:00 10.8 C 8.7 g/m*3 10.8 C 0 km/h
556 26-04-2019 22:15:00 10.7 C 8.55 g/m*3 10.7 C 0 km/h
557 26-04-2019 22:20:00 10.5 C 8.53 g/m*3 10.5 C 0 km/h
558 26-04-2019 22:25:00 10.3 C 8.43 g/m*3 10.3 C 0 km/h
559 26-04-2019 22:30:00 10.2 C 8.47 g/m*3 10.2 C 0 km/h
560 26-04-2019 22:35:00 10.2 C 8.47 g/m*3 10.2 C 0 km/h
561 26-04-2019 22:40:00 10.2 C 8.56 g/m*3 10.2 C 0 km/h
562 26-04-2019 22:45:00 10.3 C 8.62 g/m*3 10.3 C 0 km/h
563 26-04-2019 22:50:00 10.3 C 8.62 g/m*3 10.3 C 0 km/h
564 26-04-2019 22:55:00 10.4 C 8.67 g/m*3 10.4 C 0 km/h
565 26-04-2019 23:00:00 10.4 C 8.67 g/m*3 10.4 C 0 km/h
566 26-04-2019 23:05:00 10.4 C 8.67 g/m*3 10.4 C 0 km/h
567 26-04-2019 23:10:00 10.3 C 8.62 g/m*3 10.3 C 0 km/h
568 26-04-2019 23:15:00 10.3 C 8.62 g/m*3 10.3 C 0 km/h
569 26-04-2019 23:20:00 10.2 C 8.56 g/m*3 10.2 C 0 km/h
570 26-04-2019 23:25:00 10 C 8.46 g/m*3 10 C 0 km/h
571 26-04-2019 23:30:00 9.9 C 8.4 g/m*3 9.9 C 0 km/h
572 26-04-2019 23:35:00 9.8 C 8.35 g/m*3 9.8 C 0 km/h
573 26-04-2019 23:40:00 9.8 C 8.44 g/m*3 9.8 C 0 km/h
574 26-04-2019 23:45:00 9.7 C 8.39 g/m*3 9.7 C 0 km/h
575 26-04-2019 23:50:00 9.7 C 8.39 g/m*3 9.7 C 0 km/h
Sensor: Nr:Datum:Temp:Abs-Feuchte:Windchill:Wind:
Aussen-T/F 576 26-04-2019 23:55:00 9.6 C 8.34 g/m*3 9.6 C 0 km/h
577 27-04-2019 00:00:00 9.5 C 8.28 g/m*3 9.5 C 0 km/h
578 27-04-2019 00:05:00 9.4 C 8.23 g/m*3 9.4 C 0 km/h
579 27-04-2019 00:10:00 9.3 C 8.18 g/m*3 9.3 C 0 km/h
580 27-04-2019 00:15:00 9.2 C 8.13 g/m*3 9.2 C 0 km/h
581 27-04-2019 00:20:00 9.1 C 8.07 g/m*3 9.1 C 0 km/h
582 27-04-2019 00:25:00 9.1 C 8.16 g/m*3 9.1 C 0 km/h
583 27-04-2019 00:30:00 9.1 C 8.16 g/m*3 9.1 C 0 km/h
584 27-04-2019 00:35:00 9.1 C 8.16 g/m*3 9.1 C 0 km/h
585 27-04-2019 00:40:00 9.1 C 8.25 g/m*3 9.1 C 0 km/h
586 27-04-2019 00:45:00 9.2 C 8.3 g/m*3 9.2 C 0 km/h
587 27-04-2019 00:50:00 9.2 C 8.3 g/m*3 9.2 C 0 km/h
588 27-04-2019 00:55:00 9.2 C 8.3 g/m*3 9.2 C 0 km/h
589 27-04-2019 01:00:00 9.2 C 8.3 g/m*3 9.2 C 0 km/h
590 27-04-2019 01:05:00 9.2 C 8.3 g/m*3 9.2 C 0 km/h
591 27-04-2019 01:10:00 9.3 C 8.36 g/m*3 9.3 C 0 km/h
592 27-04-2019 01:15:00 9.3 C 8.36 g/m*3 9.3 C 0 km/h
593 27-04-2019 01:20:00 9.3 C 8.36 g/m*3 9.3 C 0 km/h
594 27-04-2019 01:25:00 9.2 C 8.3 g/m*3 9.2 C 0 km/h
595 27-04-2019 01:30:00 9.2 C 8.3 g/m*3 9.2 C 0 km/h
596 27-04-2019 01:35:00 9.1 C 8.25 g/m*3 9.1 C 0 km/h
597 27-04-2019 01:40:00 9.1 C 8.25 g/m*3 9.1 C 0 km/h
598 27-04-2019 01:45:00 9 C 8.2 g/m*3 9 C 0 km/h
599 27-04-2019 01:50:00 8.9 C 8.15 g/m*3 8.9 C 0 km/h
600 27-04-2019 01:55:00 8.9 C 8.15 g/m*3 8.9 C 0 km/h
Sensor: Nr:Datum:Temp:Abs-Feuchte:Windchill:Wind:
Aussen-T/F 601 27-04-2019 02:00:00 8.9 C 8.15 g/m*3 8.9 C 0 km/h
602 27-04-2019 02:05:00 8.8 C 8.09 g/m*3 8.8 C 0 km/h
603 27-04-2019 02:10:00 8.8 C 8.09 g/m*3 8.8 C 0 km/h
604 27-04-2019 02:15:00 8.8 C 8.09 g/m*3 8.8 C 0 km/h
605 27-04-2019 02:20:00 8.7 C 8.04 g/m*3 8.7 C 0 km/h
606 27-04-2019 02:25:00 8.7 C 8.04 g/m*3 8.7 C 0 km/h
607 27-04-2019 02:30:00 8.6 C 7.99 g/m*3 8.6 C 0 km/h
608 27-04-2019 02:35:00 8.5 C 7.94 g/m*3 8.5 C 1.6 km/h
609 27-04-2019 02:40:00 8.4 C 7.89 g/m*3 8.4 C 1.6 km/h
610 27-04-2019 02:45:00 8.3 C 7.84 g/m*3 8.3 C 0 km/h
611 27-04-2019 02:50:00 8.2 C 7.79 g/m*3 8.2 C 0 km/h
612 27-04-2019 02:55:00 8.2 C 7.87 g/m*3 8.2 C 0 km/h
613 27-04-2019 03:00:00 8.2 C 7.87 g/m*3 8.2 C 0 km/h
614 27-04-2019 03:05:00 8.1 C 7.82 g/m*3 8.1 C 0 km/h
615 27-04-2019 03:10:00 8.1 C 7.82 g/m*3 8.1 C 0 km/h
616 27-04-2019 03:15:00 8 C 7.77 g/m*3 8 C 0 km/h
617 27-04-2019 03:20:00 8 C 7.77 g/m*3 8 C 0 km/h
618 27-04-2019 03:25:00 7.9 C 7.72 g/m*3 7.9 C 0 km/h
619 27-04-2019 03:30:00 7.8 C 7.67 g/m*3 7.8 C 0 km/h
620 27-04-2019 03:35:00 7.8 C 7.67 g/m*3 7.8 C 0 km/h
621 27-04-2019 03:40:00 7.7 C 7.62 g/m*3 7.7 C 0 km/h
622 27-04-2019 03:45:00 7.7 C 7.62 g/m*3 7.7 C 0 km/h
623 27-04-2019 03:50:00 7.6 C 7.57 g/m*3 7.6 C 0 km/h
624 27-04-2019 03:55:00 7.6 C 7.57 g/m*3 7.6 C 0 km/h
625 27-04-2019 04:00:00 7.6 C 7.57 g/m*3 7.6 C 0 km/h
Sensor: Nr:Datum:Temp:Abs-Feuchte:Windchill:Wind:
Aussen-T/F 626 27-04-2019 04:05:00 7.5 C 7.52 g/m*3 7.5 C 0 km/h
627 27-04-2019 04:10:00 7.4 C 7.48 g/m*3 7.4 C 0 km/h
628 27-04-2019 04:15:00 7.3 C 7.43 g/m*3 7.3 C 0 km/h
629 27-04-2019 04:20:00 7.2 C 7.38 g/m*3 7.2 C 0 km/h
630 27-04-2019 04:25:00 7.1 C 7.33 g/m*3 7.1 C 0 km/h
631 27-04-2019 04:30:00 7.1 C 7.33 g/m*3 7.1 C 0 km/h
632 27-04-2019 04:35:00 7 C 7.28 g/m*3 7 C 0 km/h
633 27-04-2019 04:40:00 7 C 7.28 g/m*3 7 C 0 km/h
634 27-04-2019 04:45:00 7 C 7.36 g/m*3 7 C 0 km/h
635 27-04-2019 04:50:00 7 C 7.36 g/m*3 7 C 0 km/h
636 27-04-2019 04:55:00 7 C 7.36 g/m*3 7 C 0 km/h
637 27-04-2019 05:00:00 6.9 C 7.31 g/m*3 6.9 C 0 km/h
638 27-04-2019 05:05:00 6.9 C 7.31 g/m*3 6.9 C 0 km/h
639 27-04-2019 05:10:00 6.8 C 7.19 g/m*3 6.8 C 0 km/h
640 27-04-2019 05:15:00 6.7 C 7.22 g/m*3 6.7 C 0 km/h
641 27-04-2019 05:20:00 6.7 C 7.22 g/m*3 6.7 C 0 km/h
642 27-04-2019 05:25:00 6.7 C 7.22 g/m*3 6.7 C 0 km/h
643 27-04-2019 05:30:00 6.6 C 7.17 g/m*3 6.6 C 0 km/h
644 27-04-2019 05:35:00 6.6 C 7.17 g/m*3 6.6 C 0 km/h
645 27-04-2019 05:40:00 6.6 C 7.17 g/m*3 6.6 C 0 km/h
646 27-04-2019 05:45:00 6.4 C 7.08 g/m*3 6.4 C 0 km/h
647 27-04-2019 05:50:00 6.4 C 7.08 g/m*3 6.4 C 0 km/h
648 27-04-2019 05:55:00 6.4 C 7.08 g/m*3 6.4 C 0 km/h
649 27-04-2019 06:00:00 6.4 C 7.08 g/m*3 6.4 C 0 km/h
650 27-04-2019 06:05:00 6.3 C 7.03 g/m*3 6.3 C 0 km/h
Sensor: Nr:Datum:Temp:Abs-Feuchte:Windchill:Wind:
Aussen-T/F 651 27-04-2019 06:10:00 6.3 C 7.03 g/m*3 6.3 C 0 km/h
652 27-04-2019 06:15:00 6.4 C 7.08 g/m*3 6.4 C 0 km/h
653 27-04-2019 06:20:00 6.4 C 7.08 g/m*3 6.4 C 0 km/h
654 27-04-2019 06:25:00 6.5 C 7.2 g/m*3 6.5 C 0 km/h
655 27-04-2019 06:30:00 6.5 C 7.2 g/m*3 6.5 C 0 km/h
656 27-04-2019 06:35:00 6.4 C 7.08 g/m*3 6.4 C 0 km/h
657 27-04-2019 06:40:00 6.4 C 7.08 g/m*3 6.4 C 0 km/h
658 27-04-2019 06:45:00 6.4 C 7.15 g/m*3 6.4 C 0 km/h
659 27-04-2019 06:50:00 6.5 C 7.2 g/m*3 6.5 C 0 km/h
660 27-04-2019 06:55:00 6.6 C 7.25 g/m*3 6.6 C 0 km/h
661 27-04-2019 07:00:00 6.7 C 7.29 g/m*3 6.7 C 0 km/h
662 27-04-2019 07:05:00 6.7 C 7.29 g/m*3 6.7 C 0 km/h
663 27-04-2019 07:10:00 6.8 C 7.34 g/m*3 6.8 C 0 km/h
664 27-04-2019 07:15:00 6.8 C 7.34 g/m*3 6.8 C 0 km/h
665 27-04-2019 07:20:00 6.9 C 7.39 g/m*3 6.9 C 0 km/h
666 27-04-2019 07:25:00 7 C 7.44 g/m*3 7 C 0 km/h
667 27-04-2019 07:30:00 7.1 C 7.49 g/m*3 7.1 C 0 km/h
668 27-04-2019 07:35:00 7.3 C 7.58 g/m*3 7.3 C 0 km/h
669 27-04-2019 07:40:00 7.4 C 7.63 g/m*3 7.4 C 0 km/h
670 27-04-2019 07:45:00 7.6 C 7.73 g/m*3 7.6 C 0 km/h
671 27-04-2019 07:50:00 7.7 C 7.78 g/m*3 7.7 C 0 km/h
672 27-04-2019 07:55:00 7.8 C 7.83 g/m*3 7.8 C 0 km/h
673 27-04-2019 08:00:00 7.9 C 7.97 g/m*3 7.9 C 0 km/h
674 27-04-2019 08:05:00 8.1 C 8.07 g/m*3 8.1 C 0 km/h
675 27-04-2019 08:10:00 8.2 C 8.04 g/m*3 8.2 C 0 km/h
Sensor: Nr:Datum:Temp:Abs-Feuchte:Windchill:Wind:
Aussen-T/F 676 27-04-2019 08:15:00 8.4 C 8.23 g/m*3 8.4 C 0 km/h
677 27-04-2019 08:20:00 8.6 C 8.34 g/m*3 8.6 C 0 km/h
678 27-04-2019 08:25:00 8.7 C 8.39 g/m*3 8.7 C 0 km/h
679 27-04-2019 08:30:00 8.7 C 8.39 g/m*3 8.7 C 0 km/h
680 27-04-2019 08:35:00 8.8 C 8.44 g/m*3 8.8 C 0 km/h
681 27-04-2019 08:40:00 8.9 C 8.41 g/m*3 8.9 C 0 km/h
682 27-04-2019 08:45:00 9.1 C 8.61 g/m*3 9.1 C 0 km/h
683 27-04-2019 08:50:00 9.3 C 8.72 g/m*3 9.3 C 0 km/h
684 27-04-2019 08:55:00 9.3 C 8.72 g/m*3 9.3 C 0 km/h
685 27-04-2019 09:00:00 9.5 C 8.83 g/m*3 9.5 C 0 km/h
686 27-04-2019 09:05:00 9.7 C 8.94 g/m*3 9.7 C 0 km/h
687 27-04-2019 09:10:00 9.8 C 9 g/m*3 9.8 C 0 km/h
688 27-04-2019 09:15:00 9.9 C 8.96 g/m*3 9.9 C 0 km/h
689 27-04-2019 09:20:00 9.9 C 8.96 g/m*3 9.9 C 0 km/h
690 27-04-2019 09:25:00 10.1 C 9.08 g/m*3 10.1 C 1.6 km/h
691 27-04-2019 09:30:00 10.2 C 9.04 g/m*3 10.2 C 0 km/h
692 27-04-2019 09:35:00 10.3 C 9.1 g/m*3 10.3 C 0 km/h
693 27-04-2019 09:40:00 10.5 C 9.12 g/m*3 10.5 C 0 km/h
694 27-04-2019 09:45:00 10.6 C 9.08 g/m*3 10.06 C 6.4 km/h
695 27-04-2019 09:50:00 10.7 C 8.94 g/m*3 10.18 C 6.4 km/h
696 27-04-2019 09:55:00 10.8 C 8.99 g/m*3 10.8 C 1.6 km/h
697 27-04-2019 10:00:00 10.9 C 8.95 g/m*3 10.9 C 0 km/h
698 27-04-2019 10:05:00 11 C 8.91 g/m*3 11 C 0 km/h
699 27-04-2019 10:10:00 11.1 C 8.96 g/m*3 11.1 C 0 km/h
700 27-04-2019 10:15:00 11.2 C 9.02 g/m*3 11.2 C 0 km/h
Sensor: Nr:Datum:Temp:Abs-Feuchte:Windchill:Wind:
Aussen-T/F 701 27-04-2019 10:20:00 11.2 C 8.92 g/m*3 11.2 C 3.2 km/h
702 27-04-2019 10:25:00 11.2 C 9.02 g/m*3 11.2 C 3.2 km/h
703 27-04-2019 10:30:00 11.2 C 8.92 g/m*3 11.2 C 3.2 km/h
704 27-04-2019 10:35:00 11.3 C 8.98 g/m*3 11.3 C 0 km/h
705 27-04-2019 10:40:00 11.4 C 9.03 g/m*3 11.4 C 4.8 km/h
706 27-04-2019 10:45:00 11.6 C 9.04 g/m*3 11.6 C 4.8 km/h
707 27-04-2019 10:50:00 11.7 C 8.79 g/m*3 11.7 C 11.3 km/h
708 27-04-2019 10:55:00 11.9 C 8.79 g/m*3 11.9 C 6.4 km/h
709 27-04-2019 11:00:00 12.1 C 8.79 g/m*3 12.1 C 12.9 km/h
710 27-04-2019 11:05:00 12.2 C 8.74 g/m*3 12.2 C 6.4 km/h
711 27-04-2019 11:10:00 12.4 C 8.85 g/m*3 12.4 C 4.8 km/h
712 27-04-2019 11:15:00 12.8 C 8.74 g/m*3 12.8 C 8.1 km/h
713 27-04-2019 11:20:00 13 C 8.62 g/m*3 13 C 11.3 km/h
714 27-04-2019 11:25:00 13.1 C 8.22 g/m*3 13.1 C 20.9 km/h
715 27-04-2019 11:30:00 12.9 C 8.11 g/m*3 12.9 C 12.9 km/h
716 27-04-2019 11:35:00 12.8 C 8.18 g/m*3 12.8 C 16.1 km/h
717 27-04-2019 11:40:00 12.6 C 8.19 g/m*3 12.6 C 16.1 km/h
718 27-04-2019 11:45:00 12.6 C 8.41 g/m*3 12.6 C 8.1 km/h
719 27-04-2019 11:50:00 12.6 C 8.41 g/m*3 12.6 C 9.7 km/h
720 27-04-2019 11:55:00 12.6 C 8.52 g/m*3 12.6 C 6.4 km/h
721 27-04-2019 12:00:00 12.6 C 8.85 g/m*3 12.6 C 8.1 km/h
722 27-04-2019 12:05:00 12.6 C 8.96 g/m*3 12.6 C 11.3 km/h
723 27-04-2019 12:10:00 12.6 C 9.07 g/m*3 12.6 C 8.1 km/h
724 27-04-2019 12:15:00 12.5 C 9.13 g/m*3 12.5 C 8.1 km/h
725 27-04-2019 12:20:00 12.6 C 9.29 g/m*3 12.6 C 8.1 km/h
Sensor: Nr:Datum:Temp:Abs-Feuchte:Windchill:Wind:
Aussen-T/F 726 27-04-2019 12:25:00 12.6 C 9.18 g/m*3 12.6 C 8.1 km/h
727 27-04-2019 12:30:00 12.6 C 9.07 g/m*3 12.6 C 8.1 km/h
728 27-04-2019 12:35:00 12.7 C 9.13 g/m*3 12.7 C 12.9 km/h
729 27-04-2019 12:40:00 12.7 C 8.91 g/m*3 12.7 C 12.9 km/h
730 27-04-2019 12:45:00 12.8 C 9.07 g/m*3 12.8 C 6.4 km/h
731 27-04-2019 12:50:00 12.9 C 9.02 g/m*3 12.9 C 11.3 km/h
732 27-04-2019 12:55:00 13.1 C 9.24 g/m*3 13.1 C 8.1 km/h
733 27-04-2019 13:00:00 13.3 C 9.13 g/m*3 13.3 C 6.4 km/h
734 27-04-2019 13:05:00 13.5 C 9.12 g/m*3 13.5 C 11.3 km/h
735 27-04-2019 13:10:00 13.6 C 9.18 g/m*3 13.6 C 11.3 km/h
736 27-04-2019 13:15:00 13.7 C 9.24 g/m*3 13.7 C 11.3 km/h
737 27-04-2019 13:20:00 13.6 C 9.06 g/m*3 13.6 C 14.5 km/h
738 27-04-2019 13:25:00 13.6 C 9.06 g/m*3 13.6 C 12.9 km/h
739 27-04-2019 13:30:00 13.6 C 9.06 g/m*3 13.6 C 11.3 km/h
740 27-04-2019 13:35:00 13.4 C 9.18 g/m*3 13.4 C 11.3 km/h
741 27-04-2019 13:40:00 13.4 C 9.07 g/m*3 13.4 C 12.9 km/h
742 27-04-2019 13:45:00 12.8 C 8.29 g/m*3 12.8 C 32.2 km/h
743 27-04-2019 13:50:00 11.4 C 8.11 g/m*3 11.4 C 33.8 km/h
744 27-04-2019 13:55:00 10.4 C 7.81 g/m*3 9.16 C 9.7 km/h
745 27-04-2019 14:00:00 9.7 C 7.84 g/m*3 7.61 C 14.5 km/h
746 27-04-2019 14:05:00 9.3 C 7.73 g/m*3 7.58 C 11.3 km/h
747 27-04-2019 14:10:00 9.1 C 7.9 g/m*3 8.33 C 6.4 km/h
748 27-04-2019 14:15:00 9.2 C 8.04 g/m*3 8.45 C 6.4 km/h
749 27-04-2019 14:20:00 9.2 C 8.13 g/m*3 8.45 C 6.4 km/h
750 27-04-2019 14:25:00 9.2 C 8.13 g/m*3 9.2 C 0 km/h
Sensor: Nr:Datum:Temp:Abs-Feuchte:Windchill:Wind:
Aussen-T/F 751 27-04-2019 14:30:00 9.2 C 8.13 g/m*3 9.2 C 1.6 km/h
752 27-04-2019 14:35:00 9.6 C 8.52 g/m*3 8.21 C 9.7 km/h
753 27-04-2019 14:40:00 9.9 C 8.68 g/m*3 8.87 C 8.1 km/h
754 27-04-2019 14:45:00 9.9 C 8.5 g/m*3 8.56 C 9.7 km/h
755 27-04-2019 14:50:00 10 C 8.55 g/m*3 9.37 C 6.4 km/h
756 27-04-2019 14:55:00 10 C 8.36 g/m*3 9.37 C 6.4 km/h
757 27-04-2019 15:00:00 9.9 C 8.31 g/m*3 9.25 C 6.4 km/h
758 27-04-2019 15:05:00 10 C 8.46 g/m*3 10 C 0 km/h
759 27-04-2019 15:10:00 10.1 C 8.61 g/m*3 10.1 C 1.6 km/h
760 27-04-2019 15:15:00 10.1 C 8.61 g/m*3 10.1 C 0 km/h
761 27-04-2019 15:20:00 10.1 C 8.61 g/m*3 10.1 C 3.2 km/h
762 27-04-2019 15:25:00 10.2 C 8.76 g/m*3 10.2 C 3.2 km/h
763 27-04-2019 15:30:00 10.7 C 9.13 g/m*3 9.52 C 9.7 km/h
764 27-04-2019 15:35:00 11 C 9.11 g/m*3 11 C 1.6 km/h
765 27-04-2019 15:40:00 11.1 C 9.07 g/m*3 11.1 C 3.2 km/h
766 27-04-2019 15:45:00 10.8 C 8.6 g/m*3 10.8 C 4.8 km/h
767 27-04-2019 15:50:00 10.8 C 8.6 g/m*3 10.29 C 6.4 km/h
768 27-04-2019 15:55:00 10.8 C 8.7 g/m*3 10.8 C 1.6 km/h
769 27-04-2019 16:00:00 10.8 C 8.6 g/m*3 10.8 C 4.8 km/h
770 27-04-2019 16:05:00 11.1 C 8.76 g/m*3 11.1 C 6.4 km/h
771 27-04-2019 16:10:00 11.2 C 8.62 g/m*3 11.2 C 6.4 km/h
772 27-04-2019 16:15:00 11.3 C 8.47 g/m*3 11.3 C 9.7 km/h
773 27-04-2019 16:20:00 11.5 C 8.37 g/m*3 11.5 C 3.2 km/h
774 27-04-2019 16:25:00 11.6 C 8.52 g/m*3 11.6 C 4.8 km/h
775 27-04-2019 16:30:00 11.8 C 8.63 g/m*3 11.8 C 8.1 km/h
Sensor: Nr:Datum:Temp:Abs-Feuchte:Windchill:Wind:
Aussen-T/F 776 27-04-2019 16:35:00 12.3 C 8.69 g/m*3 12.3 C 8.1 km/h
777 27-04-2019 16:40:00 12.4 C 8.52 g/m*3 12.4 C 8.1 km/h
778 27-04-2019 16:45:00 12.3 C 8.58 g/m*3 12.3 C 8.1 km/h
779 27-04-2019 16:50:00 12.3 C 8.58 g/m*3 12.3 C 6.4 km/h
780 27-04-2019 16:55:00 12.4 C 8.52 g/m*3 12.4 C 8.1 km/h
781 27-04-2019 17:00:00 12.4 C 8.63 g/m*3 12.4 C 9.7 km/h
782 27-04-2019 17:05:00 12.3 C 8.47 g/m*3 12.3 C 4.8 km/h
783 27-04-2019 17:10:00 12.2 C 8.63 g/m*3 12.2 C 1.6 km/h
784 27-04-2019 17:15:00 12.1 C 8.58 g/m*3 12.1 C 6.4 km/h
785 27-04-2019 17:20:00 11.9 C 8.37 g/m*3 11.9 C 6.4 km/h
786 27-04-2019 17:25:00 12.1 C 8.79 g/m*3 12.1 C 8.1 km/h
787 27-04-2019 17:30:00 12.6 C 8.52 g/m*3 12.6 C 9.7 km/h
788 27-04-2019 17:35:00 12.7 C 8.57 g/m*3 12.7 C 9.7 km/h
789 27-04-2019 17:40:00 12.6 C 8.3 g/m*3 12.6 C 6.4 km/h
790 27-04-2019 17:45:00 12.3 C 8.36 g/m*3 12.3 C 6.4 km/h
791 27-04-2019 17:50:00 12.3 C 8.69 g/m*3 12.3 C 4.8 km/h
792 27-04-2019 17:55:00 12.7 C 8.79 g/m*3 12.7 C 8.1 km/h
793 27-04-2019 18:00:00 13.1 C 8.67 g/m*3 13.1 C 6.4 km/h
794 27-04-2019 18:05:00 12.9 C 8.23 g/m*3 12.9 C 8.1 km/h
795 27-04-2019 18:10:00 12.8 C 8.4 g/m*3 12.8 C 3.2 km/h
796 27-04-2019 18:15:00 12.4 C 8.19 g/m*3 12.4 C 4.8 km/h
797 27-04-2019 18:20:00 12.1 C 8.04 g/m*3 12.1 C 4.8 km/h
798 27-04-2019 18:25:00 11.6 C 8 g/m*3 11.6 C 17.7 km/h
799 27-04-2019 18:30:00 11 C 8.11 g/m*3 9.88 C 9.7 km/h
800 27-04-2019 18:35:00 10.6 C 8.1 g/m*3 10.06 C 6.4 km/h
Sensor: Nr:Datum:Temp:Abs-Feuchte:Windchill:Wind:
Aussen-T/F 801 27-04-2019 18:40:00 10.2 C 8.09 g/m*3 10.2 C 3.2 km/h
802 27-04-2019 18:45:00 9.9 C 8.12 g/m*3 9.9 C 1.6 km/h
803 27-04-2019 18:50:00 9.8 C 8.16 g/m*3 9.8 C 0 km/h
804 27-04-2019 18:55:00 9.7 C 8.2 g/m*3 9.7 C 4.8 km/h
805 27-04-2019 19:00:00 9.8 C 8.35 g/m*3 9.8 C 0 km/h
806 27-04-2019 19:05:00 10 C 8.64 g/m*3 10 C 3.2 km/h
807 27-04-2019 19:10:00 10.2 C 8.76 g/m*3 9.6 C 6.4 km/h
808 27-04-2019 19:15:00 10.3 C 8.71 g/m*3 10.3 C 4.8 km/h
809 27-04-2019 19:20:00 10.2 C 8.66 g/m*3 10.2 C 0 km/h
810 27-04-2019 19:25:00 10 C 8.46 g/m*3 10 C 3.2 km/h
811 27-04-2019 19:30:00 9.8 C 8.35 g/m*3 9.8 C 4.8 km/h
812 27-04-2019 19:35:00 9.6 C 8.15 g/m*3 8.21 C 9.7 km/h
813 27-04-2019 19:40:00 9.2 C 7.86 g/m*3 7.73 C 9.7 km/h
814 27-04-2019 19:45:00 8.8 C 7.75 g/m*3 7.98 C 6.4 km/h
815 27-04-2019 19:50:00 8.5 C 7.6 g/m*3 6.36 C 12.9 km/h
816 27-04-2019 19:55:00 8.3 C 7.59 g/m*3 6.12 C 12.9 km/h
817 27-04-2019 20:00:00 8.1 C 7.57 g/m*3 8.1 C 3.2 km/h
818 27-04-2019 20:05:00 8 C 7.52 g/m*3 7.06 C 6.4 km/h
819 27-04-2019 20:10:00 7.9 C 7.47 g/m*3 6.94 C 6.4 km/h
820 27-04-2019 20:15:00 7.8 C 7.51 g/m*3 7.8 C 4.8 km/h
821 27-04-2019 20:20:00 7.7 C 7.46 g/m*3 7.7 C 1.6 km/h
822 27-04-2019 20:25:00 7.7 C 7.46 g/m*3 7.7 C 3.2 km/h
823 27-04-2019 20:30:00 7.7 C 7.46 g/m*3 7.7 C 3.2 km/h
824 27-04-2019 20:35:00 7.6 C 7.49 g/m*3 7.6 C 1.6 km/h
825 27-04-2019 20:40:00 7.6 C 7.49 g/m*3 7.6 C 1.6 km/h
Sensor: Nr:Datum:Temp:Abs-Feuchte:Windchill:Wind:
Aussen-T/F 826 27-04-2019 20:45:00 7.6 C 7.49 g/m*3 7.6 C 1.6 km/h
827 27-04-2019 20:50:00 7.5 C 7.44 g/m*3 7.5 C 3.2 km/h
828 27-04-2019 20:55:00 7.5 C 7.44 g/m*3 7.5 C 3.2 km/h
829 27-04-2019 21:00:00 7.4 C 7.4 g/m*3 7.4 C 3.2 km/h
830 27-04-2019 21:05:00 7.4 C 7.4 g/m*3 7.4 C 1.6 km/h
831 27-04-2019 21:10:00 7.4 C 7.48 g/m*3 7.4 C 0 km/h
832 27-04-2019 21:15:00 7.4 C 7.48 g/m*3 7.4 C 1.6 km/h
833 27-04-2019 21:20:00 7.4 C 7.48 g/m*3 7.4 C 1.6 km/h
834 27-04-2019 21:25:00 7.4 C 7.48 g/m*3 7.4 C 0 km/h
835 27-04-2019 21:30:00 7.4 C 7.48 g/m*3 7.4 C 0 km/h
836 27-04-2019 21:35:00 7.3 C 7.43 g/m*3 7.3 C 0 km/h
837 27-04-2019 21:40:00 7.3 C 7.43 g/m*3 7.3 C 0 km/h
838 27-04-2019 21:45:00 7.2 C 7.38 g/m*3 7.2 C 1.6 km/h
839 27-04-2019 21:50:00 7.1 C 7.33 g/m*3 7.1 C 0 km/h
840 27-04-2019 21:55:00 6.9 C 7.24 g/m*3 6.9 C 0 km/h
841 27-04-2019 22:00:00 6.9 C 7.24 g/m*3 6.9 C 0 km/h
842 27-04-2019 22:05:00 6.8 C 7.19 g/m*3 6.8 C 0 km/h
843 27-04-2019 22:10:00 6.7 C 7.14 g/m*3 6.7 C 0 km/h
844 27-04-2019 22:15:00 6.7 C 7.14 g/m*3 6.7 C 1.6 km/h
845 27-04-2019 22:20:00 6.8 C 7.19 g/m*3 6.8 C 3.2 km/h
846 27-04-2019 22:25:00 6.8 C 7.27 g/m*3 6.8 C 1.6 km/h
847 27-04-2019 22:30:00 6.8 C 7.27 g/m*3 6.8 C 3.2 km/h
848 27-04-2019 22:35:00 6.8 C 7.27 g/m*3 6.8 C 1.6 km/h
849 27-04-2019 22:40:00 6.8 C 7.27 g/m*3 6.8 C 0 km/h
850 27-04-2019 22:45:00 6.7 C 7.22 g/m*3 6.7 C 1.6 km/h
Sensor: Nr:Datum:Temp:Abs-Feuchte:Windchill:Wind:
Aussen-T/F 851 27-04-2019 22:50:00 6.7 C 7.22 g/m*3 6.7 C 1.6 km/h
852 27-04-2019 22:55:00 6.7 C 7.22 g/m*3 6.7 C 1.6 km/h
853 27-04-2019 23:00:00 6.8 C 7.27 g/m*3 6.8 C 0 km/h
854 27-04-2019 23:05:00 6.8 C 7.27 g/m*3 6.8 C 1.6 km/h
855 27-04-2019 23:10:00 6.9 C 7.31 g/m*3 6.9 C 0 km/h
856 27-04-2019 23:15:00 6.9 C 7.31 g/m*3 5.79 C 6.4 km/h
857 27-04-2019 23:20:00 6.9 C 7.31 g/m*3 6.9 C 1.6 km/h
858 27-04-2019 23:25:00 6.9 C 7.31 g/m*3 6.9 C 1.6 km/h
859 27-04-2019 23:30:00 6.9 C 7.31 g/m*3 6.9 C 3.2 km/h
860 27-04-2019 23:35:00 6.8 C 7.27 g/m*3 6.8 C 4.8 km/h
861 27-04-2019 23:40:00 6.8 C 7.27 g/m*3 5.67 C 6.4 km/h
862 27-04-2019 23:45:00 6.8 C 7.27 g/m*3 4.29 C 12.9 km/h
863 27-04-2019 23:50:00 6.8 C 7.27 g/m*3 5.22 C 8.1 km/h
864 27-04-2019 23:55:00 6.8 C 7.19 g/m*3 5.22 C 8.1 km/h
865 28-04-2019 00:00:00 6.8 C 7.19 g/m*3 6.8 C 1.6 km/h
866 28-04-2019 00:05:00 6.8 C 7.19 g/m*3 6.8 C 3.2 km/h
867 28-04-2019 00:10:00 6.8 C 7.19 g/m*3 6.8 C 3.2 km/h
868 28-04-2019 00:15:00 6.9 C 7.24 g/m*3 6.9 C 3.2 km/h
869 28-04-2019 00:20:00 6.8 C 7.19 g/m*3 4.87 C 9.7 km/h
870 28-04-2019 00:25:00 6.9 C 7.24 g/m*3 6.9 C 1.6 km/h
871 28-04-2019 00:30:00 6.9 C 7.24 g/m*3 6.9 C 0 km/h
872 28-04-2019 00:35:00 6.9 C 7.24 g/m*3 6.9 C 4.8 km/h
873 28-04-2019 00:40:00 6.9 C 7.24 g/m*3 6.9 C 3.2 km/h
874 28-04-2019 00:45:00 6.9 C 7.16 g/m*3 4.99 C 9.7 km/h
875 28-04-2019 00:50:00 6.9 C 7.16 g/m*3 6.9 C 4.8 km/h
Sensor: Nr:Datum:Temp:Abs-Feuchte:Windchill:Wind:
Aussen-T/F 876 28-04-2019 00:55:00 6.9 C 7.16 g/m*3 6.9 C 4.8 km/h
877 28-04-2019 01:00:00 6.9 C 7.16 g/m*3 6.9 C 3.2 km/h
878 28-04-2019 01:05:00 6.9 C 7.16 g/m*3 5.79 C 6.4 km/h
879 28-04-2019 01:10:00 6.9 C 7.16 g/m*3 5.79 C 6.4 km/h
880 28-04-2019 01:15:00 6.9 C 7.08 g/m*3 6.9 C 1.6 km/h
881 28-04-2019 01:20:00 6.9 C 7.16 g/m*3 6.9 C 1.6 km/h
882 28-04-2019 01:25:00 6.9 C 7.08 g/m*3 4.41 C 12.9 km/h
883 28-04-2019 01:30:00 6.9 C 7.08 g/m*3 4.68 C 11.3 km/h
884 28-04-2019 01:35:00 6.9 C 7.08 g/m*3 4.99 C 9.7 km/h
885 28-04-2019 01:40:00 6.9 C 7.08 g/m*3 5.79 C 6.4 km/h
886 28-04-2019 01:45:00 6.8 C 7.04 g/m*3 6.8 C 4.8 km/h
887 28-04-2019 01:50:00 6.8 C 7.04 g/m*3 6.8 C 1.6 km/h
888 28-04-2019 01:55:00 6.8 C 6.96 g/m*3 5.67 C 6.4 km/h
889 28-04-2019 02:00:00 6.8 C 6.96 g/m*3 6.8 C 3.2 km/h
890 28-04-2019 02:05:00 6.7 C 6.91 g/m*3 4.17 C 12.9 km/h
891 28-04-2019 02:10:00 6.7 C 6.91 g/m*3 3.69 C 16.1 km/h
892 28-04-2019 02:15:00 6.6 C 6.87 g/m*3 3.57 C 16.1 km/h
893 28-04-2019 02:20:00 6.6 C 6.87 g/m*3 4.32 C 11.3 km/h
894 28-04-2019 02:25:00 6.5 C 6.82 g/m*3 6.5 C 1.6 km/h
895 28-04-2019 02:30:00 6.4 C 6.78 g/m*3 6.4 C 1.6 km/h
896 28-04-2019 02:35:00 6.3 C 6.74 g/m*3 6.3 C 1.6 km/h
897 28-04-2019 02:40:00 6.3 C 6.74 g/m*3 6.3 C 0 km/h
898 28-04-2019 02:45:00 6.2 C 6.69 g/m*3 6.2 C 1.6 km/h
899 28-04-2019 02:50:00 6.1 C 6.65 g/m*3 6.1 C 0 km/h
900 28-04-2019 02:55:00 6 C 6.6 g/m*3 6 C 3.2 km/h
Sensor: Nr:Datum:Temp:Abs-Feuchte:Windchill:Wind:
Aussen-T/F 901 28-04-2019 03:00:00 6 C 6.6 g/m*3 4.75 C 6.4 km/h
902 28-04-2019 03:05:00 6 C 6.6 g/m*3 6 C 4.8 km/h
903 28-04-2019 03:10:00 6.1 C 6.65 g/m*3 4.4 C 8.1 km/h
904 28-04-2019 03:15:00 6.1 C 6.65 g/m*3 6.1 C 4.8 km/h
905 28-04-2019 03:20:00 6.2 C 6.69 g/m*3 6.2 C 4.8 km/h
906 28-04-2019 03:25:00 6.2 C 6.62 g/m*3 6.2 C 3.2 km/h
907 28-04-2019 03:30:00 6.2 C 6.62 g/m*3 4.98 C 6.4 km/h
908 28-04-2019 03:35:00 6.3 C 6.66 g/m*3 6.3 C 3.2 km/h
909 28-04-2019 03:40:00 6.3 C 6.66 g/m*3 4.64 C 8.1 km/h
910 28-04-2019 03:45:00 6.3 C 6.66 g/m*3 4.64 C 8.1 km/h
911 28-04-2019 03:50:00 6.3 C 6.59 g/m*3 4.64 C 8.1 km/h
912 28-04-2019 03:55:00 6.3 C 6.59 g/m*3 4.27 C 9.7 km/h
913 28-04-2019 04:00:00 6.4 C 6.63 g/m*3 3.55 C 14.5 km/h
914 28-04-2019 04:05:00 6.4 C 6.63 g/m*3 4.39 C 9.7 km/h
915 28-04-2019 04:10:00 6.4 C 6.56 g/m*3 5.21 C 6.4 km/h
916 28-04-2019 04:15:00 6.4 C 6.56 g/m*3 3.8 C 12.9 km/h
917 28-04-2019 04:20:00 6.4 C 6.56 g/m*3 3.8 C 12.9 km/h
918 28-04-2019 04:25:00 6.5 C 6.6 g/m*3 5.33 C 6.4 km/h
919 28-04-2019 04:30:00 6.5 C 6.6 g/m*3 4.51 C 9.7 km/h
920 28-04-2019 04:35:00 6.4 C 6.56 g/m*3 4.39 C 9.7 km/h
921 28-04-2019 04:40:00 6.4 C 6.56 g/m*3 4.39 C 9.7 km/h
922 28-04-2019 04:45:00 6.4 C 6.56 g/m*3 5.21 C 6.4 km/h
923 28-04-2019 04:50:00 6.4 C 6.56 g/m*3 3.55 C 14.5 km/h
924 28-04-2019 04:55:00 6.4 C 6.56 g/m*3 3.8 C 12.9 km/h
925 28-04-2019 05:00:00 6.4 C 6.56 g/m*3 4.39 C 9.7 km/h
Sensor: Nr:Datum:Temp:Abs-Feuchte:Windchill:Wind:
Aussen-T/F 926 28-04-2019 05:05:00 6.4 C 6.56 g/m*3 3.55 C 14.5 km/h
927 28-04-2019 05:10:00 6.3 C 6.51 g/m*3 2.79 C 19.3 km/h
928 28-04-2019 05:15:00 6.3 C 6.51 g/m*3 6.3 C 4.8 km/h
929 28-04-2019 05:20:00 6.3 C 6.59 g/m*3 6.3 C 4.8 km/h
930 28-04-2019 05:25:00 6.3 C 6.59 g/m*3 4.27 C 9.7 km/h
931 28-04-2019 05:30:00 6.2 C 6.55 g/m*3 4.15 C 9.7 km/h
932 28-04-2019 05:35:00 6.2 C 6.55 g/m*3 4.98 C 6.4 km/h
933 28-04-2019 05:40:00 6.2 C 6.55 g/m*3 3.84 C 11.3 km/h
934 28-04-2019 05:45:00 6.2 C 6.55 g/m*3 4.15 C 9.7 km/h
935 28-04-2019 05:50:00 6.2 C 6.55 g/m*3 4.15 C 9.7 km/h
936 28-04-2019 05:55:00 6.2 C 6.55 g/m*3 3.56 C 12.9 km/h
937 28-04-2019 06:00:00 6.2 C 6.47 g/m*3 3.84 C 11.3 km/h
938 28-04-2019 06:05:00 6.2 C 6.47 g/m*3 4.52 C 8.1 km/h
939 28-04-2019 06:10:00 6.2 C 6.55 g/m*3 3.84 C 11.3 km/h
940 28-04-2019 06:15:00 6.2 C 6.55 g/m*3 4.15 C 9.7 km/h
941 28-04-2019 06:20:00 6.2 C 6.55 g/m*3 3.84 C 11.3 km/h
942 28-04-2019 06:25:00 6.2 C 6.55 g/m*3 3.3 C 14.5 km/h
943 28-04-2019 06:30:00 6.2 C 6.55 g/m*3 4.98 C 6.4 km/h
944 28-04-2019 06:35:00 6.2 C 6.55 g/m*3 4.98 C 6.4 km/h
945 28-04-2019 06:40:00 6.2 C 6.55 g/m*3 4.52 C 8.1 km/h
946 28-04-2019 06:45:00 6.2 C 6.55 g/m*3 6.2 C 1.6 km/h
947 28-04-2019 06:50:00 6.2 C 6.55 g/m*3 6.2 C 0 km/h
948 28-04-2019 06:55:00 6.2 C 6.55 g/m*3 6.2 C 0 km/h
949 28-04-2019 07:00:00 6.3 C 6.59 g/m*3 6.3 C 3.2 km/h
950 28-04-2019 07:05:00 6.3 C 6.66 g/m*3 6.3 C 1.6 km/h
Sensor: Nr:Datum:Temp:Abs-Feuchte:Windchill:Wind:
Aussen-T/F 951 28-04-2019 07:10:00 6.4 C 6.63 g/m*3 5.21 C 6.4 km/h
952 28-04-2019 07:15:00 6.5 C 6.67 g/m*3 4.2 C 11.3 km/h
953 28-04-2019 07:20:00 6.6 C 6.72 g/m*3 4.32 C 11.3 km/h
954 28-04-2019 07:25:00 6.7 C 6.69 g/m*3 5.11 C 8.1 km/h
955 28-04-2019 07:30:00 6.8 C 6.73 g/m*3 5.22 C 8.1 km/h
956 28-04-2019 07:35:00 7 C 6.82 g/m*3 7 C 4.8 km/h
957 28-04-2019 07:40:00 7.1 C 6.86 g/m*3 5.23 C 9.7 km/h
958 28-04-2019 07:45:00 7.3 C 6.87 g/m*3 5.81 C 8.1 km/h
959 28-04-2019 07:50:00 7.3 C 6.87 g/m*3 6.25 C 6.4 km/h
960 28-04-2019 07:55:00 7.4 C 6.92 g/m*3 5.93 C 8.1 km/h
961 28-04-2019 08:00:00 7.5 C 6.96 g/m*3 6.48 C 6.4 km/h
962 28-04-2019 08:05:00 7.5 C 6.88 g/m*3 6.05 C 8.1 km/h
963 28-04-2019 08:10:00 7.5 C 6.88 g/m*3 7.5 C 4.8 km/h
964 28-04-2019 08:15:00 7.6 C 6.93 g/m*3 6.6 C 6.4 km/h
965 28-04-2019 08:20:00 7.6 C 6.93 g/m*3 5.53 C 11.3 km/h
966 28-04-2019 08:25:00 7.6 C 6.93 g/m*3 6.16 C 8.1 km/h
967 28-04-2019 08:30:00 7.6 C 6.93 g/m*3 5.82 C 9.7 km/h
968 28-04-2019 08:35:00 7.6 C 6.93 g/m*3 6.16 C 8.1 km/h
969 28-04-2019 08:40:00 7.6 C 6.93 g/m*3 6.16 C 8.1 km/h
970 28-04-2019 08:45:00 7.6 C 6.93 g/m*3 6.6 C 6.4 km/h
971 28-04-2019 08:50:00 7.6 C 6.93 g/m*3 6.16 C 8.1 km/h
972 28-04-2019 08:55:00 7.6 C 6.93 g/m*3 6.6 C 6.4 km/h
973 28-04-2019 09:00:00 7.7 C 6.97 g/m*3 7.7 C 4.8 km/h
974 28-04-2019 09:05:00 7.7 C 6.97 g/m*3 6.28 C 8.1 km/h
975 28-04-2019 09:10:00 7.7 C 6.97 g/m*3 7.7 C 1.6 km/h
Sensor: Nr:Datum:Temp:Abs-Feuchte:Windchill:Wind:
Aussen-T/F 976 28-04-2019 09:15:00 7.8 C 7.02 g/m*3 7.8 C 4.8 km/h
977 28-04-2019 09:20:00 7.8 C 7.02 g/m*3 7.8 C 1.6 km/h
978 28-04-2019 09:25:00 7.9 C 7.15 g/m*3 7.9 C 3.2 km/h
979 28-04-2019 09:30:00 8 C 7.19 g/m*3 6.01 C 11.3 km/h
980 28-04-2019 09:35:00 8 C 7.19 g/m*3 8 C 3.2 km/h
981 28-04-2019 09:40:00 8 C 7.19 g/m*3 8 C 3.2 km/h
982 28-04-2019 09:45:00 8.1 C 7.24 g/m*3 8.1 C 3.2 km/h
983 28-04-2019 09:50:00 8.2 C 7.29 g/m*3 8.2 C 3.2 km/h
984 28-04-2019 09:55:00 8.3 C 7.33 g/m*3 8.3 C 3.2 km/h
985 28-04-2019 10:00:00 8.3 C 7.33 g/m*3 8.3 C 3.2 km/h
986 28-04-2019 10:05:00 8.4 C 7.21 g/m*3 8.4 C 4.8 km/h
987 28-04-2019 10:10:00 8.6 C 7.3 g/m*3 8.6 C 3.2 km/h
988 28-04-2019 10:15:00 8.7 C 7.35 g/m*3 7.87 C 6.4 km/h
989 28-04-2019 10:20:00 8.8 C 7.31 g/m*3 7.98 C 6.4 km/h
990 28-04-2019 10:25:00 8.9 C 7.27 g/m*3 8.1 C 6.4 km/h
991 28-04-2019 10:30:00 9 C 7.32 g/m*3 8.21 C 6.4 km/h
992 28-04-2019 10:35:00 9.1 C 7.28 g/m*3 9.1 C 4.8 km/h
993 28-04-2019 10:40:00 9.2 C 7.32 g/m*3 8.45 C 6.4 km/h
994 28-04-2019 10:45:00 9.2 C 7.14 g/m*3 8.45 C 6.4 km/h
995 28-04-2019 10:50:00 9.3 C 7.19 g/m*3 7.58 C 11.3 km/h
996 28-04-2019 10:55:00 9.4 C 7.24 g/m*3 8.28 C 8.1 km/h
997 28-04-2019 11:00:00 9.5 C 7.1 g/m*3 8.09 C 9.7 km/h
998 28-04-2019 11:05:00 9.7 C 7.19 g/m*3 8.33 C 9.7 km/h
999 28-04-2019 11:10:00 9.8 C 7.24 g/m*3 7.94 C 12.9 km/h
1000 28-04-2019 11:15:00 9.9 C 6.91 g/m*3 7.85 C 14.5 km/h
Sensor: Nr:Datum:Temp:Abs-Feuchte:Windchill:Wind:
Aussen-T/F 1001 28-04-2019 11:20:00 10 C 7.05 g/m*3 8.42 C 11.3 km/h
1002 28-04-2019 11:25:00 10.1 C 7.09 g/m*3 8.54 C 11.3 km/h
1003 28-04-2019 11:30:00 10.2 C 7.04 g/m*3 8.43 C 12.9 km/h
1004 28-04-2019 11:35:00 10.3 C 6.99 g/m*3 8.78 C 11.3 km/h
1005 28-04-2019 11:40:00 10.2 C 6.85 g/m*3 9.22 C 8.1 km/h
1006 28-04-2019 11:45:00 10.1 C 6.81 g/m*3 8.54 C 11.3 km/h
1007 28-04-2019 11:50:00 10.1 C 6.71 g/m*3 8.54 C 11.3 km/h
1008 28-04-2019 11:55:00 10.1 C 6.81 g/m*3 8.54 C 11.3 km/h
1009 28-04-2019 12:00:00 10.2 C 6.85 g/m*3 8.43 C 12.9 km/h
1010 28-04-2019 12:05:00 10.3 C 6.9 g/m*3 9.04 C 9.7 km/h
1011 28-04-2019 12:10:00 10.3 C 6.8 g/m*3 8.78 C 11.3 km/h
1012 28-04-2019 12:15:00 10.3 C 6.7 g/m*3 9.72 C 6.4 km/h
1013 28-04-2019 12:20:00 10.3 C 6.8 g/m*3 9.72 C 6.4 km/h
1014 28-04-2019 12:25:00 10.3 C 6.7 g/m*3 9.04 C 9.7 km/h
1015 28-04-2019 12:30:00 10.2 C 6.66 g/m*3 9.6 C 6.4 km/h
1016 28-04-2019 12:35:00 10.2 C 6.76 g/m*3 8.43 C 12.9 km/h
1017 28-04-2019 12:40:00 10.2 C 6.66 g/m*3 8.66 C 11.3 km/h
1018 28-04-2019 12:45:00 10.3 C 6.7 g/m*3 8.34 C 14.5 km/h
1019 28-04-2019 12:50:00 10.6 C 6.73 g/m*3 10.06 C 6.4 km/h
1020 28-04-2019 12:55:00 10.7 C 6.97 g/m*3 10.7 C 4.8 km/h
1021 28-04-2019 13:00:00 10.9 C 6.86 g/m*3 9.76 C 9.7 km/h
1022 28-04-2019 13:05:00 11 C 6.81 g/m*3 9.88 C 9.7 km/h
1023 28-04-2019 13:10:00 11.1 C 6.85 g/m*3 11.1 C 8.1 km/h
1024 28-04-2019 13:15:00 11.1 C 6.85 g/m*3 11.1 C 4.8 km/h
1025 28-04-2019 13:20:00 11.2 C 6.99 g/m*3 11.2 C 6.4 km/h
Sensor: Nr:Datum:Temp:Abs-Feuchte:Windchill:Wind:
Aussen-T/F 1026 28-04-2019 13:25:00 11.2 C 6.79 g/m*3 11.2 C 8.1 km/h
1027 28-04-2019 13:30:00 11.2 C 6.59 g/m*3 11.2 C 8.1 km/h
1028 28-04-2019 13:35:00 11.3 C 6.83 g/m*3 11.3 C 8.1 km/h
1029 28-04-2019 13:40:00 11.4 C 6.77 g/m*3 11.4 C 11.3 km/h
1030 28-04-2019 13:45:00 11.6 C 7.07 g/m*3 11.6 C 11.3 km/h
1031 28-04-2019 13:50:00 11.7 C 6.59 g/m*3 11.7 C 8.1 km/h
1032 28-04-2019 13:55:00 11.9 C 6.99 g/m*3 11.9 C 9.7 km/h
1033 28-04-2019 14:00:00 12 C 7.03 g/m*3 12 C 9.7 km/h
1034 28-04-2019 14:05:00 12.1 C 7.18 g/m*3 12.1 C 6.4 km/h
1035 28-04-2019 14:10:00 12.1 C 7.29 g/m*3 12.1 C 9.7 km/h
1036 28-04-2019 14:15:00 12.1 C 7.18 g/m*3 12.1 C 9.7 km/h
1037 28-04-2019 14:20:00 12.1 C 7.29 g/m*3 12.1 C 8.1 km/h
1038 28-04-2019 14:25:00 12.1 C 7.08 g/m*3 12.1 C 1.6 km/h
1039 28-04-2019 14:30:00 12.3 C 7.28 g/m*3 12.3 C 4.8 km/h
1040 28-04-2019 14:35:00 12.4 C 7.43 g/m*3 12.4 C 6.4 km/h
1041 28-04-2019 14:40:00 12.6 C 7.3 g/m*3 12.6 C 8.1 km/h
1042 28-04-2019 14:45:00 12.7 C 7.46 g/m*3 12.7 C 1.6 km/h
1043 28-04-2019 14:50:00 12.8 C 7.28 g/m*3 12.8 C 8.1 km/h
1044 28-04-2019 14:55:00 12.9 C 7.1 g/m*3 12.9 C 11.3 km/h
1045 28-04-2019 15:00:00 12.8 C 7.28 g/m*3 12.8 C 8.1 km/h
1046 28-04-2019 15:05:00 12.8 C 7.5 g/m*3 12.8 C 11.3 km/h
1047 28-04-2019 15:10:00 12.6 C 7.19 g/m*3 12.6 C 6.4 km/h
1048 28-04-2019 15:15:00 12.2 C 7.34 g/m*3 12.2 C 11.3 km/h
1049 28-04-2019 15:20:00 11.8 C 7.58 g/m*3 11.8 C 8.1 km/h
1050 28-04-2019 15:25:00 11.6 C 7.48 g/m*3 11.6 C 4.8 km/h
Sensor: Nr:Datum:Temp:Abs-Feuchte:Windchill:Wind:
Aussen-T/F 1051 28-04-2019 15:30:00 11.3 C 7.65 g/m*3 11.3 C 4.8 km/h
1052 28-04-2019 15:35:00 11 C 7.61 g/m*3 10.52 C 6.4 km/h
1053 28-04-2019 15:40:00 10.7 C 7.66 g/m*3 10.7 C 4.8 km/h
1054 28-04-2019 15:45:00 10.6 C 7.71 g/m*3 10.06 C 6.4 km/h
1055 28-04-2019 15:50:00 10.4 C 7.81 g/m*3 10.4 C 3.2 km/h
1056 28-04-2019 15:55:00 10.3 C 7.85 g/m*3 10.3 C 3.2 km/h
1057 28-04-2019 16:00:00 10.2 C 7.99 g/m*3 10.2 C 4.8 km/h
1058 28-04-2019 16:05:00 10.1 C 8.04 g/m*3 10.1 C 1.6 km/h
1059 28-04-2019 16:10:00 10 C 7.99 g/m*3 10 C 4.8 km/h
1060 28-04-2019 16:15:00 9.8 C 7.79 g/m*3 9.8 C 4.8 km/h
1061 28-04-2019 16:20:00 9.9 C 7.94 g/m*3 9.9 C 3.2 km/h
1062 28-04-2019 16:25:00 9.9 C 7.94 g/m*3 8.87 C 8.1 km/h
1063 28-04-2019 16:30:00 10 C 7.99 g/m*3 10 C 1.6 km/h
1064 28-04-2019 16:35:00 10.1 C 7.94 g/m*3 10.1 C 1.6 km/h
1065 28-04-2019 16:40:00 10.3 C 8.14 g/m*3 10.3 C 3.2 km/h
1066 28-04-2019 16:45:00 10.8 C 8.3 g/m*3 9.93 C 8.1 km/h
1067 28-04-2019 16:50:00 11.6 C 8.52 g/m*3 11.6 C 9.7 km/h
1068 28-04-2019 16:55:00 11.8 C 8.21 g/m*3 11.8 C 11.3 km/h
1069 28-04-2019 17:00:00 11.5 C 7.95 g/m*3 11.5 C 12.9 km/h
1070 28-04-2019 17:05:00 11.4 C 8.01 g/m*3 11.4 C 6.4 km/h
1071 28-04-2019 17:10:00 11.4 C 8.01 g/m*3 11.4 C 3.2 km/h
1072 28-04-2019 17:15:00 11.5 C 8.26 g/m*3 11.5 C 3.2 km/h
1073 28-04-2019 17:20:00 11.5 C 8.16 g/m*3 11.5 C 0 km/h
1074 28-04-2019 17:25:00 11.5 C 8.16 g/m*3 11.5 C 0 km/h
1075 28-04-2019 17:30:00 11.5 C 8.16 g/m*3 11.5 C 0 km/h
Sensor: Nr:Datum:Temp:Abs-Feuchte:Windchill:Wind:
Aussen-T/F 1076 28-04-2019 17:35:00 11.4 C 8.11 g/m*3 11.4 C 3.2 km/h
1077 28-04-2019 17:40:00 11.4 C 8.11 g/m*3 11.4 C 0 km/h
1078 28-04-2019 17:45:00 11.4 C 8.21 g/m*3 11.4 C 0 km/h
1079 28-04-2019 17:50:00 11.4 C 8.21 g/m*3 11.4 C 1.6 km/h
1080 28-04-2019 17:55:00 11.4 C 8.31 g/m*3 11.4 C 0 km/h
1081 28-04-2019 18:00:00 11.5 C 8.47 g/m*3 11.5 C 0 km/h
1082 28-04-2019 18:05:00 11.5 C 8.37 g/m*3 11.5 C 0 km/h
1083 28-04-2019 18:10:00 11.4 C 7.8 g/m*3 11.4 C 0 km/h
1084 28-04-2019 18:15:00 11.4 C 7.49 g/m*3 11.4 C 9.7 km/h
1085 28-04-2019 18:20:00 11.6 C 7.9 g/m*3 11.6 C 3.2 km/h
1086 28-04-2019 18:25:00 11.7 C 7.64 g/m*3 11.7 C 8.1 km/h
1087 28-04-2019 18:30:00 11.7 C 7.64 g/m*3 11.7 C 8.1 km/h
1088 28-04-2019 18:35:00 11.6 C 7.59 g/m*3 11.6 C 11.3 km/h
1089 28-04-2019 18:40:00 11.5 C 7.44 g/m*3 11.5 C 9.7 km/h
1090 28-04-2019 18:45:00 11.4 C 7.29 g/m*3 11.4 C 11.3 km/h
1091 28-04-2019 18:50:00 11.3 C 7.45 g/m*3 11.3 C 11.3 km/h
1092 28-04-2019 18:55:00 11.2 C 7.3 g/m*3 11.2 C 8.1 km/h
1093 28-04-2019 19:00:00 11.1 C 7.45 g/m*3 11.1 C 8.1 km/h
1094 28-04-2019 19:05:00 11.1 C 7.45 g/m*3 11.1 C 8.1 km/h
1095 28-04-2019 19:10:00 10.9 C 7.36 g/m*3 10.41 C 6.4 km/h
1096 28-04-2019 19:15:00 10.8 C 7.51 g/m*3 10.8 C 4.8 km/h
1097 28-04-2019 19:20:00 10.7 C 7.46 g/m*3 9.81 C 8.1 km/h
1098 28-04-2019 19:25:00 10.6 C 7.61 g/m*3 10.06 C 6.4 km/h
1099 28-04-2019 19:30:00 10.6 C 7.52 g/m*3 10.06 C 6.4 km/h
1100 28-04-2019 19:35:00 10.7 C 7.56 g/m*3 9.81 C 8.1 km/h
Sensor: Nr:Datum:Temp:Abs-Feuchte:Windchill:Wind:
Aussen-T/F 1101 28-04-2019 19:40:00 10.8 C 7.71 g/m*3 10.29 C 6.4 km/h
1102 28-04-2019 19:45:00 10.9 C 7.56 g/m*3 10.41 C 6.4 km/h
1103 28-04-2019 19:50:00 11.1 C 7.66 g/m*3 11.1 C 6.4 km/h
1104 28-04-2019 19:55:00 11.1 C 7.66 g/m*3 11.1 C 8.1 km/h
1105 28-04-2019 20:00:00 10.8 C 7.51 g/m*3 9.64 C 9.7 km/h
1106 28-04-2019 20:05:00 10.7 C 7.56 g/m*3 10.7 C 3.2 km/h
1107 28-04-2019 20:10:00 10.4 C 7.52 g/m*3 10.4 C 4.8 km/h
1108 28-04-2019 20:15:00 10.3 C 7.57 g/m*3 10.3 C 0 km/h
1109 28-04-2019 20:20:00 10.1 C 7.56 g/m*3 10.1 C 0 km/h
1110 28-04-2019 20:25:00 9.9 C 7.47 g/m*3 9.9 C 0 km/h
1111 28-04-2019 20:30:00 9.6 C 7.42 g/m*3 9.6 C 0 km/h
1112 28-04-2019 20:35:00 9.3 C 7.28 g/m*3 9.3 C 0 km/h
1113 28-04-2019 20:40:00 9.1 C 7.28 g/m*3 9.1 C 0 km/h
1114 28-04-2019 20:45:00 8.8 C 7.14 g/m*3 8.8 C 0 km/h
1115 28-04-2019 20:50:00 8.5 C 7.09 g/m*3 8.5 C 0 km/h
1116 28-04-2019 20:55:00 8.3 C 7.08 g/m*3 8.3 C 0 km/h
1117 28-04-2019 21:00:00 8.1 C 6.99 g/m*3 8.1 C 0 km/h
1118 28-04-2019 21:05:00 7.9 C 6.98 g/m*3 7.9 C 0 km/h
1119 28-04-2019 21:10:00 7.7 C 6.97 g/m*3 7.7 C 0 km/h
1120 28-04-2019 21:15:00 7.6 C 6.93 g/m*3 7.6 C 0 km/h
1121 28-04-2019 21:20:00 7.4 C 6.92 g/m*3 7.4 C 0 km/h
1122 28-04-2019 21:25:00 7.3 C 6.87 g/m*3 7.3 C 0 km/h
1123 28-04-2019 21:30:00 7.2 C 6.83 g/m*3 7.2 C 0 km/h
1124 28-04-2019 21:35:00 7.1 C 6.86 g/m*3 7.1 C 0 km/h
1125 28-04-2019 21:40:00 7 C 6.82 g/m*3 7 C 0 km/h
Sensor: Nr:Datum:Temp:Abs-Feuchte:Windchill:Wind:
Aussen-T/F 1126 28-04-2019 21:45:00 6.9 C 6.77 g/m*3 6.9 C 0 km/h
1127 28-04-2019 21:50:00 6.8 C 6.73 g/m*3 6.8 C 0 km/h
1128 28-04-2019 21:55:00 6.7 C 6.76 g/m*3 6.7 C 0 km/h
1129 28-04-2019 22:00:00 6.6 C 6.72 g/m*3 6.6 C 0 km/h
1130 28-04-2019 22:05:00 6.4 C 6.63 g/m*3 6.4 C 0 km/h
1131 28-04-2019 22:10:00 6.3 C 6.59 g/m*3 6.3 C 0 km/h
1132 28-04-2019 22:15:00 6.2 C 6.62 g/m*3 6.2 C 0 km/h
1133 28-04-2019 22:20:00 6.1 C 6.58 g/m*3 6.1 C 0 km/h
1134 28-04-2019 22:25:00 6 C 6.53 g/m*3 6 C 0 km/h
1135 28-04-2019 22:30:00 5.9 C 6.56 g/m*3 5.9 C 0 km/h
1136 28-04-2019 22:35:00 5.8 C 6.52 g/m*3 5.8 C 0 km/h
1137 28-04-2019 22:40:00 5.7 C 6.48 g/m*3 5.7 C 0 km/h
1138 28-04-2019 22:45:00 5.6 C 6.43 g/m*3 5.6 C 0 km/h
1139 28-04-2019 22:50:00 5.6 C 6.5 g/m*3 5.6 C 0 km/h
1140 28-04-2019 22:55:00 5.4 C 6.42 g/m*3 5.4 C 0 km/h
1141 28-04-2019 23:00:00 5.3 C 6.31 g/m*3 5.3 C 0 km/h
1142 28-04-2019 23:05:00 5.2 C 6.27 g/m*3 5.2 C 0 km/h
1143 28-04-2019 23:10:00 5.2 C 6.33 g/m*3 5.2 C 0 km/h
1144 28-04-2019 23:15:00 5.1 C 6.29 g/m*3 5.1 C 0 km/h
1145 28-04-2019 23:20:00 5.1 C 6.29 g/m*3 5.1 C 0 km/h
1146 28-04-2019 23:25:00 5 C 6.32 g/m*3 5 C 0 km/h
1147 28-04-2019 23:30:00 4.9 C 6.21 g/m*3 4.9 C 0 km/h
1148 28-04-2019 23:35:00 4.9 C 6.28 g/m*3 4.9 C 0 km/h
1149 28-04-2019 23:40:00 4.9 C 6.28 g/m*3 4.9 C 0 km/h
1150 28-04-2019 23:45:00 4.8 C 6.24 g/m*3 4.8 C 0 km/h
Sensor: Nr:Datum:Temp:Abs-Feuchte:Windchill:Wind:
Aussen-T/F 1151 28-04-2019 23:50:00 4.8 C 6.24 g/m*3 4.8 C 0 km/h
1152 28-04-2019 23:55:00 4.8 C 6.24 g/m*3 4.8 C 0 km/h
1153 29-04-2019 00:00:00 4.7 C 6.19 g/m*3 4.7 C 0 km/h
1154 29-04-2019 00:05:00 4.7 C 6.19 g/m*3 4.7 C 0 km/h
1155 29-04-2019 00:10:00 4.7 C 6.26 g/m*3 4.7 C 0 km/h
1156 29-04-2019 00:15:00 4.6 C 6.15 g/m*3 4.6 C 0 km/h
1157 29-04-2019 00:20:00 4.5 C 6.11 g/m*3 4.5 C 0 km/h
1158 29-04-2019 00:25:00 4.4 C 6.07 g/m*3 4.4 C 0 km/h
1159 29-04-2019 00:30:00 4.3 C 6.1 g/m*3 4.3 C 0 km/h
1160 29-04-2019 00:35:00 4.3 C 6.1 g/m*3 4.3 C 0 km/h
1161 29-04-2019 00:40:00 4.2 C 6.06 g/m*3 4.2 C 0 km/h
1162 29-04-2019 00:45:00 4.2 C 6.06 g/m*3 4.2 C 0 km/h
1163 29-04-2019 00:50:00 4.2 C 6.06 g/m*3 4.2 C 0 km/h
1164 29-04-2019 00:55:00 4.2 C 6.06 g/m*3 4.2 C 0 km/h
1165 29-04-2019 01:00:00 4.3 C 6.1 g/m*3 4.3 C 0 km/h
1166 29-04-2019 01:05:00 4.4 C 6.14 g/m*3 4.4 C 0 km/h
1167 29-04-2019 01:10:00 4.3 C 6.1 g/m*3 4.3 C 0 km/h
1168 29-04-2019 01:15:00 4.3 C 6.1 g/m*3 4.3 C 0 km/h
1169 29-04-2019 01:20:00 4.3 C 6.1 g/m*3 4.3 C 0 km/h
1170 29-04-2019 01:25:00 4.2 C 6.06 g/m*3 4.2 C 0 km/h
1171 29-04-2019 01:30:00 4 C 5.98 g/m*3 4 C 0 km/h
1172 29-04-2019 01:35:00 3.9 C 5.94 g/m*3 3.9 C 0 km/h
1173 29-04-2019 01:40:00 3.8 C 5.9 g/m*3 3.8 C 0 km/h
1174 29-04-2019 01:45:00 3.7 C 5.86 g/m*3 3.7 C 0 km/h
1175 29-04-2019 01:50:00 3.6 C 5.82 g/m*3 3.6 C 0 km/h
Sensor: Nr:Datum:Temp:Abs-Feuchte:Windchill:Wind:
Aussen-T/F 1176 29-04-2019 01:55:00 3.6 C 5.82 g/m*3 3.6 C 0 km/h
1177 29-04-2019 02:00:00 3.7 C 5.92 g/m*3 3.7 C 0 km/h
1178 29-04-2019 02:05:00 3.6 C 5.88 g/m*3 3.6 C 0 km/h
1179 29-04-2019 02:10:00 3.6 C 5.88 g/m*3 3.6 C 0 km/h
1180 29-04-2019 02:15:00 3.4 C 5.74 g/m*3 3.4 C 0 km/h
1181 29-04-2019 02:20:00 3.3 C 5.7 g/m*3 3.3 C 0 km/h
1182 29-04-2019 02:25:00 3.3 C 5.7 g/m*3 3.3 C 0 km/h
1183 29-04-2019 02:30:00 3.3 C 5.76 g/m*3 3.3 C 0 km/h
1184 29-04-2019 02:35:00 3.3 C 5.76 g/m*3 3.3 C 0 km/h
1185 29-04-2019 02:40:00 3.3 C 5.76 g/m*3 3.3 C 0 km/h
1186 29-04-2019 02:45:00 3.4 C 5.8 g/m*3 3.4 C 0 km/h
1187 29-04-2019 02:50:00 3.4 C 5.8 g/m*3 3.4 C 0 km/h
1188 29-04-2019 02:55:00 3.5 C 5.84 g/m*3 3.5 C 0 km/h
1189 29-04-2019 03:00:00 3.5 C 5.84 g/m*3 3.5 C 0 km/h
1190 29-04-2019 03:05:00 3.5 C 5.84 g/m*3 3.5 C 0 km/h
1191 29-04-2019 03:10:00 3.6 C 5.88 g/m*3 3.6 C 0 km/h
1192 29-04-2019 03:15:00 3.6 C 5.88 g/m*3 3.6 C 0 km/h
1193 29-04-2019 03:20:00 3.7 C 5.92 g/m*3 3.7 C 0 km/h
1194 29-04-2019 03:25:00 3.7 C 5.92 g/m*3 3.7 C 0 km/h
1195 29-04-2019 03:30:00 3.7 C 5.92 g/m*3 3.7 C 0 km/h
1196 29-04-2019 03:35:00 3.8 C 5.96 g/m*3 3.8 C 0 km/h
1197 29-04-2019 03:40:00 3.8 C 5.96 g/m*3 3.8 C 0 km/h
1198 29-04-2019 03:45:00 3.8 C 5.96 g/m*3 3.8 C 0 km/h
1199 29-04-2019 03:50:00 3.7 C 5.92 g/m*3 3.7 C 0 km/h
1200 29-04-2019 03:55:00 3.7 C 5.92 g/m*3 3.7 C 0 km/h
Sensor: Nr:Datum:Temp:Abs-Feuchte:Windchill:Wind:
Aussen-T/F 1201 29-04-2019 04:00:00 3.7 C 5.92 g/m*3 3.7 C 0 km/h
1202 29-04-2019 04:05:00 3.6 C 5.88 g/m*3 3.6 C 0 km/h
1203 29-04-2019 04:10:00 3.6 C 5.88 g/m*3 3.6 C 0 km/h
1204 29-04-2019 04:15:00 3.6 C 5.88 g/m*3 3.6 C 0 km/h
1205 29-04-2019 04:20:00 3.6 C 5.88 g/m*3 3.6 C 0 km/h
1206 29-04-2019 04:25:00 3.6 C 5.94 g/m*3 3.6 C 0 km/h
1207 29-04-2019 04:30:00 3.6 C 5.94 g/m*3 3.6 C 0 km/h
1208 29-04-2019 04:35:00 3.5 C 5.9 g/m*3 3.5 C 0 km/h
1209 29-04-2019 04:40:00 3.4 C 5.86 g/m*3 3.4 C 0 km/h
1210 29-04-2019 04:45:00 3.4 C 5.86 g/m*3 3.4 C 0 km/h
1211 29-04-2019 04:50:00 3.4 C 5.86 g/m*3 3.4 C 0 km/h
1212 29-04-2019 04:55:00 3.5 C 5.9 g/m*3 3.5 C 0 km/h
1213 29-04-2019 05:00:00 3.5 C 5.9 g/m*3 3.5 C 4.8 km/h
1214 29-04-2019 05:05:00 3.5 C 5.9 g/m*3 3.5 C 3.2 km/h
1215 29-04-2019 05:10:00 3.4 C 5.86 g/m*3 3.4 C 3.2 km/h
1216 29-04-2019 05:15:00 3.4 C 5.86 g/m*3 1.75 C 6.4 km/h
1217 29-04-2019 05:20:00 3.4 C 5.86 g/m*3 1.75 C 6.4 km/h
1218 29-04-2019 05:25:00 3.4 C 5.86 g/m*3 3.4 C 1.6 km/h
1219 29-04-2019 05:30:00 3.3 C 5.82 g/m*3 1.63 C 6.4 km/h
1220 29-04-2019 05:35:00 3.3 C 5.82 g/m*3 3.3 C 3.2 km/h
1221 29-04-2019 05:40:00 3.3 C 5.82 g/m*3 1.63 C 6.4 km/h
1222 29-04-2019 05:45:00 3.3 C 5.82 g/m*3 3.3 C 1.6 km/h
1223 29-04-2019 05:50:00 3.3 C 5.82 g/m*3 3.3 C 4.8 km/h
1224 29-04-2019 05:55:00 3.2 C 5.79 g/m*3 3.2 C 3.2 km/h
1225 29-04-2019 06:00:00 3.2 C 5.79 g/m*3 3.2 C 3.2 km/h
Sensor: Nr:Datum:Temp:Abs-Feuchte:Windchill:Wind:
Aussen-T/F 1226 29-04-2019 06:05:00 3.2 C 5.79 g/m*3 3.2 C 3.2 km/h
1227 29-04-2019 06:10:00 3.2 C 5.79 g/m*3 3.2 C 0 km/h
1228 29-04-2019 06:15:00 3.2 C 5.79 g/m*3 3.2 C 0 km/h
1229 29-04-2019 06:20:00 3.2 C 5.79 g/m*3 3.2 C 0 km/h
1230 29-04-2019 06:25:00 3.2 C 5.79 g/m*3 3.2 C 0 km/h
1231 29-04-2019 06:30:00 3.1 C 5.75 g/m*3 3.1 C 0 km/h
1232 29-04-2019 06:35:00 3.1 C 5.75 g/m*3 3.1 C 1.6 km/h
1233 29-04-2019 06:40:00 3.1 C 5.75 g/m*3 3.1 C 1.6 km/h
1234 29-04-2019 06:45:00 3.1 C 5.75 g/m*3 3.1 C 1.6 km/h
1235 29-04-2019 06:50:00 3.1 C 5.75 g/m*3 3.1 C 3.2 km/h
1236 29-04-2019 06:55:00 3.1 C 5.75 g/m*3 3.1 C 3.2 km/h
1237 29-04-2019 07:00:00 3.1 C 5.75 g/m*3 3.1 C 3.2 km/h
1238 29-04-2019 07:05:00 3.1 C 5.75 g/m*3 3.1 C 0 km/h
1239 29-04-2019 07:10:00 3.1 C 5.75 g/m*3 3.1 C 0 km/h
1240 29-04-2019 07:15:00 3.1 C 5.75 g/m*3 3.1 C 0 km/h
1241 29-04-2019 07:20:00 3.2 C 5.79 g/m*3 3.2 C 1.6 km/h
1242 29-04-2019 07:25:00 3.2 C 5.79 g/m*3 3.2 C 0 km/h
1243 29-04-2019 07:30:00 3.2 C 5.79 g/m*3 3.2 C 1.6 km/h
1244 29-04-2019 07:35:00 3.3 C 5.82 g/m*3 3.3 C 1.6 km/h
1245 29-04-2019 07:40:00 3.3 C 5.82 g/m*3 3.3 C 3.2 km/h
1246 29-04-2019 07:45:00 3.3 C 5.82 g/m*3 3.3 C 1.6 km/h
1247 29-04-2019 07:50:00 3.4 C 5.86 g/m*3 3.4 C 4.8 km/h
1248 29-04-2019 07:55:00 3.4 C 5.86 g/m*3 3.4 C 3.2 km/h
1249 29-04-2019 08:00:00 3.5 C 5.9 g/m*3 3.5 C 4.8 km/h
1250 29-04-2019 08:05:00 3.6 C 5.94 g/m*3 3.6 C 3.2 km/h
Sensor: Nr:Datum:Temp:Abs-Feuchte:Windchill:Wind:
Aussen-T/F 1251 29-04-2019 08:10:00 3.6 C 5.94 g/m*3 3.6 C 3.2 km/h
1252 29-04-2019 08:15:00 3.7 C 5.98 g/m*3 3.7 C 3.2 km/h
1253 29-04-2019 08:20:00 3.7 C 5.98 g/m*3 3.7 C 4.8 km/h
1254 29-04-2019 08:25:00 3.8 C 6.09 g/m*3 3.8 C 3.2 km/h
1255 29-04-2019 08:30:00 3.9 C 6.13 g/m*3 3.9 C 4.8 km/h
1256 29-04-2019 08:35:00 3.9 C 6.06 g/m*3 3.9 C 3.2 km/h
1257 29-04-2019 08:40:00 4 C 6.1 g/m*3 2.44 C 6.4 km/h
1258 29-04-2019 08:45:00 4.1 C 6.21 g/m*3 2.55 C 6.4 km/h
1259 29-04-2019 08:50:00 4.2 C 6.25 g/m*3 4.2 C 4.8 km/h
1260 29-04-2019 08:55:00 4.3 C 6.29 g/m*3 4.3 C 3.2 km/h
1261 29-04-2019 09:00:00 4.4 C 6.33 g/m*3 4.4 C 4.8 km/h
1262 29-04-2019 09:05:00 4.5 C 6.38 g/m*3 3.02 C 6.4 km/h
1263 29-04-2019 09:10:00 4.6 C 6.42 g/m*3 3.13 C 6.4 km/h
1264 29-04-2019 09:15:00 4.7 C 6.46 g/m*3 3.25 C 6.4 km/h
1265 29-04-2019 09:20:00 4.8 C 6.5 g/m*3 4.8 C 4.8 km/h
1266 29-04-2019 09:25:00 5 C 6.59 g/m*3 5 C 3.2 km/h
1267 29-04-2019 09:30:00 5.1 C 6.63 g/m*3 5.1 C 4.8 km/h
1268 29-04-2019 09:35:00 5.2 C 6.68 g/m*3 5.2 C 4.8 km/h
1269 29-04-2019 09:40:00 5.3 C 6.72 g/m*3 5.3 C 1.6 km/h
1270 29-04-2019 09:45:00 5.4 C 6.77 g/m*3 5.4 C 3.2 km/h
1271 29-04-2019 09:50:00 5.5 C 6.81 g/m*3 5.5 C 1.6 km/h
1272 29-04-2019 09:55:00 5.4 C 6.77 g/m*3 5.4 C 1.6 km/h
1273 29-04-2019 10:00:00 5.7 C 6.83 g/m*3 5.7 C 3.2 km/h
1274 29-04-2019 10:05:00 5.8 C 6.88 g/m*3 5.8 C 3.2 km/h
1275 29-04-2019 10:10:00 5.9 C 6.92 g/m*3 5.9 C 3.2 km/h
Sensor: Nr:Datum:Temp:Abs-Feuchte:Windchill:Wind:
Aussen-T/F 1276 29-04-2019 10:15:00 6.2 C 7.06 g/m*3 4.98 C 6.4 km/h
1277 29-04-2019 10:20:00 6.3 C 7.11 g/m*3 6.3 C 3.2 km/h
1278 29-04-2019 10:25:00 6.5 C 7.2 g/m*3 6.5 C 1.6 km/h
1279 29-04-2019 10:30:00 6.6 C 7.17 g/m*3 6.6 C 0 km/h
1280 29-04-2019 10:35:00 6.8 C 7.27 g/m*3 6.8 C 0 km/h
1281 29-04-2019 10:40:00 6.9 C 7.31 g/m*3 6.9 C 3.2 km/h
1282 29-04-2019 10:45:00 7.1 C 7.33 g/m*3 7.1 C 1.6 km/h
1283 29-04-2019 10:50:00 7.2 C 7.38 g/m*3 7.2 C 3.2 km/h
1284 29-04-2019 10:55:00 7.2 C 7.3 g/m*3 7.2 C 0 km/h
1285 29-04-2019 11:00:00 7.4 C 7.4 g/m*3 7.4 C 0 km/h
1286 29-04-2019 11:05:00 7.6 C 7.49 g/m*3 7.6 C 3.2 km/h
1287 29-04-2019 11:10:00 7.8 C 7.59 g/m*3 7.8 C 3.2 km/h
1288 29-04-2019 11:15:00 8 C 7.61 g/m*3 8 C 3.2 km/h
1289 29-04-2019 11:20:00 8.2 C 7.7 g/m*3 8.2 C 0 km/h
1290 29-04-2019 11:25:00 8.4 C 7.8 g/m*3 8.4 C 3.2 km/h
1291 29-04-2019 11:30:00 8.8 C 8.01 g/m*3 8.8 C 3.2 km/h
1292 29-04-2019 11:35:00 9.1 C 8.07 g/m*3 9.1 C 0 km/h
1293 29-04-2019 11:40:00 9.4 C 8.14 g/m*3 9.4 C 4.8 km/h
1294 29-04-2019 11:45:00 9.7 C 8.11 g/m*3 9.7 C 4.8 km/h
1295 29-04-2019 11:50:00 9.9 C 8.12 g/m*3 9.9 C 1.6 km/h
1296 29-04-2019 11:55:00 10.1 C 8.13 g/m*3 10.1 C 1.6 km/h
1297 29-04-2019 12:00:00 10.4 C 8.19 g/m*3 10.4 C 1.6 km/h
1298 29-04-2019 12:05:00 10.7 C 8.25 g/m*3 10.7 C 3.2 km/h
1299 29-04-2019 12:10:00 11.1 C 8.36 g/m*3 11.1 C 4.8 km/h
1300 29-04-2019 12:15:00 11.3 C 8.16 g/m*3 11.3 C 8.1 km/h
Sensor: Nr:Datum:Temp:Abs-Feuchte:Windchill:Wind:
Aussen-T/F 1301 29-04-2019 12:20:00 11.5 C 8.06 g/m*3 11.5 C 3.2 km/h
1302 29-04-2019 12:25:00 11.8 C 8.31 g/m*3 11.8 C 1.6 km/h
1303 29-04-2019 12:30:00 12.1 C 8.04 g/m*3 12.1 C 6.4 km/h
1304 29-04-2019 12:35:00 12.3 C 8.25 g/m*3 12.3 C 4.8 km/h
1305 29-04-2019 12:40:00 12.6 C 7.97 g/m*3 12.6 C 6.4 km/h
1306 29-04-2019 12:45:00 12.8 C 8.18 g/m*3 12.8 C 4.8 km/h
1307 29-04-2019 12:50:00 13.2 C 8.15 g/m*3 13.2 C 6.4 km/h
1308 29-04-2019 12:55:00 13.3 C 7.97 g/m*3 13.3 C 14.5 km/h
1309 29-04-2019 13:00:00 13.5 C 7.84 g/m*3 13.5 C 14.5 km/h
1310 29-04-2019 13:05:00 13.7 C 7.7 g/m*3 13.7 C 8.1 km/h
1311 29-04-2019 13:10:00 13.8 C 7.51 g/m*3 13.8 C 8.1 km/h
1312 29-04-2019 13:15:00 13.9 C 7.55 g/m*3 13.9 C 8.1 km/h
1313 29-04-2019 13:20:00 14 C 7.72 g/m*3 14 C 9.7 km/h
1314 29-04-2019 13:25:00 14 C 7.72 g/m*3 14 C 9.7 km/h
1315 29-04-2019 13:30:00 14 C 7.72 g/m*3 14 C 8.1 km/h
1316 29-04-2019 13:35:00 14 C 7.72 g/m*3 14 C 6.4 km/h
1317 29-04-2019 13:40:00 14 C 7.48 g/m*3 14 C 9.7 km/h
1318 29-04-2019 13:45:00 14.2 C 7.69 g/m*3 14.2 C 8.1 km/h
1319 29-04-2019 13:50:00 14.3 C 7.49 g/m*3 14.3 C 9.7 km/h
1320 29-04-2019 13:55:00 14.3 C 7.37 g/m*3 14.3 C 8.1 km/h
1321 29-04-2019 14:00:00 14.3 C 7.25 g/m*3 14.3 C 9.7 km/h
1322 29-04-2019 14:05:00 14.4 C 7.42 g/m*3 14.4 C 6.4 km/h
1323 29-04-2019 14:10:00 14.4 C 7.42 g/m*3 14.4 C 9.7 km/h
1324 29-04-2019 14:15:00 14.7 C 7.18 g/m*3 14.7 C 11.3 km/h
1325 29-04-2019 14:20:00 14.7 C 7.05 g/m*3 14.7 C 8.1 km/h
Sensor: Nr:Datum:Temp:Abs-Feuchte:Windchill:Wind:
Aussen-T/F 1326 29-04-2019 14:25:00 14.8 C 7.47 g/m*3 14.8 C 11.3 km/h
1327 29-04-2019 14:30:00 14.8 C 7.22 g/m*3 14.8 C 12.9 km/h
1328 29-04-2019 14:35:00 14.9 C 7.14 g/m*3 14.9 C 8.1 km/h
1329 29-04-2019 14:40:00 15.2 C 7.27 g/m*3 15.2 C 11.3 km/h
1330 29-04-2019 14:45:00 15.3 C 7.18 g/m*3 15.3 C 9.7 km/h
1331 29-04-2019 14:50:00 15.3 C 7.18 g/m*3 15.3 C 9.7 km/h
1332 29-04-2019 14:55:00 15.2 C 7.14 g/m*3 15.2 C 8.1 km/h
1333 29-04-2019 15:00:00 15.2 C 7.27 g/m*3 15.2 C 8.1 km/h
1334 29-04-2019 15:05:00 15.3 C 7.44 g/m*3 15.3 C 11.3 km/h
1335 29-04-2019 15:10:00 15.3 C 7.18 g/m*3 15.3 C 12.9 km/h
1336 29-04-2019 15:15:00 15.3 C 7.44 g/m*3 15.3 C 8.1 km/h
1337 29-04-2019 15:20:00 15.2 C 7.4 g/m*3 15.2 C 12.9 km/h
1338 29-04-2019 15:25:00 15.3 C 7.44 g/m*3 15.3 C 11.3 km/h
1339 29-04-2019 15:30:00 15.3 C 7.18 g/m*3 15.3 C 9.7 km/h
1340 29-04-2019 15:35:00 15.3 C 7.31 g/m*3 15.3 C 6.4 km/h
1341 29-04-2019 15:40:00 15.2 C 7.27 g/m*3 15.2 C 8.1 km/h
1342 29-04-2019 15:45:00 15.3 C 7.57 g/m*3 15.3 C 6.4 km/h
1343 29-04-2019 15:50:00 15.4 C 7.36 g/m*3 15.4 C 11.3 km/h
1344 29-04-2019 15:55:00 15.4 C 7.36 g/m*3 15.4 C 9.7 km/h
1345 29-04-2019 16:00:00 15.3 C 7.05 g/m*3 15.3 C 16.1 km/h
1346 29-04-2019 16:05:00 15.3 C 7.05 g/m*3 15.3 C 16.1 km/h
1347 29-04-2019 16:10:00 15.3 C 7.18 g/m*3 15.3 C 8.1 km/h
1348 29-04-2019 16:15:00 15.3 C 7.18 g/m*3 15.3 C 9.7 km/h
1349 29-04-2019 16:20:00 15.3 C 7.31 g/m*3 15.3 C 12.9 km/h
1350 29-04-2019 16:25:00 15.3 C 7.18 g/m*3 15.3 C 9.7 km/h
Sensor: Nr:Datum:Temp:Abs-Feuchte:Windchill:Wind:
Aussen-T/F 1351 29-04-2019 16:30:00 15.3 C 7.18 g/m*3 15.3 C 14.5 km/h
1352 29-04-2019 16:35:00 15.3 C 7.05 g/m*3 15.3 C 8.1 km/h
1353 29-04-2019 16:40:00 15.3 C 7.18 g/m*3 15.3 C 9.7 km/h
1354 29-04-2019 16:45:00 15.3 C 7.57 g/m*3 15.3 C 12.9 km/h
1355 29-04-2019 16:50:00 15.4 C 7.36 g/m*3 15.4 C 8.1 km/h
1356 29-04-2019 16:55:00 15.4 C 7.49 g/m*3 15.4 C 11.3 km/h
1357 29-04-2019 17:00:00 15.4 C 7.36 g/m*3 15.4 C 12.9 km/h
1358 29-04-2019 17:05:00 15.4 C 7.49 g/m*3 15.4 C 8.1 km/h
1359 29-04-2019 17:10:00 15.4 C 7.36 g/m*3 15.4 C 8.1 km/h
1360 29-04-2019 17:15:00 15.4 C 7.23 g/m*3 15.4 C 11.3 km/h
1361 29-04-2019 17:20:00 15.4 C 7.09 g/m*3 15.4 C 11.3 km/h
1362 29-04-2019 17:25:00 15.4 C 7.23 g/m*3 15.4 C 14.5 km/h
1363 29-04-2019 17:30:00 15.3 C 7.44 g/m*3 15.3 C 9.7 km/h
1364 29-04-2019 17:35:00 15.3 C 7.31 g/m*3 15.3 C 12.9 km/h
1365 29-04-2019 17:40:00 15.3 C 7.31 g/m*3 15.3 C 11.3 km/h
1366 29-04-2019 17:45:00 15.2 C 7.27 g/m*3 15.2 C 14.5 km/h
1367 29-04-2019 17:50:00 15.2 C 7.14 g/m*3 15.2 C 11.3 km/h
1368 29-04-2019 17:55:00 15.1 C 7.22 g/m*3 15.1 C 14.5 km/h
1369 29-04-2019 18:00:00 14.9 C 7.26 g/m*3 14.9 C 11.3 km/h
1370 29-04-2019 18:05:00 14.7 C 7.3 g/m*3 14.7 C 11.3 km/h
1371 29-04-2019 18:10:00 14.4 C 7.42 g/m*3 14.4 C 8.1 km/h
1372 29-04-2019 18:15:00 14.2 C 7.69 g/m*3 14.2 C 3.2 km/h
1373 29-04-2019 18:20:00 13.9 C 7.55 g/m*3 13.9 C 8.1 km/h
1374 29-04-2019 18:25:00 13.7 C 7.7 g/m*3 13.7 C 11.3 km/h
1375 29-04-2019 18:30:00 13.6 C 8.12 g/m*3 13.6 C 9.7 km/h
Sensor: Nr:Datum:Temp:Abs-Feuchte:Windchill:Wind:
Aussen-T/F 1376 29-04-2019 18:35:00 13.4 C 8.37 g/m*3 13.4 C 9.7 km/h
1377 29-04-2019 18:40:00 13.3 C 8.9 g/m*3 13.3 C 0 km/h
1378 29-04-2019 18:45:00 13.1 C 8.79 g/m*3 13.1 C 11.3 km/h
1379 29-04-2019 18:50:00 12.7 C 8.91 g/m*3 12.7 C 3.2 km/h
1380 29-04-2019 18:55:00 12.4 C 9.07 g/m*3 12.4 C 0 km/h
1381 29-04-2019 19:00:00 12.2 C 9.06 g/m*3 12.2 C 0 km/h
1382 29-04-2019 19:05:00 11.9 C 9.11 g/m*3 11.9 C 0 km/h
1383 29-04-2019 19:10:00 11.7 C 8.99 g/m*3 11.7 C 0 km/h
1384 29-04-2019 19:15:00 11.4 C 8.93 g/m*3 11.4 C 0 km/h
1385 29-04-2019 19:20:00 11.2 C 8.92 g/m*3 11.2 C 4.8 km/h
1386 29-04-2019 19:25:00 11 C 8.81 g/m*3 11 C 3.2 km/h
1387 29-04-2019 19:30:00 10.9 C 8.85 g/m*3 10.9 C 0 km/h
1388 29-04-2019 19:35:00 10.7 C 8.74 g/m*3 10.7 C 1.6 km/h
1389 29-04-2019 19:40:00 10.6 C 8.78 g/m*3 10.6 C 1.6 km/h
1390 29-04-2019 19:45:00 10.5 C 8.73 g/m*3 10.5 C 1.6 km/h
1391 29-04-2019 19:50:00 10.4 C 8.67 g/m*3 10.4 C 1.6 km/h
1392 29-04-2019 19:55:00 10.4 C 8.67 g/m*3 10.4 C 0 km/h
1393 29-04-2019 20:00:00 10.3 C 8.71 g/m*3 10.3 C 0 km/h
1394 29-04-2019 20:05:00 10.3 C 8.71 g/m*3 10.3 C 0 km/h
1395 29-04-2019 20:10:00 10.3 C 8.71 g/m*3 10.3 C 0 km/h
1396 29-04-2019 20:15:00 10.3 C 8.71 g/m*3 10.3 C 0 km/h
1397 29-04-2019 20:20:00 10.2 C 8.66 g/m*3 10.2 C 0 km/h
1398 29-04-2019 20:25:00 10.3 C 8.81 g/m*3 10.3 C 0 km/h
1399 29-04-2019 20:30:00 10.3 C 8.81 g/m*3 10.3 C 0 km/h
1400 29-04-2019 20:35:00 10.2 C 8.76 g/m*3 10.2 C 0 km/h
Sensor: Nr:Datum:Temp:Abs-Feuchte:Windchill:Wind:
Aussen-T/F 1401 29-04-2019 20:40:00 10.2 C 8.76 g/m*3 10.2 C 0 km/h
1402 29-04-2019 20:45:00 10.2 C 8.76 g/m*3 10.2 C 0 km/h
1403 29-04-2019 20:50:00 10.2 C 8.76 g/m*3 10.2 C 0 km/h
1404 29-04-2019 20:55:00 10.2 C 8.76 g/m*3 10.2 C 0 km/h
1405 29-04-2019 21:00:00 10.2 C 8.76 g/m*3 10.2 C 0 km/h
1406 29-04-2019 21:05:00 10.1 C 8.79 g/m*3 10.1 C 0 km/h
1407 29-04-2019 21:10:00 10.1 C 8.79 g/m*3 10.1 C 0 km/h
1408 29-04-2019 21:15:00 10.1 C 8.79 g/m*3 10.1 C 0 km/h
1409 29-04-2019 21:20:00 10.1 C 8.79 g/m*3 10.1 C 1.6 km/h
1410 29-04-2019 21:25:00 10.1 C 8.7 g/m*3 10.1 C 0 km/h
1411 29-04-2019 21:30:00 10.1 C 8.7 g/m*3 10.1 C 0 km/h
1412 29-04-2019 21:35:00 10.1 C 8.7 g/m*3 10.1 C 0 km/h
1413 29-04-2019 21:40:00 10.1 C 8.7 g/m*3 10.1 C 1.6 km/h
1414 29-04-2019 21:45:00 10.2 C 8.76 g/m*3 10.2 C 0 km/h
1415 29-04-2019 21:50:00 10.2 C 8.76 g/m*3 10.2 C 0 km/h
1416 29-04-2019 21:55:00 10.2 C 8.76 g/m*3 10.2 C 1.6 km/h
1417 29-04-2019 22:00:00 10.2 C 8.76 g/m*3 10.2 C 0 km/h
1418 29-04-2019 22:05:00 10.2 C 8.76 g/m*3 10.2 C 4.8 km/h
1419 29-04-2019 22:10:00 10.2 C 8.76 g/m*3 10.2 C 0 km/h
1420 29-04-2019 22:15:00 10.3 C 8.81 g/m*3 10.3 C 0 km/h
1421 29-04-2019 22:20:00 10.3 C 8.81 g/m*3 10.3 C 4.8 km/h
1422 29-04-2019 22:25:00 10.2 C 8.76 g/m*3 10.2 C 1.6 km/h
1423 29-04-2019 22:30:00 10.2 C 8.76 g/m*3 10.2 C 0 km/h
1424 29-04-2019 22:35:00 10.3 C 8.81 g/m*3 10.3 C 1.6 km/h
1425 29-04-2019 22:40:00 10.3 C 8.81 g/m*3 10.3 C 3.2 km/h
Sensor: Nr:Datum:Temp:Abs-Feuchte:Windchill:Wind:
Aussen-T/F 1426 29-04-2019 22:45:00 10.3 C 8.71 g/m*3 8.78 C 11.3 km/h
1427 29-04-2019 22:50:00 10.3 C 8.71 g/m*3 10.3 C 3.2 km/h
1428 29-04-2019 22:55:00 10.3 C 8.71 g/m*3 10.3 C 1.6 km/h
1429 29-04-2019 23:00:00 10.4 C 8.67 g/m*3 10.4 C 3.2 km/h
1430 29-04-2019 23:05:00 10.5 C 8.73 g/m*3 10.5 C 0 km/h
1431 29-04-2019 23:10:00 10.6 C 8.78 g/m*3 10.6 C 4.8 km/h
1432 29-04-2019 23:15:00 10.6 C 8.69 g/m*3 10.6 C 1.6 km/h
1433 29-04-2019 23:20:00 10.7 C 8.84 g/m*3 10.7 C 0 km/h
1434 29-04-2019 23:25:00 10.7 C 8.74 g/m*3 10.7 C 3.2 km/h
1435 29-04-2019 23:30:00 10.7 C 8.74 g/m*3 10.7 C 3.2 km/h
1436 29-04-2019 23:35:00 10.7 C 8.74 g/m*3 10.7 C 0 km/h
1437 29-04-2019 23:40:00 10.8 C 8.9 g/m*3 10.8 C 0 km/h
1438 29-04-2019 23:45:00 10.8 C 8.9 g/m*3 10.8 C 0 km/h
1439 29-04-2019 23:50:00 10.7 C 8.84 g/m*3 10.7 C 0 km/h
1440 29-04-2019 23:55:00 10.7 C 8.74 g/m*3 10.7 C 4.8 km/h
1441 30-04-2019 00:00:00 10.8 C 8.8 g/m*3 10.8 C 0 km/h
1442 30-04-2019 00:05:00 10.8 C 8.8 g/m*3 10.8 C 0 km/h
1443 30-04-2019 00:10:00 10.8 C 8.8 g/m*3 10.8 C 1.6 km/h
1444 30-04-2019 00:15:00 10.8 C 8.7 g/m*3 10.8 C 1.6 km/h
1445 30-04-2019 00:20:00 10.9 C 8.65 g/m*3 10.9 C 3.2 km/h
1446 30-04-2019 00:25:00 11 C 8.71 g/m*3 11 C 4.8 km/h
1447 30-04-2019 00:30:00 11.1 C 8.76 g/m*3 11.1 C 3.2 km/h
1448 30-04-2019 00:35:00 11.1 C 8.76 g/m*3 11.1 C 1.6 km/h
1449 30-04-2019 00:40:00 11.1 C 8.76 g/m*3 11.1 C 3.2 km/h
1450 30-04-2019 00:45:00 11.1 C 8.66 g/m*3 11.1 C 8.1 km/h
Sensor: Nr:Datum:Temp:Abs-Feuchte:Windchill:Wind:
Aussen-T/F 1451 30-04-2019 00:50:00 11.1 C 8.66 g/m*3 11.1 C 8.1 km/h
1452 30-04-2019 00:55:00 11.2 C 8.72 g/m*3 11.2 C 6.4 km/h
1453 30-04-2019 01:00:00 11.2 C 8.72 g/m*3 11.2 C 8.1 km/h
1454 30-04-2019 01:05:00 11.2 C 8.72 g/m*3 11.2 C 8.1 km/h
1455 30-04-2019 01:10:00 11.2 C 8.72 g/m*3 11.2 C 6.4 km/h
1456 30-04-2019 01:15:00 11.2 C 8.72 g/m*3 11.2 C 6.4 km/h
1457 30-04-2019 01:20:00 11.2 C 8.72 g/m*3 11.2 C 8.1 km/h
1458 30-04-2019 01:25:00 11.2 C 8.72 g/m*3 11.2 C 3.2 km/h
1459 30-04-2019 01:30:00 11.2 C 8.72 g/m*3 11.2 C 3.2 km/h
1460 30-04-2019 01:35:00 11.2 C 8.72 g/m*3 11.2 C 3.2 km/h
1461 30-04-2019 01:40:00 11.1 C 8.66 g/m*3 11.1 C 6.4 km/h
1462 30-04-2019 01:45:00 11.1 C 8.76 g/m*3 11.1 C 1.6 km/h
1463 30-04-2019 01:50:00 11.1 C 8.76 g/m*3 11.1 C 1.6 km/h
1464 30-04-2019 01:55:00 11.1 C 8.76 g/m*3 11.1 C 4.8 km/h
1465 30-04-2019 02:00:00 11 C 8.71 g/m*3 11 C 0 km/h
1466 30-04-2019 02:05:00 11 C 8.71 g/m*3 11 C 0 km/h
1467 30-04-2019 02:10:00 10.9 C 8.75 g/m*3 10.9 C 0 km/h
1468 30-04-2019 02:15:00 10.9 C 8.75 g/m*3 10.9 C 4.8 km/h
1469 30-04-2019 02:20:00 10.9 C 8.75 g/m*3 10.9 C 1.6 km/h
1470 30-04-2019 02:25:00 10.9 C 8.75 g/m*3 10.9 C 4.8 km/h
1471 30-04-2019 02:30:00 10.8 C 8.7 g/m*3 10.8 C 4.8 km/h
1472 30-04-2019 02:35:00 10.8 C 8.7 g/m*3 10.8 C 3.2 km/h
1473 30-04-2019 02:40:00 10.8 C 8.7 g/m*3 9.93 C 8.1 km/h
1474 30-04-2019 02:45:00 10.8 C 8.8 g/m*3 10.29 C 6.4 km/h
1475 30-04-2019 02:50:00 10.7 C 8.74 g/m*3 9.81 C 8.1 km/h
Sensor: Nr:Datum:Temp:Abs-Feuchte:Windchill:Wind:
Aussen-T/F 1476 30-04-2019 02:55:00 10.7 C 8.74 g/m*3 10.18 C 6.4 km/h
1477 30-04-2019 03:00:00 10.7 C 8.74 g/m*3 9.81 C 8.1 km/h
1478 30-04-2019 03:05:00 10.7 C 8.74 g/m*3 10.7 C 4.8 km/h
1479 30-04-2019 03:10:00 10.7 C 8.74 g/m*3 10.7 C 1.6 km/h
1480 30-04-2019 03:15:00 10.6 C 8.69 g/m*3 10.6 C 0 km/h
1481 30-04-2019 03:20:00 10.6 C 8.69 g/m*3 10.6 C 4.8 km/h
1482 30-04-2019 03:25:00 10.6 C 8.69 g/m*3 10.6 C 3.2 km/h
1483 30-04-2019 03:30:00 10.6 C 8.69 g/m*3 10.06 C 6.4 km/h
1484 30-04-2019 03:35:00 10.6 C 8.69 g/m*3 10.6 C 1.6 km/h
1485 30-04-2019 03:40:00 10.6 C 8.69 g/m*3 10.6 C 0 km/h
1486 30-04-2019 03:45:00 10.5 C 8.63 g/m*3 10.5 C 0 km/h
1487 30-04-2019 03:50:00 10.5 C 8.63 g/m*3 10.5 C 3.2 km/h
1488 30-04-2019 03:55:00 10.4 C 8.58 g/m*3 10.4 C 1.6 km/h
1489 30-04-2019 04:00:00 10.4 C 8.58 g/m*3 10.4 C 0 km/h
1490 30-04-2019 04:05:00 10.4 C 8.58 g/m*3 10.4 C 0 km/h
1491 30-04-2019 04:10:00 10.4 C 8.58 g/m*3 10.4 C 0 km/h
1492 30-04-2019 04:15:00 10.3 C 8.52 g/m*3 9.34 C 8.1 km/h
1493 30-04-2019 04:20:00 10.3 C 8.52 g/m*3 10.3 C 1.6 km/h
1494 30-04-2019 04:25:00 10.3 C 8.52 g/m*3 10.3 C 4.8 km/h
1495 30-04-2019 04:30:00 10.3 C 8.43 g/m*3 10.3 C 1.6 km/h
1496 30-04-2019 04:35:00 10.3 C 8.52 g/m*3 10.3 C 4.8 km/h
1497 30-04-2019 04:40:00 10.3 C 8.52 g/m*3 10.3 C 0 km/h
1498 30-04-2019 04:45:00 10.3 C 8.52 g/m*3 10.3 C 4.8 km/h
1499 30-04-2019 04:50:00 10.2 C 8.47 g/m*3 10.2 C 1.6 km/h
1500 30-04-2019 04:55:00 10.2 C 8.47 g/m*3 10.2 C 0 km/h
Sensor: Nr:Datum:Temp:Abs-Feuchte:Windchill:Wind:
Aussen-T/F 1501 30-04-2019 05:00:00 10.2 C 8.47 g/m*3 9.22 C 8.1 km/h
1502 30-04-2019 05:05:00 10.2 C 8.37 g/m*3 10.2 C 4.8 km/h
1503 30-04-2019 05:10:00 10.2 C 8.37 g/m*3 9.22 C 8.1 km/h
1504 30-04-2019 05:15:00 10.2 C 8.37 g/m*3 10.2 C 3.2 km/h
1505 30-04-2019 05:20:00 10.2 C 8.37 g/m*3 10.2 C 4.8 km/h
1506 30-04-2019 05:25:00 10.2 C 8.37 g/m*3 8.66 C 11.3 km/h
1507 30-04-2019 05:30:00 10.2 C 8.37 g/m*3 10.2 C 1.6 km/h
1508 30-04-2019 05:35:00 10.2 C 8.37 g/m*3 10.2 C 3.2 km/h
1509 30-04-2019 05:40:00 10.2 C 8.37 g/m*3 9.6 C 6.4 km/h
1510 30-04-2019 05:45:00 10.2 C 8.37 g/m*3 10.2 C 0 km/h
1511 30-04-2019 05:50:00 10.1 C 8.32 g/m*3 9.48 C 6.4 km/h
1512 30-04-2019 05:55:00 10.1 C 8.32 g/m*3 10.1 C 4.8 km/h
1513 30-04-2019 06:00:00 10.1 C 8.32 g/m*3 9.1 C 8.1 km/h
1514 30-04-2019 06:05:00 10.1 C 8.32 g/m*3 8.54 C 11.3 km/h
1515 30-04-2019 06:10:00 10.1 C 8.32 g/m*3 9.1 C 8.1 km/h
1516 30-04-2019 06:15:00 10.1 C 8.32 g/m*3 9.48 C 6.4 km/h
1517 30-04-2019 06:20:00 10.1 C 8.42 g/m*3 10.1 C 4.8 km/h
1518 30-04-2019 06:25:00 10.1 C 8.42 g/m*3 10.1 C 1.6 km/h
1519 30-04-2019 06:30:00 10.1 C 8.42 g/m*3 10.1 C 0 km/h
1520 30-04-2019 06:35:00 10 C 8.36 g/m*3 10 C 4.8 km/h
1521 30-04-2019 06:40:00 10 C 8.36 g/m*3 10 C 0 km/h
1522 30-04-2019 06:45:00 10 C 8.36 g/m*3 10 C 0 km/h
1523 30-04-2019 06:50:00 10 C 8.46 g/m*3 10 C 0 km/h
1524 30-04-2019 06:55:00 10 C 8.46 g/m*3 10 C 1.6 km/h
1525 30-04-2019 07:00:00 10 C 8.46 g/m*3 10 C 1.6 km/h
Sensor: Nr:Datum:Temp:Abs-Feuchte:Windchill:Wind:
Aussen-T/F 1526 30-04-2019 07:05:00 9.9 C 8.4 g/m*3 9.9 C 1.6 km/h
1527 30-04-2019 07:10:00 9.9 C 8.4 g/m*3 9.9 C 1.6 km/h
1528 30-04-2019 07:15:00 9.9 C 8.31 g/m*3 9.9 C 4.8 km/h
1529 30-04-2019 07:20:00 10 C 8.36 g/m*3 8.99 C 8.1 km/h
1530 30-04-2019 07:25:00 10 C 8.36 g/m*3 8.99 C 8.1 km/h
1531 30-04-2019 07:30:00 10.1 C 8.42 g/m*3 9.48 C 6.4 km/h
1532 30-04-2019 07:35:00 10.1 C 8.42 g/m*3 9.1 C 8.1 km/h
1533 30-04-2019 07:40:00 10.2 C 8.37 g/m*3 9.22 C 8.1 km/h
1534 30-04-2019 07:45:00 10.2 C 8.37 g/m*3 9.22 C 8.1 km/h
1535 30-04-2019 07:50:00 10.3 C 8.33 g/m*3 9.72 C 6.4 km/h
1536 30-04-2019 07:55:00 10.3 C 8.33 g/m*3 9.72 C 6.4 km/h
1537 30-04-2019 08:00:00 10.4 C 8.38 g/m*3 10.4 C 4.8 km/h
1538 30-04-2019 08:05:00 10.4 C 8.38 g/m*3 10.4 C 3.2 km/h
1539 30-04-2019 08:10:00 10.5 C 8.34 g/m*3 9.57 C 8.1 km/h
1540 30-04-2019 08:15:00 10.6 C 8.39 g/m*3 9.69 C 8.1 km/h
1541 30-04-2019 08:20:00 10.6 C 8.39 g/m*3 10.6 C 4.8 km/h
1542 30-04-2019 08:25:00 10.7 C 8.45 g/m*3 10.7 C 4.8 km/h
1543 30-04-2019 08:30:00 10.7 C 8.35 g/m*3 9.81 C 8.1 km/h
1544 30-04-2019 08:35:00 10.8 C 8.2 g/m*3 9.38 C 11.3 km/h
1545 30-04-2019 08:40:00 10.9 C 8.16 g/m*3 10.9 C 4.8 km/h
1546 30-04-2019 08:45:00 11 C 8.01 g/m*3 10.16 C 8.1 km/h
1547 30-04-2019 08:50:00 11 C 8.01 g/m*3 9.21 C 14.5 km/h
1548 30-04-2019 08:55:00 11.1 C 7.96 g/m*3 11.1 C 14.5 km/h
1549 30-04-2019 09:00:00 11 C 7.81 g/m*3 9.88 C 9.7 km/h
1550 30-04-2019 09:05:00 11.1 C 7.66 g/m*3 11.1 C 11.3 km/h
Sensor: Nr:Datum:Temp:Abs-Feuchte:Windchill:Wind:
Aussen-T/F 1551 30-04-2019 09:10:00 11.2 C 7.91 g/m*3 11.2 C 12.9 km/h
1552 30-04-2019 09:15:00 11.3 C 7.85 g/m*3 11.3 C 11.3 km/h
1553 30-04-2019 09:20:00 11.4 C 7.9 g/m*3 11.4 C 9.7 km/h
1554 30-04-2019 09:25:00 11.5 C 7.95 g/m*3 11.5 C 8.1 km/h
1555 30-04-2019 09:30:00 11.6 C 8 g/m*3 11.6 C 6.4 km/h
1556 30-04-2019 09:35:00 11.7 C 8.05 g/m*3 11.7 C 11.3 km/h
1557 30-04-2019 09:40:00 11.7 C 7.95 g/m*3 11.7 C 11.3 km/h
1558 30-04-2019 09:45:00 11.8 C 8.1 g/m*3 11.8 C 8.1 km/h
1559 30-04-2019 09:50:00 11.9 C 8.05 g/m*3 11.9 C 12.9 km/h
1560 30-04-2019 09:55:00 12 C 8.1 g/m*3 12 C 9.7 km/h
1561 30-04-2019 10:00:00 12.1 C 8.15 g/m*3 12.1 C 8.1 km/h
1562 30-04-2019 10:05:00 12.2 C 7.88 g/m*3 12.2 C 11.3 km/h
1563 30-04-2019 10:10:00 12.3 C 7.93 g/m*3 12.3 C 8.1 km/h
1564 30-04-2019 10:15:00 12.4 C 7.76 g/m*3 12.4 C 9.7 km/h
1565 30-04-2019 10:20:00 12.5 C 7.7 g/m*3 12.5 C 11.3 km/h
1566 30-04-2019 10:25:00 12.6 C 7.63 g/m*3 12.6 C 8.1 km/h
1567 30-04-2019 10:30:00 12.6 C 7.63 g/m*3 12.6 C 11.3 km/h
1568 30-04-2019 10:35:00 12.7 C 7.68 g/m*3 12.7 C 11.3 km/h
1569 30-04-2019 10:40:00 12.8 C 7.5 g/m*3 12.8 C 11.3 km/h
1570 30-04-2019 10:45:00 12.9 C 7.78 g/m*3 12.9 C 8.1 km/h
1571 30-04-2019 10:50:00 13.1 C 7.76 g/m*3 13.1 C 14.5 km/h
1572 30-04-2019 10:55:00 13.2 C 7.69 g/m*3 13.2 C 16.1 km/h
1573 30-04-2019 11:00:00 13.3 C 7.39 g/m*3 13.3 C 14.5 km/h
1574 30-04-2019 11:05:00 13.3 C 7.39 g/m*3 13.3 C 6.4 km/h
1575 30-04-2019 11:10:00 13.5 C 7.49 g/m*3 13.5 C 9.7 km/h
Sensor: Nr:Datum:Temp:Abs-Feuchte:Windchill:Wind:
Aussen-T/F 1576 30-04-2019 11:15:00 13.6 C 7.41 g/m*3 13.6 C 12.9 km/h
1577 30-04-2019 11:20:00 13.6 C 7.41 g/m*3 13.6 C 12.9 km/h
1578 30-04-2019 11:25:00 13.6 C 7.3 g/m*3 13.6 C 8.1 km/h
1579 30-04-2019 11:30:00 13.6 C 7.41 g/m*3 13.6 C 9.7 km/h
1580 30-04-2019 11:35:00 13.7 C 7.34 g/m*3 13.7 C 14.5 km/h
1581 30-04-2019 11:40:00 13.7 C 7.46 g/m*3 13.7 C 11.3 km/h
1582 30-04-2019 11:45:00 13.8 C 7.39 g/m*3 13.8 C 12.9 km/h
1583 30-04-2019 11:50:00 13.8 C 7.39 g/m*3 13.8 C 6.4 km/h
1584 30-04-2019 11:55:00 13.8 C 7.27 g/m*3 13.8 C 4.8 km/h
1585 30-04-2019 12:00:00 13.9 C 7.43 g/m*3 13.9 C 11.3 km/h
1586 30-04-2019 12:05:00 14.2 C 7.33 g/m*3 14.2 C 14.5 km/h
1587 30-04-2019 12:10:00 14.3 C 7.25 g/m*3 14.3 C 9.7 km/h
1588 30-04-2019 12:15:00 14.3 C 7.49 g/m*3 14.3 C 12.9 km/h
1589 30-04-2019 12:20:00 14.3 C 7.49 g/m*3 14.3 C 8.1 km/h
1590 30-04-2019 12:25:00 14.4 C 7.17 g/m*3 14.4 C 11.3 km/h
1591 30-04-2019 12:30:00 14.4 C 7.17 g/m*3 14.4 C 6.4 km/h
1592 30-04-2019 12:35:00 14.6 C 7.13 g/m*3 14.6 C 12.9 km/h
1593 30-04-2019 12:40:00 14.8 C 7.09 g/m*3 14.8 C 17.7 km/h
1594 30-04-2019 12:45:00 14.8 C 7.22 g/m*3 14.8 C 14.5 km/h
1595 30-04-2019 12:50:00 14.9 C 7.01 g/m*3 14.9 C 14.5 km/h
1596 30-04-2019 12:55:00 15.1 C 7.22 g/m*3 15.1 C 12.9 km/h
1597 30-04-2019 13:00:00 15.2 C 6.75 g/m*3 15.2 C 16.1 km/h
1598 30-04-2019 13:05:00 15.3 C 6.92 g/m*3 15.3 C 6.4 km/h
1599 30-04-2019 13:10:00 15.4 C 7.23 g/m*3 15.4 C 11.3 km/h
1600 30-04-2019 13:15:00 15.6 C 7.58 g/m*3 15.6 C 17.7 km/h
Sensor: Nr:Datum:Temp:Abs-Feuchte:Windchill:Wind:
Aussen-T/F 1601 30-04-2019 13:20:00 15.6 C 7.18 g/m*3 15.6 C 9.7 km/h
1602 30-04-2019 13:25:00 15.6 C 7.18 g/m*3 15.6 C 8.1 km/h
1603 30-04-2019 13:30:00 15.6 C 7.18 g/m*3 15.6 C 11.3 km/h
1604 30-04-2019 13:35:00 15.7 C 7.09 g/m*3 15.7 C 11.3 km/h
1605 30-04-2019 13:40:00 15.8 C 6.87 g/m*3 15.8 C 16.1 km/h
1606 30-04-2019 13:45:00 15.9 C 7.18 g/m*3 15.9 C 8.1 km/h
1607 30-04-2019 13:50:00 16 C 7.22 g/m*3 16 C 8.1 km/h
1608 30-04-2019 13:55:00 16.2 C 6.9 g/m*3 16.2 C 11.3 km/h
1609 30-04-2019 14:00:00 16.3 C 7.21 g/m*3 16.3 C 11.3 km/h
1610 30-04-2019 14:05:00 16.3 C 6.8 g/m*3 16.3 C 11.3 km/h
1611 30-04-2019 14:10:00 16.4 C 6.7 g/m*3 16.4 C 11.3 km/h
1612 30-04-2019 14:15:00 16.5 C 7.02 g/m*3 16.5 C 9.7 km/h
1613 30-04-2019 14:20:00 16.7 C 6.96 g/m*3 16.7 C 8.1 km/h
1614 30-04-2019 14:25:00 16.8 C 7.01 g/m*3 16.8 C 6.4 km/h
1615 30-04-2019 14:30:00 16.9 C 7.05 g/m*3 16.9 C 14.5 km/h
1616 30-04-2019 14:35:00 17.2 C 6.88 g/m*3 17.2 C 12.9 km/h
1617 30-04-2019 14:40:00 17.2 C 6.88 g/m*3 17.2 C 9.7 km/h
1618 30-04-2019 14:45:00 17.2 C 7.03 g/m*3 17.2 C 9.7 km/h
1619 30-04-2019 14:50:00 17.3 C 6.92 g/m*3 17.3 C 6.4 km/h
1620 30-04-2019 14:55:00 17.6 C 7.05 g/m*3 17.6 C 12.9 km/h
1621 30-04-2019 15:00:00 17.7 C 7.39 g/m*3 17.7 C 11.3 km/h
1622 30-04-2019 15:05:00 17.8 C 6.98 g/m*3 17.8 C 11.3 km/h
1623 30-04-2019 15:10:00 18.1 C 7.42 g/m*3 18.1 C 11.3 km/h
1624 30-04-2019 15:15:00 18.3 C 7.04 g/m*3 18.3 C 14.5 km/h
1625 30-04-2019 15:20:00 18.4 C 7.39 g/m*3 18.4 C 8.1 km/h
Sensor: Nr:Datum:Temp:Abs-Feuchte:Windchill:Wind:
Aussen-T/F 1626 30-04-2019 15:25:00 18.5 C 6.96 g/m*3 18.5 C 12.9 km/h
1627 30-04-2019 15:30:00 18.6 C 7.16 g/m*3 18.6 C 16.1 km/h
1628 30-04-2019 15:35:00 18.8 C 7.25 g/m*3 18.8 C 11.3 km/h
1629 30-04-2019 15:40:00 19.1 C 7.21 g/m*3 19.1 C 16.1 km/h
1630 30-04-2019 15:45:00 19.2 C 7.42 g/m*3 19.2 C 9.7 km/h
1631 30-04-2019 15:50:00 19.3 C 7.13 g/m*3 19.3 C 19.3 km/h
1632 30-04-2019 15:55:00 19.3 C 7.13 g/m*3 19.3 C 12.9 km/h
1633 30-04-2019 16:00:00 19.4 C 7.01 g/m*3 19.4 C 17.7 km/h
1634 30-04-2019 16:05:00 19.6 C 7.09 g/m*3 19.6 C 8.1 km/h
1635 30-04-2019 16:10:00 19.7 C 7.13 g/m*3 19.7 C 11.3 km/h
1636 30-04-2019 16:15:00 19.8 C 7 g/m*3 19.8 C 12.9 km/h
1637 30-04-2019 16:20:00 19.9 C 7.22 g/m*3 19.9 C 9.7 km/h
1638 30-04-2019 16:25:00 20.2 C 7.17 g/m*3 20.2 C 8.1 km/h
1639 30-04-2019 16:30:00 20.3 C 7.03 g/m*3 20.3 C 17.7 km/h
1640 30-04-2019 16:35:00 20.2 C 6.82 g/m*3 20.2 C 14.5 km/h
1641 30-04-2019 16:40:00 20.2 C 6.82 g/m*3 20.2 C 8.1 km/h
1642 30-04-2019 16:45:00 20.2 C 7.17 g/m*3 20.2 C 11.3 km/h
1643 30-04-2019 16:50:00 20.4 C 7.25 g/m*3 20.4 C 16.1 km/h
1644 30-04-2019 16:55:00 20.4 C 7.08 g/m*3 20.4 C 11.3 km/h
1645 30-04-2019 17:00:00 20.4 C 7.43 g/m*3 20.4 C 8.1 km/h
1646 30-04-2019 17:05:00 20.5 C 7.12 g/m*3 20.5 C 12.9 km/h
1647 30-04-2019 17:10:00 20.4 C 7.43 g/m*3 20.4 C 14.5 km/h
1648 30-04-2019 17:15:00 20.4 C 7.43 g/m*3 20.4 C 8.1 km/h
1649 30-04-2019 17:20:00 20.6 C 7.52 g/m*3 20.6 C 11.3 km/h
1650 30-04-2019 17:25:00 20.7 C 7.56 g/m*3 20.7 C 12.9 km/h
Sensor: Nr:Datum:Temp:Abs-Feuchte:Windchill:Wind:
Aussen-T/F 1651 30-04-2019 17:30:00 20.5 C 7.47 g/m*3 20.5 C 12.9 km/h
1652 30-04-2019 17:35:00 20.5 C 7.12 g/m*3 20.5 C 16.1 km/h
1653 30-04-2019 17:40:00 20.4 C 7.25 g/m*3 20.4 C 9.7 km/h
1654 30-04-2019 17:45:00 20.4 C 7.25 g/m*3 20.4 C 14.5 km/h
1655 30-04-2019 17:50:00 20.4 C 7.25 g/m*3 20.4 C 9.7 km/h
1656 30-04-2019 17:55:00 20.4 C 7.61 g/m*3 20.4 C 6.4 km/h
1657 30-04-2019 18:00:00 20.5 C 7.3 g/m*3 20.5 C 9.7 km/h
1658 30-04-2019 18:05:00 20.3 C 7.74 g/m*3 20.3 C 11.3 km/h
1659 30-04-2019 18:10:00 20.3 C 7.56 g/m*3 20.3 C 14.5 km/h
1660 30-04-2019 18:15:00 20.3 C 7.39 g/m*3 20.3 C 6.4 km/h
1661 30-04-2019 18:20:00 20.3 C 7.56 g/m*3 20.3 C 6.4 km/h
1662 30-04-2019 18:25:00 20.4 C 7.25 g/m*3 20.4 C 9.7 km/h
1663 30-04-2019 18:30:00 20.2 C 7.52 g/m*3 20.2 C 11.3 km/h
1664 30-04-2019 18:35:00 20.2 C 7.52 g/m*3 20.2 C 14.5 km/h
1665 30-04-2019 18:40:00 20.2 C 7.34 g/m*3 20.2 C 11.3 km/h
1666 30-04-2019 18:45:00 20.1 C 7.65 g/m*3 20.1 C 6.4 km/h
1667 30-04-2019 18:50:00 20.2 C 7.52 g/m*3 20.2 C 8.1 km/h
1668 30-04-2019 18:55:00 19.9 C 7.73 g/m*3 19.9 C 11.3 km/h
1669 30-04-2019 19:00:00 19.7 C 7.81 g/m*3 19.7 C 11.3 km/h
1670 30-04-2019 19:05:00 19.5 C 7.72 g/m*3 19.5 C 9.7 km/h
1671 30-04-2019 19:10:00 19.5 C 7.72 g/m*3 19.5 C 11.3 km/h
1672 30-04-2019 19:15:00 19.4 C 7.84 g/m*3 19.4 C 11.3 km/h
1673 30-04-2019 19:20:00 19.3 C 7.96 g/m*3 19.3 C 11.3 km/h
1674 30-04-2019 19:25:00 19.2 C 8.08 g/m*3 19.2 C 6.4 km/h
1675 30-04-2019 19:30:00 19.1 C 8.03 g/m*3 19.1 C 9.7 km/h
Sensor: Nr:Datum:Temp:Abs-Feuchte:Windchill:Wind:
Aussen-T/F 1676 30-04-2019 19:35:00 18.8 C 7.89 g/m*3 18.8 C 12.9 km/h
1677 30-04-2019 19:40:00 18.5 C 7.91 g/m*3 18.5 C 9.7 km/h
1678 30-04-2019 19:45:00 18.2 C 7.93 g/m*3 18.2 C 8.1 km/h
1679 30-04-2019 19:50:00 17.9 C 7.94 g/m*3 17.9 C 9.7 km/h
1680 30-04-2019 19:55:00 17.8 C 8.04 g/m*3 17.8 C 9.7 km/h
1681 30-04-2019 20:00:00 17.7 C 8 g/m*3 17.7 C 9.7 km/h
1682 30-04-2019 20:05:00 17.4 C 8 g/m*3 17.4 C 11.3 km/h
1683 30-04-2019 20:10:00 17.3 C 8.1 g/m*3 17.3 C 4.8 km/h
1684 30-04-2019 20:15:00 17.2 C 8.2 g/m*3 17.2 C 6.4 km/h
1685 30-04-2019 20:20:00 17.2 C 8.2 g/m*3 17.2 C 6.4 km/h
1686 30-04-2019 20:25:00 17.1 C 8.44 g/m*3 17.1 C 3.2 km/h
1687 30-04-2019 20:30:00 16.9 C 8.2 g/m*3 16.9 C 4.8 km/h
1688 30-04-2019 20:35:00 16.8 C 8.29 g/m*3 16.8 C 8.1 km/h
1689 30-04-2019 20:40:00 16.6 C 8.19 g/m*3 16.6 C 11.3 km/h
1690 30-04-2019 20:45:00 16.6 C 8.33 g/m*3 16.6 C 4.8 km/h
1691 30-04-2019 20:50:00 16.4 C 8.23 g/m*3 16.4 C 6.4 km/h
1692 30-04-2019 20:55:00 16.3 C 8.32 g/m*3 16.3 C 6.4 km/h
1693 30-04-2019 21:00:00 16.2 C 8.41 g/m*3 16.2 C 4.8 km/h
1694 30-04-2019 21:05:00 16.2 C 8.69 g/m*3 16.2 C 3.2 km/h
1695 30-04-2019 21:10:00 16 C 8.45 g/m*3 16 C 4.8 km/h
1696 30-04-2019 21:15:00 15.8 C 8.62 g/m*3 15.8 C 6.4 km/h
1697 30-04-2019 21:20:00 15.7 C 8.43 g/m*3 15.7 C 6.4 km/h
1698 30-04-2019 21:25:00 15.5 C 8.59 g/m*3 15.5 C 11.3 km/h
1699 30-04-2019 21:30:00 15.3 C 8.36 g/m*3 15.3 C 8.1 km/h
1700 30-04-2019 21:35:00 15.3 C 8.62 g/m*3 15.3 C 3.2 km/h
Sensor: Nr:Datum:Temp:Abs-Feuchte:Windchill:Wind:
Aussen-T/F 1701 30-04-2019 21:40:00 15.2 C 8.57 g/m*3 15.2 C 11.3 km/h
1702 30-04-2019 21:45:00 15 C 8.59 g/m*3 15 C 4.8 km/h
1703 30-04-2019 21:50:00 14.9 C 8.67 g/m*3 14.9 C 1.6 km/h
1704 30-04-2019 21:55:00 14.7 C 8.69 g/m*3 14.7 C 1.6 km/h
1705 30-04-2019 22:00:00 14.5 C 8.71 g/m*3 14.5 C 4.8 km/h
1706 30-04-2019 22:05:00 14.4 C 8.65 g/m*3 14.4 C 11.3 km/h
1707 30-04-2019 22:10:00 14.4 C 8.53 g/m*3 14.4 C 8.1 km/h
1708 30-04-2019 22:15:00 14.5 C 8.58 g/m*3 14.5 C 14.5 km/h
1709 30-04-2019 22:20:00 14.5 C 8.58 g/m*3 14.5 C 11.3 km/h
1710 30-04-2019 22:25:00 14.4 C 8.78 g/m*3 14.4 C 6.4 km/h
1711 30-04-2019 22:30:00 14.3 C 8.72 g/m*3 14.3 C 8.1 km/h
1712 30-04-2019 22:35:00 14.2 C 8.67 g/m*3 14.2 C 8.1 km/h
1713 30-04-2019 22:40:00 14.1 C 8.74 g/m*3 14.1 C 8.1 km/h
1714 30-04-2019 22:45:00 13.9 C 8.63 g/m*3 13.9 C 3.2 km/h
1715 30-04-2019 22:50:00 13.8 C 8.7 g/m*3 13.8 C 6.4 km/h
1716 30-04-2019 22:55:00 13.7 C 8.64 g/m*3 13.7 C 4.8 km/h
1717 30-04-2019 23:00:00 13.6 C 8.71 g/m*3 13.6 C 9.7 km/h
1718 30-04-2019 23:05:00 13.5 C 8.66 g/m*3 13.5 C 1.6 km/h
1719 30-04-2019 23:10:00 13.3 C 8.66 g/m*3 13.3 C 0 km/h
1720 30-04-2019 23:15:00 13.1 C 8.67 g/m*3 13.1 C 8.1 km/h
1721 30-04-2019 23:20:00 12.8 C 8.74 g/m*3 12.8 C 6.4 km/h
1722 30-04-2019 23:25:00 12.7 C 8.68 g/m*3 12.7 C 4.8 km/h
1723 30-04-2019 23:30:00 12.6 C 8.74 g/m*3 12.6 C 0 km/h
1724 30-04-2019 23:35:00 12.4 C 8.63 g/m*3 12.4 C 1.6 km/h
1725 30-04-2019 23:40:00 12.2 C 8.63 g/m*3 12.2 C 0 km/h
Sensor: Nr:Datum:Temp:Abs-Feuchte:Windchill:Wind:
Aussen-T/F 1726 30-04-2019 23:45:00 12.1 C 8.58 g/m*3 12.1 C 1.6 km/h
1727 30-04-2019 23:50:00 11.9 C 8.58 g/m*3 11.9 C 0 km/h
1728 30-04-2019 23:55:00 11.7 C 8.47 g/m*3 11.7 C 0 km/h
1729 01-05-2019 00:00:00 11.6 C 8.52 g/m*3 11.6 C 0 km/h
1730 01-05-2019 00:05:00 11.4 C 8.42 g/m*3 11.4 C 0 km/h
1731 01-05-2019 00:10:00 11.3 C 8.47 g/m*3 11.3 C 0 km/h
1732 01-05-2019 00:15:00 11.3 C 8.47 g/m*3 11.3 C 0 km/h
1733 01-05-2019 00:20:00 11.3 C 8.57 g/m*3 11.3 C 0 km/h
1734 01-05-2019 00:25:00 11.2 C 8.41 g/m*3 11.2 C 1.6 km/h
1735 01-05-2019 00:30:00 11.2 C 8.51 g/m*3 11.2 C 4.8 km/h
1736 01-05-2019 00:35:00 11.3 C 8.47 g/m*3 11.3 C 3.2 km/h
1737 01-05-2019 00:40:00 11.3 C 8.47 g/m*3 11.3 C 0 km/h
1738 01-05-2019 00:45:00 11.2 C 8.41 g/m*3 11.2 C 0 km/h
1739 01-05-2019 00:50:00 11.1 C 8.36 g/m*3 11.1 C 0 km/h
1740 01-05-2019 00:55:00 10.9 C 8.36 g/m*3 10.9 C 0 km/h
1741 01-05-2019 01:00:00 10.7 C 8.25 g/m*3 10.7 C 0 km/h
1742 01-05-2019 01:05:00 10.6 C 8.3 g/m*3 10.6 C 0 km/h
1743 01-05-2019 01:10:00 10.6 C 8.3 g/m*3 10.6 C 3.2 km/h
1744 01-05-2019 01:15:00 10.6 C 8.3 g/m*3 10.6 C 3.2 km/h
1745 01-05-2019 01:20:00 10.6 C 8.3 g/m*3 10.6 C 0 km/h
1746 01-05-2019 01:25:00 10.6 C 8.3 g/m*3 10.6 C 0 km/h
1747 01-05-2019 01:30:00 10.3 C 8.14 g/m*3 10.3 C 0 km/h
1748 01-05-2019 01:35:00 10.2 C 8.18 g/m*3 10.2 C 0 km/h
1749 01-05-2019 01:40:00 10.2 C 8.18 g/m*3 10.2 C 0 km/h
1750 01-05-2019 01:45:00 10.1 C 8.13 g/m*3 10.1 C 1.6 km/h
Sensor: Nr:Datum:Temp:Abs-Feuchte:Windchill:Wind:
Aussen-T/F 1751 01-05-2019 01:50:00 10 C 8.17 g/m*3 10 C 0 km/h
1752 01-05-2019 01:55:00 9.9 C 8.12 g/m*3 9.9 C 0 km/h
1753 01-05-2019 02:00:00 9.8 C 8.07 g/m*3 9.8 C 0 km/h
1754 01-05-2019 02:05:00 9.7 C 8.02 g/m*3 9.7 C 0 km/h
1755 01-05-2019 02:10:00 9.6 C 7.97 g/m*3 9.6 C 0 km/h
1756 01-05-2019 02:15:00 9.5 C 7.92 g/m*3 9.5 C 0 km/h
1757 01-05-2019 02:20:00 9.4 C 7.96 g/m*3 9.4 C 0 km/h
1758 01-05-2019 02:25:00 9.3 C 7.91 g/m*3 9.3 C 0 km/h
1759 01-05-2019 02:30:00 9.2 C 7.86 g/m*3 9.2 C 0 km/h
1760 01-05-2019 02:35:00 9.1 C 7.9 g/m*3 9.1 C 0 km/h
1761 01-05-2019 02:40:00 9 C 7.85 g/m*3 9 C 0 km/h
1762 01-05-2019 02:45:00 8.9 C 7.8 g/m*3 8.9 C 0 km/h
1763 01-05-2019 02:50:00 8.9 C 7.88 g/m*3 8.9 C 0 km/h
1764 01-05-2019 02:55:00 8.8 C 7.83 g/m*3 8.8 C 0 km/h
1765 01-05-2019 03:00:00 8.8 C 7.83 g/m*3 8.8 C 0 km/h
1766 01-05-2019 03:05:00 8.7 C 7.78 g/m*3 8.7 C 0 km/h
1767 01-05-2019 03:10:00 8.6 C 7.73 g/m*3 8.6 C 0 km/h
1768 01-05-2019 03:15:00 8.5 C 7.68 g/m*3 8.5 C 0 km/h
1769 01-05-2019 03:20:00 8.5 C 7.77 g/m*3 8.5 C 0 km/h
1770 01-05-2019 03:25:00 8.4 C 7.72 g/m*3 8.4 C 0 km/h
1771 01-05-2019 03:30:00 8.4 C 7.72 g/m*3 8.4 C 0 km/h
1772 01-05-2019 03:35:00 8.4 C 7.72 g/m*3 8.4 C 0 km/h
1773 01-05-2019 03:40:00 8.3 C 7.67 g/m*3 8.3 C 1.6 km/h
1774 01-05-2019 03:45:00 8.3 C 7.67 g/m*3 8.3 C 0 km/h
1775 01-05-2019 03:50:00 8.3 C 7.75 g/m*3 8.3 C 0 km/h
Sensor: Nr:Datum:Temp:Abs-Feuchte:Windchill:Wind:
Aussen-T/F 1776 01-05-2019 03:55:00 8.3 C 7.75 g/m*3 8.3 C 0 km/h
1777 01-05-2019 04:00:00 8.3 C 7.75 g/m*3 8.3 C 0 km/h
1778 01-05-2019 04:05:00 8.3 C 7.75 g/m*3 8.3 C 0 km/h
1779 01-05-2019 04:10:00 8.3 C 7.75 g/m*3 8.3 C 0 km/h
1780 01-05-2019 04:15:00 8.3 C 7.75 g/m*3 8.3 C 1.6 km/h
1781 01-05-2019 04:20:00 8.3 C 7.75 g/m*3 8.3 C 3.2 km/h
1782 01-05-2019 04:25:00 8.2 C 7.7 g/m*3 8.2 C 0 km/h
1783 01-05-2019 04:30:00 8.1 C 7.66 g/m*3 8.1 C 0 km/h
1784 01-05-2019 04:35:00 8 C 7.61 g/m*3 8 C 0 km/h
1785 01-05-2019 04:40:00 7.9 C 7.56 g/m*3 7.9 C 0 km/h
1786 01-05-2019 04:45:00 7.8 C 7.43 g/m*3 7.8 C 0 km/h
1787 01-05-2019 04:50:00 7.7 C 7.38 g/m*3 7.7 C 0 km/h
1788 01-05-2019 04:55:00 7.7 C 7.38 g/m*3 7.7 C 0 km/h
1789 01-05-2019 05:00:00 7.6 C 7.41 g/m*3 7.6 C 0 km/h
1790 01-05-2019 05:05:00 7.4 C 7.32 g/m*3 7.4 C 0 km/h
1791 01-05-2019 05:10:00 7.3 C 7.27 g/m*3 7.3 C 0 km/h
1792 01-05-2019 05:15:00 7.2 C 7.22 g/m*3 7.2 C 0 km/h
1793 01-05-2019 05:20:00 7.1 C 7.18 g/m*3 7.1 C 0 km/h
1794 01-05-2019 05:25:00 6.9 C 7.08 g/m*3 6.9 C 0 km/h
1795 01-05-2019 05:30:00 6.8 C 7.04 g/m*3 6.8 C 0 km/h
1796 01-05-2019 05:35:00 6.7 C 6.99 g/m*3 6.7 C 0 km/h
1797 01-05-2019 05:40:00 6.7 C 6.99 g/m*3 6.7 C 0 km/h
1798 01-05-2019 05:45:00 6.6 C 7.02 g/m*3 6.6 C 0 km/h
1799 01-05-2019 05:50:00 6.6 C 7.02 g/m*3 6.6 C 0 km/h
1800 01-05-2019 05:55:00 6.6 C 7.02 g/m*3 6.6 C 0 km/h
Sensor: Nr:Datum:Temp:Abs-Feuchte:Windchill:Wind:
Aussen-T/F 1801 01-05-2019 06:00:00 6.4 C 6.93 g/m*3 6.4 C 0 km/h
1802 01-05-2019 06:05:00 6.3 C 6.88 g/m*3 6.3 C 0 km/h
1803 01-05-2019 06:10:00 6.3 C 6.88 g/m*3 6.3 C 0 km/h
1804 01-05-2019 06:15:00 6.3 C 6.88 g/m*3 6.3 C 0 km/h
1805 01-05-2019 06:20:00 6.3 C 6.96 g/m*3 6.3 C 0 km/h
1806 01-05-2019 06:25:00 6.2 C 6.84 g/m*3 6.2 C 0 km/h
1807 01-05-2019 06:30:00 6.2 C 6.91 g/m*3 6.2 C 1.6 km/h
1808 01-05-2019 06:35:00 6.3 C 6.96 g/m*3 6.3 C 0 km/h
1809 01-05-2019 06:40:00 6.3 C 6.96 g/m*3 6.3 C 0 km/h
1810 01-05-2019 06:45:00 6.3 C 6.96 g/m*3 6.3 C 0 km/h
1811 01-05-2019 06:50:00 6.2 C 6.91 g/m*3 6.2 C 0 km/h
1812 01-05-2019 06:55:00 6.2 C 6.91 g/m*3 6.2 C 0 km/h
1813 01-05-2019 07:00:00 6.3 C 6.96 g/m*3 6.3 C 0 km/h
1814 01-05-2019 07:05:00 6.3 C 7.03 g/m*3 6.3 C 0 km/h
1815 01-05-2019 07:10:00 6.4 C 7.08 g/m*3 6.4 C 0 km/h
1816 01-05-2019 07:15:00 6.6 C 7.17 g/m*3 6.6 C 0 km/h
1817 01-05-2019 07:20:00 6.7 C 7.22 g/m*3 6.7 C 0 km/h
1818 01-05-2019 07:25:00 6.8 C 7.27 g/m*3 6.8 C 0 km/h
1819 01-05-2019 07:30:00 6.8 C 7.27 g/m*3 6.8 C 1.6 km/h
1820 01-05-2019 07:35:00 6.9 C 7.31 g/m*3 6.9 C 1.6 km/h
1821 01-05-2019 07:40:00 7.1 C 7.41 g/m*3 7.1 C 1.6 km/h
1822 01-05-2019 07:45:00 7.1 C 7.41 g/m*3 7.1 C 0 km/h
1823 01-05-2019 07:50:00 7.2 C 7.46 g/m*3 7.2 C 1.6 km/h
1824 01-05-2019 07:55:00 7.3 C 7.51 g/m*3 7.3 C 0 km/h
1825 01-05-2019 08:00:00 7.3 C 7.51 g/m*3 7.3 C 0 km/h
Sensor: Nr:Datum:Temp:Abs-Feuchte:Windchill:Wind:
Aussen-T/F 1826 01-05-2019 08:05:00 7.5 C 7.6 g/m*3 7.5 C 1.6 km/h
1827 01-05-2019 08:10:00 7.5 C 7.6 g/m*3 7.5 C 3.2 km/h
1828 01-05-2019 08:15:00 7.6 C 7.65 g/m*3 7.6 C 0 km/h
1829 01-05-2019 08:20:00 7.7 C 7.7 g/m*3 7.7 C 0 km/h
1830 01-05-2019 08:25:00 7.9 C 7.8 g/m*3 7.9 C 0 km/h
1831 01-05-2019 08:30:00 8.1 C 7.9 g/m*3 8.1 C 0 km/h
1832 01-05-2019 08:35:00 8.1 C 7.9 g/m*3 8.1 C 1.6 km/h
1833 01-05-2019 08:40:00 8.2 C 7.96 g/m*3 8.2 C 0 km/h
1834 01-05-2019 08:45:00 8.2 C 7.96 g/m*3 8.2 C 1.6 km/h
1835 01-05-2019 08:50:00 8.3 C 7.92 g/m*3 8.3 C 1.6 km/h
1836 01-05-2019 08:55:00 8.4 C 7.97 g/m*3 8.4 C 0 km/h
1837 01-05-2019 09:00:00 8.4 C 7.97 g/m*3 8.4 C 0 km/h
1838 01-05-2019 09:05:00 8.6 C 8.08 g/m*3 8.6 C 0 km/h
1839 01-05-2019 09:10:00 8.6 C 8.08 g/m*3 8.6 C 3.2 km/h
1840 01-05-2019 09:15:00 8.7 C 8.04 g/m*3 8.7 C 3.2 km/h
1841 01-05-2019 09:20:00 8.7 C 8.04 g/m*3 8.7 C 1.6 km/h
1842 01-05-2019 09:25:00 8.8 C 8.09 g/m*3 8.8 C 0 km/h
1843 01-05-2019 09:30:00 8.9 C 8.15 g/m*3 8.9 C 1.6 km/h
1844 01-05-2019 09:35:00 9.1 C 8.25 g/m*3 9.1 C 1.6 km/h
1845 01-05-2019 09:40:00 9.1 C 8.16 g/m*3 9.1 C 3.2 km/h
1846 01-05-2019 09:45:00 9.2 C 8.22 g/m*3 9.2 C 3.2 km/h
1847 01-05-2019 09:50:00 9.2 C 8.22 g/m*3 9.2 C 0 km/h
1848 01-05-2019 09:55:00 9.4 C 8.32 g/m*3 9.4 C 0 km/h
1849 01-05-2019 10:00:00 9.6 C 8.43 g/m*3 9.6 C 0 km/h
1850 01-05-2019 10:05:00 9.7 C 8.48 g/m*3 9.7 C 3.2 km/h
Sensor: Nr:Datum:Temp:Abs-Feuchte:Windchill:Wind:
Aussen-T/F 1851 01-05-2019 10:10:00 9.9 C 8.59 g/m*3 9.9 C 1.6 km/h
1852 01-05-2019 10:15:00 10.1 C 8.51 g/m*3 10.1 C 3.2 km/h
1853 01-05-2019 10:20:00 10 C 8.36 g/m*3 10 C 1.6 km/h
1854 01-05-2019 10:25:00 10 C 8.46 g/m*3 10 C 0 km/h
1855 01-05-2019 10:30:00 10.1 C 8.51 g/m*3 10.1 C 1.6 km/h
1856 01-05-2019 10:35:00 10.3 C 8.52 g/m*3 9.72 C 6.4 km/h
1857 01-05-2019 10:40:00 10.4 C 8.58 g/m*3 9.83 C 6.4 km/h
1858 01-05-2019 10:45:00 10.4 C 8.48 g/m*3 9.83 C 6.4 km/h
1859 01-05-2019 10:50:00 10.4 C 8.48 g/m*3 10.4 C 1.6 km/h
1860 01-05-2019 10:55:00 10.5 C 8.53 g/m*3 10.5 C 4.8 km/h
1861 01-05-2019 11:00:00 10.5 C 8.53 g/m*3 10.5 C 1.6 km/h
1862 01-05-2019 11:05:00 10.6 C 8.59 g/m*3 10.6 C 1.6 km/h
1863 01-05-2019 11:10:00 10.7 C 8.64 g/m*3 10.7 C 4.8 km/h
1864 01-05-2019 11:15:00 10.8 C 8.6 g/m*3 10.8 C 3.2 km/h
1865 01-05-2019 11:20:00 10.9 C 8.65 g/m*3 10.9 C 3.2 km/h
1866 01-05-2019 11:25:00 11.2 C 8.82 g/m*3 11.2 C 1.6 km/h
1867 01-05-2019 11:30:00 11.4 C 8.93 g/m*3 11.4 C 1.6 km/h
1868 01-05-2019 11:35:00 11.7 C 8.99 g/m*3 11.7 C 1.6 km/h
1869 01-05-2019 11:40:00 11.9 C 9.11 g/m*3 11.9 C 3.2 km/h
1870 01-05-2019 11:45:00 12.2 C 9.17 g/m*3 12.2 C 4.8 km/h
1871 01-05-2019 11:50:00 12.4 C 9.18 g/m*3 12.4 C 4.8 km/h
1872 01-05-2019 11:55:00 12.6 C 9.07 g/m*3 12.6 C 4.8 km/h
1873 01-05-2019 12:00:00 12.7 C 9.24 g/m*3 12.7 C 3.2 km/h
1874 01-05-2019 12:05:00 12.9 C 9.24 g/m*3 12.9 C 6.4 km/h
1875 01-05-2019 12:10:00 13.2 C 9.42 g/m*3 13.2 C 1.6 km/h
Sensor: Nr:Datum:Temp:Abs-Feuchte:Windchill:Wind:
Aussen-T/F 1876 01-05-2019 12:15:00 13.3 C 9.36 g/m*3 13.3 C 3.2 km/h
1877 01-05-2019 12:20:00 13.6 C 9.42 g/m*3 13.6 C 1.6 km/h
1878 01-05-2019 12:25:00 13.7 C 9.35 g/m*3 13.7 C 6.4 km/h
1879 01-05-2019 12:30:00 13.9 C 9.47 g/m*3 13.9 C 3.2 km/h
1880 01-05-2019 12:35:00 14.2 C 9.52 g/m*3 14.2 C 6.4 km/h
1881 01-05-2019 12:40:00 14.3 C 9.46 g/m*3 14.3 C 8.1 km/h
1882 01-05-2019 12:45:00 14.5 C 9.58 g/m*3 14.5 C 4.8 km/h
1883 01-05-2019 12:50:00 14.6 C 9.51 g/m*3 14.6 C 4.8 km/h
1884 01-05-2019 12:55:00 14.8 C 9.5 g/m*3 14.8 C 3.2 km/h
1885 01-05-2019 13:00:00 15 C 9.62 g/m*3 15 C 3.2 km/h
1886 01-05-2019 13:05:00 15.3 C 9.53 g/m*3 15.3 C 8.1 km/h
1887 01-05-2019 13:10:00 15.5 C 9.52 g/m*3 15.5 C 8.1 km/h
1888 01-05-2019 13:15:00 15.7 C 9.5 g/m*3 15.7 C 8.1 km/h
1889 01-05-2019 13:20:00 15.8 C 9.42 g/m*3 15.8 C 8.1 km/h
1890 01-05-2019 13:25:00 15.9 C 9.07 g/m*3 15.9 C 8.1 km/h
1891 01-05-2019 13:30:00 16.2 C 9.1 g/m*3 16.2 C 8.1 km/h
1892 01-05-2019 13:35:00 16.3 C 8.6 g/m*3 16.3 C 4.8 km/h
1893 01-05-2019 13:40:00 16.5 C 8.71 g/m*3 16.5 C 11.3 km/h
1894 01-05-2019 13:45:00 16.6 C 8.19 g/m*3 16.6 C 8.1 km/h
1895 01-05-2019 13:50:00 16.8 C 8.72 g/m*3 16.8 C 8.1 km/h
1896 01-05-2019 13:55:00 16.8 C 8.58 g/m*3 16.8 C 6.4 km/h
1897 01-05-2019 14:00:00 16.9 C 8.63 g/m*3 16.9 C 6.4 km/h
1898 01-05-2019 14:05:00 17.1 C 8.59 g/m*3 17.1 C 9.7 km/h
1899 01-05-2019 14:10:00 17.2 C 8.49 g/m*3 17.2 C 9.7 km/h
1900 01-05-2019 14:15:00 17.3 C 8.25 g/m*3 17.3 C 11.3 km/h
Sensor: Nr:Datum:Temp:Abs-Feuchte:Windchill:Wind:
Aussen-T/F 1901 01-05-2019 14:20:00 17.4 C 8.6 g/m*3 17.4 C 8.1 km/h
1902 01-05-2019 14:25:00 17.6 C 8.4 g/m*3 17.6 C 11.3 km/h
1903 01-05-2019 14:30:00 17.8 C 8.04 g/m*3 17.8 C 9.7 km/h
1904 01-05-2019 14:35:00 17.9 C 7.94 g/m*3 17.9 C 9.7 km/h
1905 01-05-2019 14:40:00 18.1 C 7.88 g/m*3 18.1 C 8.1 km/h
1906 01-05-2019 14:45:00 18.3 C 7.97 g/m*3 18.3 C 9.7 km/h
1907 01-05-2019 14:50:00 18.3 C 8.29 g/m*3 18.3 C 8.1 km/h
1908 01-05-2019 14:55:00 18.4 C 8.49 g/m*3 18.4 C 8.1 km/h
1909 01-05-2019 15:00:00 18.5 C 7.91 g/m*3 18.5 C 8.1 km/h
1910 01-05-2019 15:05:00 18.6 C 8.12 g/m*3 18.6 C 9.7 km/h
1911 01-05-2019 15:10:00 18.7 C 8.49 g/m*3 18.7 C 8.1 km/h
1912 01-05-2019 15:15:00 18.9 C 7.94 g/m*3 18.9 C 14.5 km/h
1913 01-05-2019 15:20:00 18.9 C 8.1 g/m*3 18.9 C 14.5 km/h
1914 01-05-2019 15:25:00 19.1 C 8.03 g/m*3 19.1 C 6.4 km/h
1915 01-05-2019 15:30:00 19.4 C 8.18 g/m*3 19.4 C 9.7 km/h
1916 01-05-2019 15:35:00 19.6 C 7.77 g/m*3 19.6 C 8.1 km/h
1917 01-05-2019 15:40:00 19.8 C 8.37 g/m*3 19.8 C 6.4 km/h
1918 01-05-2019 15:45:00 20.1 C 8 g/m*3 20.1 C 6.4 km/h
1919 01-05-2019 15:50:00 20.2 C 8.04 g/m*3 20.2 C 11.3 km/h
1920 01-05-2019 15:55:00 20.4 C 8.31 g/m*3 20.4 C 9.7 km/h
1921 01-05-2019 16:00:00 20.6 C 7.87 g/m*3 20.6 C 8.1 km/h
1922 01-05-2019 16:05:00 20.8 C 8.33 g/m*3 20.8 C 4.8 km/h
1923 01-05-2019 16:10:00 21.1 C 7.92 g/m*3 21.1 C 8.1 km/h
1924 01-05-2019 16:15:00 21 C 8.24 g/m*3 21 C 8.1 km/h
1925 01-05-2019 16:20:00 21.3 C 8.02 g/m*3 21.3 C 3.2 km/h
Sensor: Nr:Datum:Temp:Abs-Feuchte:Windchill:Wind:
Aussen-T/F 1926 01-05-2019 16:25:00 21.3 C 8.02 g/m*3 21.3 C 3.2 km/h
1927 01-05-2019 16:30:00 21.6 C 8.16 g/m*3 21.6 C 9.7 km/h
1928 01-05-2019 16:35:00 21.7 C 8.2 g/m*3 21.7 C 9.7 km/h
1929 01-05-2019 16:40:00 21.8 C 8.25 g/m*3 21.8 C 9.7 km/h
1930 01-05-2019 16:45:00 21.6 C 8.35 g/m*3 21.6 C 8.1 km/h
1931 01-05-2019 16:50:00 21.4 C 8.44 g/m*3 21.4 C 8.1 km/h
1932 01-05-2019 16:55:00 21.6 C 8.35 g/m*3 21.6 C 8.1 km/h
1933 01-05-2019 17:00:00 21.7 C 8.58 g/m*3 21.7 C 4.8 km/h
1934 01-05-2019 17:05:00 21.7 C 8.2 g/m*3 21.7 C 9.7 km/h
1935 01-05-2019 17:10:00 21.7 C 8.58 g/m*3 21.7 C 9.7 km/h
1936 01-05-2019 17:15:00 21.7 C 8.01 g/m*3 21.7 C 6.4 km/h
1937 01-05-2019 17:20:00 21.5 C 8.3 g/m*3 21.5 C 8.1 km/h
1938 01-05-2019 17:25:00 21.6 C 8.16 g/m*3 21.6 C 4.8 km/h
1939 01-05-2019 17:30:00 21.5 C 8.11 g/m*3 21.5 C 9.7 km/h
1940 01-05-2019 17:35:00 21.3 C 8.39 g/m*3 21.3 C 11.3 km/h
1941 01-05-2019 17:40:00 21.3 C 8.39 g/m*3 21.3 C 9.7 km/h
1942 01-05-2019 17:45:00 21.3 C 8.57 g/m*3 21.3 C 6.4 km/h
1943 01-05-2019 17:50:00 21.3 C 8.39 g/m*3 21.3 C 6.4 km/h
1944 01-05-2019 17:55:00 21.2 C 8.34 g/m*3 21.2 C 9.7 km/h
1945 01-05-2019 18:00:00 20.9 C 8.92 g/m*3 20.9 C 12.9 km/h
1946 01-05-2019 18:05:00 20.8 C 9.23 g/m*3 20.8 C 11.3 km/h
1947 01-05-2019 18:10:00 20.8 C 9.05 g/m*3 20.8 C 9.7 km/h
1948 01-05-2019 18:15:00 20.8 C 9.42 g/m*3 20.8 C 8.1 km/h
1949 01-05-2019 18:20:00 20.7 C 9.18 g/m*3 20.7 C 12.9 km/h
1950 01-05-2019 18:25:00 20.6 C 9.31 g/m*3 20.6 C 8.1 km/h
Sensor: Nr:Datum:Temp:Abs-Feuchte:Windchill:Wind:
Aussen-T/F 1951 01-05-2019 18:30:00 20.4 C 9.2 g/m*3 20.4 C 11.3 km/h
1952 01-05-2019 18:35:00 20.2 C 9.44 g/m*3 20.2 C 9.7 km/h
1953 01-05-2019 18:40:00 20 C 9.33 g/m*3 20 C 9.7 km/h
1954 01-05-2019 18:45:00 19.7 C 9.17 g/m*3 19.7 C 12.9 km/h
1955 01-05-2019 18:50:00 19.6 C 9.45 g/m*3 19.6 C 6.4 km/h
1956 01-05-2019 18:55:00 19.4 C 9.18 g/m*3 19.4 C 9.7 km/h
1957 01-05-2019 19:00:00 19.4 C 9.34 g/m*3 19.4 C 9.7 km/h
1958 01-05-2019 19:05:00 19.2 C 9.23 g/m*3 19.2 C 11.3 km/h
1959 01-05-2019 19:10:00 19 C 9.29 g/m*3 19 C 4.8 km/h
1960 01-05-2019 19:15:00 18.8 C 9.18 g/m*3 18.8 C 9.7 km/h
1961 01-05-2019 19:20:00 18.6 C 9.23 g/m*3 18.6 C 9.7 km/h
1962 01-05-2019 19:25:00 18.3 C 9.07 g/m*3 18.3 C 9.7 km/h
1963 01-05-2019 19:30:00 18 C 8.91 g/m*3 18 C 8.1 km/h
1964 01-05-2019 19:35:00 17.7 C 8.9 g/m*3 17.7 C 11.3 km/h
1965 01-05-2019 19:40:00 17.6 C 9 g/m*3 17.6 C 4.8 km/h
1966 01-05-2019 19:45:00 17.5 C 8.95 g/m*3 17.5 C 3.2 km/h
1967 01-05-2019 19:50:00 17.3 C 8.69 g/m*3 17.3 C 4.8 km/h
1968 01-05-2019 19:55:00 17.2 C 8.93 g/m*3 17.2 C 4.8 km/h
1969 01-05-2019 20:00:00 17.1 C 8.59 g/m*3 17.1 C 11.3 km/h
1970 01-05-2019 20:05:00 16.9 C 8.63 g/m*3 16.9 C 3.2 km/h
1971 01-05-2019 20:10:00 16.7 C 8.95 g/m*3 16.7 C 4.8 km/h
1972 01-05-2019 20:15:00 16.4 C 8.65 g/m*3 16.4 C 6.4 km/h
1973 01-05-2019 20:20:00 16.2 C 8.55 g/m*3 16.2 C 4.8 km/h
1974 01-05-2019 20:25:00 15.8 C 8.48 g/m*3 15.8 C 3.2 km/h
1975 01-05-2019 20:30:00 15.5 C 8.46 g/m*3 15.5 C 0 km/h
Sensor: Nr:Datum:Temp:Abs-Feuchte:Windchill:Wind:
Aussen-T/F 1976 01-05-2019 20:35:00 15.2 C 8.31 g/m*3 15.2 C 1.6 km/h
1977 01-05-2019 20:40:00 14.9 C 8.28 g/m*3 14.9 C 0 km/h
1978 01-05-2019 20:45:00 14.7 C 8.31 g/m*3 14.7 C 0 km/h
1979 01-05-2019 20:50:00 14.3 C 7.99 g/m*3 14.3 C 4.8 km/h
1980 01-05-2019 20:55:00 14.2 C 8.18 g/m*3 14.2 C 1.6 km/h
1981 01-05-2019 21:00:00 13.9 C 8.27 g/m*3 13.9 C 0 km/h
1982 01-05-2019 21:05:00 13.6 C 8.36 g/m*3 13.6 C 4.8 km/h
1983 01-05-2019 21:10:00 13.4 C 8.49 g/m*3 13.4 C 4.8 km/h
1984 01-05-2019 21:15:00 13.3 C 8.43 g/m*3 13.3 C 4.8 km/h
1985 01-05-2019 21:20:00 13.3 C 8.55 g/m*3 13.3 C 6.4 km/h
1986 01-05-2019 21:25:00 13.4 C 8.6 g/m*3 13.4 C 8.1 km/h
1987 01-05-2019 21:30:00 13.6 C 8.71 g/m*3 13.6 C 8.1 km/h
1988 01-05-2019 21:35:00 13.6 C 8.71 g/m*3 13.6 C 3.2 km/h
1989 01-05-2019 21:40:00 13.5 C 8.66 g/m*3 13.5 C 8.1 km/h
1990 01-05-2019 21:45:00 13.6 C 8.71 g/m*3 13.6 C 8.1 km/h
1991 01-05-2019 21:50:00 13.6 C 8.71 g/m*3 13.6 C 6.4 km/h
1992 01-05-2019 21:55:00 13.6 C 8.83 g/m*3 13.6 C 8.1 km/h
1993 01-05-2019 22:00:00 13.6 C 8.83 g/m*3 13.6 C 4.8 km/h
1994 01-05-2019 22:05:00 13.4 C 8.72 g/m*3 13.4 C 8.1 km/h
1995 01-05-2019 22:10:00 13.4 C 8.72 g/m*3 13.4 C 9.7 km/h
1996 01-05-2019 22:15:00 13.4 C 8.72 g/m*3 13.4 C 4.8 km/h
1997 01-05-2019 22:20:00 13.3 C 8.78 g/m*3 13.3 C 1.6 km/h
1998 01-05-2019 22:25:00 13.1 C 8.79 g/m*3 13.1 C 0 km/h
1999 01-05-2019 22:30:00 12.8 C 8.74 g/m*3 12.8 C 3.2 km/h
2000 01-05-2019 22:35:00 12.5 C 8.69 g/m*3 12.5 C 1.6 km/h
Sensor: Nr:Datum:Temp:Abs-Feuchte:Windchill:Wind:
Aussen-T/F 2001 01-05-2019 22:40:00 12.3 C 8.69 g/m*3 12.3 C 0 km/h
2002 01-05-2019 22:45:00 12 C 8.63 g/m*3 12 C 0 km/h
2003 01-05-2019 22:50:00 11.8 C 8.63 g/m*3 11.8 C 0 km/h
2004 01-05-2019 22:55:00 11.6 C 8.52 g/m*3 11.6 C 0 km/h
2005 01-05-2019 23:00:00 11.4 C 8.52 g/m*3 11.4 C 0 km/h
2006 01-05-2019 23:05:00 11.3 C 8.57 g/m*3 11.3 C 0 km/h
2007 01-05-2019 23:10:00 11.2 C 8.51 g/m*3 11.2 C 0 km/h
2008 01-05-2019 23:15:00 11.1 C 8.56 g/m*3 11.1 C 0 km/h
2009 01-05-2019 23:20:00 10.9 C 8.45 g/m*3 10.9 C 0 km/h
2010 01-05-2019 23:25:00 10.8 C 8.4 g/m*3 10.8 C 0 km/h
2011 01-05-2019 23:30:00 10.7 C 8.45 g/m*3 10.7 C 0 km/h
2012 01-05-2019 23:35:00 10.6 C 8.39 g/m*3 10.6 C 0 km/h
2013 01-05-2019 23:40:00 10.6 C 8.39 g/m*3 10.6 C 0 km/h
2014 01-05-2019 23:45:00 10.4 C 8.38 g/m*3 10.4 C 0 km/h
2015 01-05-2019 23:50:00 10.4 C 8.38 g/m*3 10.4 C 0 km/h
2016 01-05-2019 23:55:00 10.3 C 8.33 g/m*3 10.3 C 0 km/h
2017 02-05-2019 00:00:00 10.3 C 8.33 g/m*3 10.3 C 0 km/h
2018 02-05-2019 00:05:00 10.2 C 8.28 g/m*3 10.2 C 0 km/h
2019 02-05-2019 00:10:00 10.2 C 8.37 g/m*3 10.2 C 0 km/h
2020 02-05-2019 00:15:00 10.2 C 8.37 g/m*3 10.2 C 0 km/h
2021 02-05-2019 00:20:00 10.1 C 8.32 g/m*3 10.1 C 0 km/h
2022 02-05-2019 00:25:00 10 C 8.27 g/m*3 10 C 0 km/h
2023 02-05-2019 00:30:00 9.9 C 8.31 g/m*3 9.9 C 0 km/h
2024 02-05-2019 00:35:00 9.9 C 8.31 g/m*3 9.9 C 0 km/h
2025 02-05-2019 00:40:00 9.8 C 8.26 g/m*3 9.8 C 0 km/h
Sensor: Nr:Datum:Temp:Abs-Feuchte:Windchill:Wind:
Aussen-T/F 2026 02-05-2019 00:45:00 9.8 C 8.26 g/m*3 9.8 C 0 km/h
2027 02-05-2019 00:50:00 9.7 C 8.2 g/m*3 9.7 C 0 km/h
2028 02-05-2019 00:55:00 9.7 C 8.2 g/m*3 9.7 C 0 km/h
2029 02-05-2019 01:00:00 9.6 C 8.15 g/m*3 9.6 C 0 km/h
2030 02-05-2019 01:05:00 9.5 C 8.1 g/m*3 9.5 C 0 km/h
2031 02-05-2019 01:10:00 9.3 C 8.09 g/m*3 9.3 C 0 km/h
2032 02-05-2019 01:15:00 9.2 C 7.95 g/m*3 9.2 C 0 km/h
2033 02-05-2019 01:20:00 9.1 C 7.99 g/m*3 9.1 C 0 km/h
2034 02-05-2019 01:25:00 8.9 C 7.88 g/m*3 8.9 C 0 km/h
2035 02-05-2019 01:30:00 8.8 C 7.83 g/m*3 8.8 C 0 km/h
2036 02-05-2019 01:35:00 8.7 C 7.87 g/m*3 8.7 C 0 km/h
2037 02-05-2019 01:40:00 8.7 C 7.87 g/m*3 8.7 C 0 km/h
2038 02-05-2019 01:45:00 8.6 C 7.91 g/m*3 8.6 C 0 km/h
2039 02-05-2019 01:50:00 8.6 C 7.91 g/m*3 8.6 C 0 km/h
2040 02-05-2019 01:55:00 8.6 C 7.91 g/m*3 8.6 C 0 km/h
2041 02-05-2019 02:00:00 8.4 C 7.8 g/m*3 8.4 C 0 km/h
2042 02-05-2019 02:05:00 8.4 C 7.8 g/m*3 8.4 C 0 km/h
2043 02-05-2019 02:10:00 8.3 C 7.75 g/m*3 8.3 C 0 km/h
2044 02-05-2019 02:15:00 8.3 C 7.75 g/m*3 8.3 C 0 km/h
2045 02-05-2019 02:20:00 8.3 C 7.84 g/m*3 8.3 C 0 km/h
2046 02-05-2019 02:25:00 8.2 C 7.79 g/m*3 8.2 C 0 km/h
2047 02-05-2019 02:30:00 8.2 C 7.79 g/m*3 8.2 C 0 km/h
2048 02-05-2019 02:35:00 8.2 C 7.79 g/m*3 8.2 C 0 km/h
2049 02-05-2019 02:40:00 8.2 C 7.79 g/m*3 8.2 C 0 km/h
2050 02-05-2019 02:45:00 8.1 C 7.74 g/m*3 8.1 C 0 km/h
Sensor: Nr:Datum:Temp:Abs-Feuchte:Windchill:Wind:
Aussen-T/F 2051 02-05-2019 02:50:00 8.1 C 7.74 g/m*3 8.1 C 0 km/h
2052 02-05-2019 02:55:00 8.1 C 7.82 g/m*3 8.1 C 0 km/h
2053 02-05-2019 03:00:00 8 C 7.69 g/m*3 8 C 0 km/h
2054 02-05-2019 03:05:00 7.9 C 7.72 g/m*3 7.9 C 0 km/h
2055 02-05-2019 03:10:00 7.9 C 7.64 g/m*3 7.9 C 0 km/h
2056 02-05-2019 03:15:00 7.9 C 7.64 g/m*3 7.9 C 0 km/h
2057 02-05-2019 03:20:00 7.9 C 7.72 g/m*3 7.9 C 0 km/h
2058 02-05-2019 03:25:00 7.8 C 7.67 g/m*3 7.8 C 0 km/h
2059 02-05-2019 03:30:00 7.8 C 7.67 g/m*3 7.8 C 0 km/h
2060 02-05-2019 03:35:00 7.7 C 7.62 g/m*3 7.7 C 0 km/h
2061 02-05-2019 03:40:00 7.6 C 7.49 g/m*3 7.6 C 0 km/h
2062 02-05-2019 03:45:00 7.5 C 7.44 g/m*3 7.5 C 0 km/h
2063 02-05-2019 03:50:00 7.4 C 7.48 g/m*3 7.4 C 0 km/h
2064 02-05-2019 03:55:00 7.4 C 7.48 g/m*3 7.4 C 0 km/h
2065 02-05-2019 04:00:00 7.3 C 7.43 g/m*3 7.3 C 0 km/h
2066 02-05-2019 04:05:00 7.3 C 7.43 g/m*3 7.3 C 0 km/h
2067 02-05-2019 04:10:00 7.2 C 7.38 g/m*3 7.2 C 0 km/h
2068 02-05-2019 04:15:00 7.2 C 7.38 g/m*3 7.2 C 0 km/h
2069 02-05-2019 04:20:00 7.1 C 7.33 g/m*3 7.1 C 0 km/h
2070 02-05-2019 04:25:00 7.1 C 7.33 g/m*3 7.1 C 0 km/h
2071 02-05-2019 04:30:00 7 C 7.28 g/m*3 7 C 0 km/h
2072 02-05-2019 04:35:00 6.9 C 7.24 g/m*3 6.9 C 0 km/h
2073 02-05-2019 04:40:00 6.9 C 7.24 g/m*3 6.9 C 0 km/h
2074 02-05-2019 04:45:00 6.8 C 7.19 g/m*3 6.8 C 0 km/h
2075 02-05-2019 04:50:00 6.8 C 7.19 g/m*3 6.8 C 0 km/h
Sensor: Nr:Datum:Temp:Abs-Feuchte:Windchill:Wind:
Aussen-T/F 2076 02-05-2019 04:55:00 6.7 C 7.14 g/m*3 6.7 C 0 km/h
2077 02-05-2019 05:00:00 6.6 C 7.1 g/m*3 6.6 C 0 km/h
2078 02-05-2019 05:05:00 6.6 C 7.1 g/m*3 6.6 C 0 km/h
2079 02-05-2019 05:10:00 6.6 C 7.1 g/m*3 6.6 C 0 km/h
2080 02-05-2019 05:15:00 6.4 C 7 g/m*3 6.4 C 0 km/h
2081 02-05-2019 05:20:00 6.4 C 7 g/m*3 6.4 C 0 km/h
2082 02-05-2019 05:25:00 6.3 C 6.96 g/m*3 6.3 C 0 km/h
2083 02-05-2019 05:30:00 6.3 C 6.96 g/m*3 6.3 C 0 km/h
2084 02-05-2019 05:35:00 6.2 C 6.91 g/m*3 6.2 C 0 km/h
2085 02-05-2019 05:40:00 6.2 C 6.99 g/m*3 6.2 C 0 km/h
2086 02-05-2019 05:45:00 6.1 C 6.94 g/m*3 6.1 C 0 km/h
2087 02-05-2019 05:50:00 6.1 C 6.87 g/m*3 6.1 C 0 km/h
2088 02-05-2019 05:55:00 6.1 C 6.94 g/m*3 6.1 C 0 km/h
2089 02-05-2019 06:00:00 6.1 C 6.94 g/m*3 6.1 C 0 km/h
2090 02-05-2019 06:05:00 6 C 6.9 g/m*3 6 C 0 km/h
2091 02-05-2019 06:10:00 5.9 C 6.85 g/m*3 5.9 C 0 km/h
2092 02-05-2019 06:15:00 5.9 C 6.85 g/m*3 5.9 C 0 km/h
2093 02-05-2019 06:20:00 5.8 C 6.81 g/m*3 5.8 C 0 km/h
2094 02-05-2019 06:25:00 5.8 C 6.81 g/m*3 5.8 C 0 km/h
2095 02-05-2019 06:30:00 5.8 C 6.81 g/m*3 5.8 C 0 km/h
2096 02-05-2019 06:35:00 5.8 C 6.81 g/m*3 5.8 C 0 km/h
2097 02-05-2019 06:40:00 5.8 C 6.81 g/m*3 5.8 C 0 km/h
2098 02-05-2019 06:45:00 5.9 C 6.85 g/m*3 5.9 C 0 km/h
2099 02-05-2019 06:50:00 5.9 C 6.85 g/m*3 5.9 C 0 km/h
2100 02-05-2019 06:55:00 6 C 6.9 g/m*3 6 C 0 km/h
Sensor: Nr:Datum:Temp:Abs-Feuchte:Windchill:Wind:
Aussen-T/F 2101 02-05-2019 07:00:00 6.1 C 7.01 g/m*3 6.1 C 0 km/h
2102 02-05-2019 07:05:00 6.2 C 7.06 g/m*3 6.2 C 0 km/h
2103 02-05-2019 07:10:00 6.4 C 7.15 g/m*3 6.4 C 0 km/h
2104 02-05-2019 07:15:00 6.6 C 7.25 g/m*3 6.6 C 0 km/h
2105 02-05-2019 07:20:00 6.7 C 7.29 g/m*3 6.7 C 0 km/h
2106 02-05-2019 07:25:00 6.8 C 7.34 g/m*3 6.8 C 0 km/h
2107 02-05-2019 07:30:00 6.9 C 7.39 g/m*3 6.9 C 0 km/h
2108 02-05-2019 07:35:00 7.1 C 7.49 g/m*3 7.1 C 3.2 km/h
2109 02-05-2019 07:40:00 7.1 C 7.49 g/m*3 7.1 C 1.6 km/h
2110 02-05-2019 07:45:00 7.2 C 7.54 g/m*3 7.2 C 0 km/h
2111 02-05-2019 07:50:00 7.4 C 7.63 g/m*3 7.4 C 3.2 km/h
2112 02-05-2019 07:55:00 7.6 C 7.73 g/m*3 7.6 C 1.6 km/h
2113 02-05-2019 08:00:00 7.7 C 7.78 g/m*3 7.7 C 1.6 km/h
2114 02-05-2019 08:05:00 7.8 C 7.83 g/m*3 7.8 C 0 km/h
2115 02-05-2019 08:10:00 7.9 C 7.89 g/m*3 7.9 C 3.2 km/h
2116 02-05-2019 08:15:00 8.1 C 7.99 g/m*3 8.1 C 0 km/h
2117 02-05-2019 08:20:00 8.3 C 8.09 g/m*3 8.3 C 0 km/h
2118 02-05-2019 08:25:00 8.4 C 8.14 g/m*3 7.52 C 6.4 km/h
2119 02-05-2019 08:30:00 8.6 C 8.25 g/m*3 8.6 C 3.2 km/h
2120 02-05-2019 08:35:00 8.6 C 8.25 g/m*3 8.6 C 4.8 km/h
2121 02-05-2019 08:40:00 8.7 C 8.3 g/m*3 8.7 C 1.6 km/h
2122 02-05-2019 08:45:00 8.6 C 8.16 g/m*3 8.6 C 4.8 km/h
2123 02-05-2019 08:50:00 8.6 C 8.16 g/m*3 8.6 C 0 km/h
2124 02-05-2019 08:55:00 8.6 C 8.16 g/m*3 8.6 C 0 km/h
2125 02-05-2019 09:00:00 8.7 C 8.22 g/m*3 8.7 C 0 km/h
Sensor: Nr:Datum:Temp:Abs-Feuchte:Windchill:Wind:
Aussen-T/F 2126 02-05-2019 09:05:00 8.7 C 8.13 g/m*3 8.7 C 0 km/h
2127 02-05-2019 09:10:00 8.8 C 8.27 g/m*3 8.8 C 0 km/h
2128 02-05-2019 09:15:00 8.9 C 8.23 g/m*3 8.9 C 4.8 km/h
2129 02-05-2019 09:20:00 8.9 C 8.15 g/m*3 8.9 C 4.8 km/h
2130 02-05-2019 09:25:00 9 C 8.2 g/m*3 9 C 1.6 km/h
2131 02-05-2019 09:30:00 9.1 C 8.16 g/m*3 9.1 C 1.6 km/h
2132 02-05-2019 09:35:00 9.2 C 8.22 g/m*3 9.2 C 1.6 km/h
2133 02-05-2019 09:40:00 9.2 C 8.13 g/m*3 9.2 C 1.6 km/h
2134 02-05-2019 09:45:00 9.3 C 8.09 g/m*3 9.3 C 0 km/h
2135 02-05-2019 09:50:00 9.4 C 8.14 g/m*3 9.4 C 1.6 km/h
2136 02-05-2019 09:55:00 9.7 C 8.2 g/m*3 9.7 C 3.2 km/h
2137 02-05-2019 10:00:00 9.9 C 8.22 g/m*3 9.9 C 1.6 km/h
2138 02-05-2019 10:05:00 10.2 C 8.28 g/m*3 10.2 C 1.6 km/h
2139 02-05-2019 10:10:00 10.3 C 8.14 g/m*3 10.3 C 3.2 km/h
2140 02-05-2019 10:15:00 10.4 C 8.19 g/m*3 10.4 C 3.2 km/h
2141 02-05-2019 10:20:00 10.6 C 8.1 g/m*3 10.6 C 1.6 km/h
2142 02-05-2019 10:25:00 10.6 C 8 g/m*3 10.6 C 3.2 km/h
2143 02-05-2019 10:30:00 10.8 C 8.01 g/m*3 10.29 C 6.4 km/h
2144 02-05-2019 10:35:00 10.9 C 7.96 g/m*3 10.9 C 1.6 km/h
2145 02-05-2019 10:40:00 11 C 8.21 g/m*3 10.52 C 6.4 km/h
2146 02-05-2019 10:45:00 11.2 C 8.11 g/m*3 11.2 C 0 km/h
2147 02-05-2019 10:50:00 11.3 C 8.06 g/m*3 11.3 C 3.2 km/h
2148 02-05-2019 10:55:00 11.5 C 8.16 g/m*3 11.5 C 6.4 km/h
2149 02-05-2019 11:00:00 11.7 C 8.16 g/m*3 11.7 C 6.4 km/h
2150 02-05-2019 11:05:00 11.8 C 8.31 g/m*3 11.8 C 3.2 km/h
Sensor: Nr:Datum:Temp:Abs-Feuchte:Windchill:Wind:
Aussen-T/F 2151 02-05-2019 11:10:00 11.9 C 8.15 g/m*3 11.9 C 8.1 km/h
2152 02-05-2019 11:15:00 12.1 C 8.36 g/m*3 12.1 C 6.4 km/h
2153 02-05-2019 11:20:00 12.2 C 8.31 g/m*3 12.2 C 4.8 km/h
2154 02-05-2019 11:25:00 12.2 C 8.31 g/m*3 12.2 C 4.8 km/h
2155 02-05-2019 11:30:00 12.3 C 8.14 g/m*3 12.3 C 4.8 km/h
2156 02-05-2019 11:35:00 12.3 C 8.25 g/m*3 12.3 C 3.2 km/h
2157 02-05-2019 11:40:00 12.3 C 8.25 g/m*3 12.3 C 4.8 km/h
2158 02-05-2019 11:45:00 12.4 C 8.19 g/m*3 12.4 C 3.2 km/h
2159 02-05-2019 11:50:00 12.3 C 8.14 g/m*3 12.3 C 8.1 km/h
2160 02-05-2019 11:55:00 12.4 C 8.3 g/m*3 12.4 C 4.8 km/h
2161 02-05-2019 12:00:00 12.4 C 8.19 g/m*3 12.4 C 6.4 km/h
2162 02-05-2019 12:05:00 12.5 C 8.14 g/m*3 12.5 C 4.8 km/h
2163 02-05-2019 12:10:00 12.5 C 8.25 g/m*3 12.5 C 4.8 km/h
2164 02-05-2019 12:15:00 12.7 C 8.46 g/m*3 12.7 C 4.8 km/h
2165 02-05-2019 12:20:00 12.8 C 8.29 g/m*3 12.8 C 3.2 km/h
2166 02-05-2019 12:25:00 12.9 C 8.34 g/m*3 12.9 C 9.7 km/h
2167 02-05-2019 12:30:00 12.9 C 8.34 g/m*3 12.9 C 9.7 km/h
2168 02-05-2019 12:35:00 13 C 8.51 g/m*3 13 C 8.1 km/h
2169 02-05-2019 12:40:00 13.2 C 8.5 g/m*3 13.2 C 9.7 km/h
2170 02-05-2019 12:45:00 13.3 C 8.43 g/m*3 13.3 C 6.4 km/h
2171 02-05-2019 12:50:00 13.4 C 8.37 g/m*3 13.4 C 8.1 km/h
2172 02-05-2019 12:55:00 13.5 C 8.42 g/m*3 13.5 C 8.1 km/h
2173 02-05-2019 13:00:00 13.5 C 8.3 g/m*3 13.5 C 8.1 km/h
2174 02-05-2019 13:05:00 13.6 C 8.36 g/m*3 13.6 C 8.1 km/h
2175 02-05-2019 13:10:00 13.7 C 8.53 g/m*3 13.7 C 4.8 km/h
Sensor: Nr:Datum:Temp:Abs-Feuchte:Windchill:Wind:
Aussen-T/F 2176 02-05-2019 13:15:00 13.9 C 8.39 g/m*3 13.9 C 8.1 km/h
2177 02-05-2019 13:20:00 14.1 C 8.5 g/m*3 14.1 C 6.4 km/h
2178 02-05-2019 13:25:00 14.2 C 8.43 g/m*3 14.2 C 6.4 km/h
2179 02-05-2019 13:30:00 14.3 C 8.48 g/m*3 14.3 C 11.3 km/h
2180 02-05-2019 13:35:00 14.3 C 8.35 g/m*3 14.3 C 8.1 km/h
2181 02-05-2019 13:40:00 14.3 C 8.48 g/m*3 14.3 C 8.1 km/h
2182 02-05-2019 13:45:00 14.5 C 8.46 g/m*3 14.5 C 8.1 km/h
2183 02-05-2019 13:50:00 14.6 C 8.51 g/m*3 14.6 C 6.4 km/h
2184 02-05-2019 13:55:00 14.8 C 8.74 g/m*3 14.8 C 3.2 km/h
2185 02-05-2019 14:00:00 14.9 C 8.67 g/m*3 14.9 C 4.8 km/h
2186 02-05-2019 14:05:00 15.2 C 8.7 g/m*3 15.2 C 6.4 km/h
2187 02-05-2019 14:10:00 15.3 C 8.62 g/m*3 15.3 C 4.8 km/h
2188 02-05-2019 14:15:00 15.4 C 8.54 g/m*3 15.4 C 6.4 km/h
2189 02-05-2019 14:20:00 15.6 C 8.64 g/m*3 15.6 C 8.1 km/h
2190 02-05-2019 14:25:00 15.7 C 8.7 g/m*3 15.7 C 6.4 km/h
2191 02-05-2019 14:30:00 15.8 C 8.75 g/m*3 15.8 C 6.4 km/h
2192 02-05-2019 14:35:00 16 C 8.99 g/m*3 16 C 3.2 km/h
2193 02-05-2019 14:40:00 16.3 C 9.16 g/m*3 16.3 C 9.7 km/h
2194 02-05-2019 14:45:00 16.6 C 9.04 g/m*3 16.6 C 12.9 km/h
2195 02-05-2019 14:50:00 16.7 C 8.81 g/m*3 16.7 C 8.1 km/h
2196 02-05-2019 14:55:00 16.7 C 9.1 g/m*3 16.7 C 6.4 km/h
2197 02-05-2019 15:00:00 16.7 C 8.81 g/m*3 16.7 C 11.3 km/h
2198 02-05-2019 15:05:00 16.7 C 8.81 g/m*3 16.7 C 8.1 km/h
2199 02-05-2019 15:10:00 16.7 C 9.1 g/m*3 16.7 C 6.4 km/h
2200 02-05-2019 15:15:00 16.6 C 8.76 g/m*3 16.6 C 12.9 km/h
Sensor: Nr:Datum:Temp:Abs-Feuchte:Windchill:Wind:
Aussen-T/F 2201 02-05-2019 15:20:00 16.4 C 8.51 g/m*3 16.4 C 8.1 km/h
2202 02-05-2019 15:25:00 16.3 C 8.6 g/m*3 16.3 C 11.3 km/h
2203 02-05-2019 15:30:00 16.4 C 8.65 g/m*3 16.4 C 8.1 km/h
2204 02-05-2019 15:35:00 16.4 C 8.51 g/m*3 16.4 C 9.7 km/h
2205 02-05-2019 15:40:00 16.7 C 8.53 g/m*3 16.7 C 8.1 km/h
2206 02-05-2019 15:45:00 16.8 C 8.58 g/m*3 16.8 C 11.3 km/h
2207 02-05-2019 15:50:00 16.7 C 8.38 g/m*3 16.7 C 12.9 km/h
2208 02-05-2019 15:55:00 16.6 C 8.19 g/m*3 16.6 C 8.1 km/h
2209 02-05-2019 16:00:00 16.5 C 8.28 g/m*3 16.5 C 8.1 km/h
2210 02-05-2019 16:05:00 16.6 C 8.48 g/m*3 16.6 C 6.4 km/h
2211 02-05-2019 16:10:00 16.7 C 8.53 g/m*3 16.7 C 6.4 km/h
2212 02-05-2019 16:15:00 16.8 C 8.29 g/m*3 16.8 C 8.1 km/h
2213 02-05-2019 16:20:00 16.9 C 8.49 g/m*3 16.9 C 4.8 km/h
2214 02-05-2019 16:25:00 17.1 C 8.59 g/m*3 17.1 C 4.8 km/h
2215 02-05-2019 16:30:00 17.4 C 8.74 g/m*3 17.4 C 8.1 km/h
2216 02-05-2019 16:35:00 18.1 C 8.96 g/m*3 18.1 C 9.7 km/h
2217 02-05-2019 16:40:00 18.3 C 8.6 g/m*3 18.3 C 17.7 km/h
2218 02-05-2019 16:45:00 18 C 8.91 g/m*3 18 C 9.7 km/h
2219 02-05-2019 16:50:00 17.2 C 8.05 g/m*3 17.2 C 12.9 km/h
2220 02-05-2019 16:55:00 17.1 C 8.15 g/m*3 17.1 C 9.7 km/h
2221 02-05-2019 17:00:00 17.4 C 8.15 g/m*3 17.4 C 8.1 km/h
2222 02-05-2019 17:05:00 17.6 C 8.1 g/m*3 17.6 C 8.1 km/h
2223 02-05-2019 17:10:00 17.6 C 7.8 g/m*3 17.6 C 9.7 km/h
2224 02-05-2019 17:15:00 17.4 C 7.71 g/m*3 17.4 C 9.7 km/h
2225 02-05-2019 17:20:00 17.3 C 7.96 g/m*3 17.3 C 8.1 km/h
Sensor: Nr:Datum:Temp:Abs-Feuchte:Windchill:Wind:
Aussen-T/F 2226 02-05-2019 17:25:00 17.6 C 8.1 g/m*3 17.6 C 11.3 km/h
2227 02-05-2019 17:30:00 17.7 C 7.85 g/m*3 17.7 C 9.7 km/h
2228 02-05-2019 17:35:00 17.6 C 7.65 g/m*3 17.6 C 6.4 km/h
2229 02-05-2019 17:40:00 17.7 C 7.69 g/m*3 17.7 C 6.4 km/h
2230 02-05-2019 17:45:00 18.1 C 7.73 g/m*3 18.1 C 9.7 km/h
2231 02-05-2019 17:50:00 18.4 C 7.39 g/m*3 18.4 C 12.9 km/h
2232 02-05-2019 17:55:00 18.6 C 7.32 g/m*3 18.6 C 11.3 km/h
2233 02-05-2019 18:00:00 18.4 C 7.39 g/m*3 18.4 C 9.7 km/h
2234 02-05-2019 18:05:00 18.5 C 7.28 g/m*3 18.5 C 9.7 km/h
2235 02-05-2019 18:10:00 18.4 C 7.24 g/m*3 18.4 C 12.9 km/h
2236 02-05-2019 18:15:00 18.4 C 7.24 g/m*3 18.4 C 11.3 km/h
2237 02-05-2019 18:20:00 18.3 C 7.35 g/m*3 18.3 C 8.1 km/h
2238 02-05-2019 18:25:00 18.1 C 7.11 g/m*3 18.1 C 11.3 km/h
2239 02-05-2019 18:30:00 17.8 C 7.13 g/m*3 17.8 C 9.7 km/h
2240 02-05-2019 18:35:00 17.7 C 7.09 g/m*3 17.7 C 8.1 km/h
2241 02-05-2019 18:40:00 17.6 C 7.2 g/m*3 17.6 C 8.1 km/h
2242 02-05-2019 18:45:00 17.5 C 7.16 g/m*3 17.5 C 9.7 km/h
2243 02-05-2019 18:50:00 17.5 C 7.01 g/m*3 17.5 C 6.4 km/h
2244 02-05-2019 18:55:00 17.4 C 6.97 g/m*3 17.4 C 8.1 km/h
2245 02-05-2019 19:00:00 17.3 C 7.07 g/m*3 17.3 C 9.7 km/h
2246 02-05-2019 19:05:00 17 C 6.95 g/m*3 17 C 12.9 km/h
2247 02-05-2019 19:10:00 16.7 C 7.11 g/m*3 16.7 C 8.1 km/h
2248 02-05-2019 19:15:00 16.4 C 7.82 g/m*3 16.4 C 16.1 km/h
2249 02-05-2019 19:20:00 15.9 C 8.13 g/m*3 15.9 C 16.1 km/h
2250 02-05-2019 19:25:00 15.4 C 8.28 g/m*3 15.4 C 17.7 km/h
Sensor: Nr:Datum:Temp:Abs-Feuchte:Windchill:Wind:
Aussen-T/F 2251 02-05-2019 19:30:00 15.1 C 8.39 g/m*3 15.1 C 9.7 km/h
2252 02-05-2019 19:35:00 14.9 C 8.41 g/m*3 14.9 C 9.7 km/h
2253 02-05-2019 19:40:00 14.7 C 8.31 g/m*3 14.7 C 12.9 km/h
2254 02-05-2019 19:45:00 14.6 C 8.26 g/m*3 14.6 C 14.5 km/h
2255 02-05-2019 19:50:00 14.4 C 8.28 g/m*3 14.4 C 14.5 km/h
2256 02-05-2019 19:55:00 14.1 C 8.25 g/m*3 14.1 C 12.9 km/h
2257 02-05-2019 20:00:00 13.8 C 8.22 g/m*3 13.8 C 12.9 km/h
2258 02-05-2019 20:05:00 13.5 C 8.3 g/m*3 13.5 C 16.1 km/h
2259 02-05-2019 20:10:00 13.3 C 8.55 g/m*3 13.3 C 9.7 km/h
2260 02-05-2019 20:15:00 13.1 C 8.56 g/m*3 13.1 C 6.4 km/h
2261 02-05-2019 20:20:00 12.9 C 8.57 g/m*3 12.9 C 12.9 km/h
2262 02-05-2019 20:25:00 12.7 C 8.57 g/m*3 12.7 C 6.4 km/h
2263 02-05-2019 20:30:00 12.6 C 8.63 g/m*3 12.6 C 3.2 km/h
2264 02-05-2019 20:35:00 12.5 C 8.69 g/m*3 12.5 C 4.8 km/h
2265 02-05-2019 20:40:00 12.4 C 8.74 g/m*3 12.4 C 6.4 km/h
2266 02-05-2019 20:45:00 12.3 C 8.8 g/m*3 12.3 C 4.8 km/h
2267 02-05-2019 20:50:00 12.2 C 8.74 g/m*3 12.2 C 3.2 km/h
2268 02-05-2019 20:55:00 12.1 C 8.79 g/m*3 12.1 C 11.3 km/h
2269 02-05-2019 21:00:00 12 C 8.85 g/m*3 12 C 0 km/h
2270 02-05-2019 21:05:00 11.9 C 9 g/m*3 11.9 C 0 km/h
2271 02-05-2019 21:10:00 11.8 C 9.16 g/m*3 11.8 C 0 km/h
2272 02-05-2019 21:15:00 11.7 C 9.2 g/m*3 11.7 C 0 km/h
2273 02-05-2019 21:20:00 11.6 C 9.15 g/m*3 11.6 C 0 km/h
2274 02-05-2019 21:25:00 11.4 C 9.14 g/m*3 11.4 C 0 km/h
2275 02-05-2019 21:30:00 11.3 C 9.08 g/m*3 11.3 C 1.6 km/h
Sensor: Nr:Datum:Temp:Abs-Feuchte:Windchill:Wind:
Aussen-T/F 2276 02-05-2019 21:35:00 11.2 C 9.12 g/m*3 11.2 C 1.6 km/h
2277 02-05-2019 21:40:00 11.2 C 9.12 g/m*3 11.2 C 0 km/h
2278 02-05-2019 21:45:00 11.1 C 9.17 g/m*3 11.1 C 1.6 km/h
2279 02-05-2019 21:50:00 11.1 C 9.17 g/m*3 11.1 C 0 km/h
2280 02-05-2019 21:55:00 11 C 9.11 g/m*3 11 C 0 km/h
2281 02-05-2019 22:00:00 10.9 C 9.05 g/m*3 10.9 C 3.2 km/h
2282 02-05-2019 22:05:00 10.8 C 8.9 g/m*3 10.8 C 3.2 km/h
2283 02-05-2019 22:10:00 10.8 C 8.99 g/m*3 10.8 C 3.2 km/h
2284 02-05-2019 22:15:00 10.8 C 8.99 g/m*3 10.8 C 4.8 km/h
2285 02-05-2019 22:20:00 10.8 C 8.99 g/m*3 10.8 C 0 km/h
2286 02-05-2019 22:25:00 10.8 C 8.99 g/m*3 10.8 C 4.8 km/h
2287 02-05-2019 22:30:00 10.7 C 8.94 g/m*3 10.7 C 0 km/h
2288 02-05-2019 22:35:00 10.7 C 8.94 g/m*3 10.7 C 1.6 km/h
2289 02-05-2019 22:40:00 10.7 C 8.94 g/m*3 10.7 C 0 km/h
2290 02-05-2019 22:45:00 10.7 C 8.94 g/m*3 10.7 C 4.8 km/h
2291 02-05-2019 22:50:00 10.7 C 8.94 g/m*3 10.7 C 4.8 km/h
2292 02-05-2019 22:55:00 10.7 C 8.94 g/m*3 10.7 C 4.8 km/h
2293 02-05-2019 23:00:00 10.7 C 8.94 g/m*3 10.7 C 1.6 km/h
2294 02-05-2019 23:05:00 10.7 C 8.94 g/m*3 10.7 C 0 km/h
2295 02-05-2019 23:10:00 10.7 C 8.94 g/m*3 10.7 C 3.2 km/h
2296 02-05-2019 23:15:00 10.7 C 8.94 g/m*3 10.7 C 0 km/h
2297 02-05-2019 23:20:00 10.7 C 9.04 g/m*3 10.7 C 0 km/h
2298 02-05-2019 23:25:00 10.7 C 9.04 g/m*3 10.7 C 0 km/h
2299 02-05-2019 23:30:00 10.7 C 9.04 g/m*3 10.7 C 0 km/h
2300 02-05-2019 23:35:00 10.7 C 9.04 g/m*3 10.7 C 0 km/h
Sensor: Nr:Datum:Temp:Abs-Feuchte:Windchill:Wind:
Aussen-T/F 2301 02-05-2019 23:40:00 10.7 C 9.04 g/m*3 10.7 C 0 km/h
2302 02-05-2019 23:45:00 10.7 C 9.04 g/m*3 10.7 C 1.6 km/h
2303 02-05-2019 23:50:00 10.7 C 9.04 g/m*3 10.7 C 0 km/h
2304 02-05-2019 23:55:00 10.7 C 9.13 g/m*3 10.7 C 0 km/h
2305 03-05-2019 00:00:00 10.6 C 9.08 g/m*3 10.6 C 0 km/h
2306 03-05-2019 00:05:00 10.6 C 9.08 g/m*3 10.6 C 4.8 km/h
2307 03-05-2019 00:10:00 10.6 C 9.08 g/m*3 10.6 C 0 km/h
2308 03-05-2019 00:15:00 10.6 C 9.08 g/m*3 10.6 C 0 km/h
2309 03-05-2019 00:20:00 10.6 C 9.08 g/m*3 10.6 C 0 km/h
2310 03-05-2019 00:25:00 10.6 C 9.08 g/m*3 10.6 C 1.6 km/h
2311 03-05-2019 00:30:00 10.6 C 9.08 g/m*3 10.6 C 0 km/h
2312 03-05-2019 00:35:00 10.6 C 8.98 g/m*3 10.06 C 6.4 km/h
2313 03-05-2019 00:40:00 10.6 C 8.98 g/m*3 10.06 C 6.4 km/h
2314 03-05-2019 00:45:00 10.6 C 8.88 g/m*3 10.06 C 6.4 km/h
2315 03-05-2019 00:50:00 10.6 C 8.88 g/m*3 10.6 C 4.8 km/h
2316 03-05-2019 00:55:00 10.6 C 8.88 g/m*3 10.6 C 4.8 km/h
2317 03-05-2019 01:00:00 10.6 C 8.78 g/m*3 10.6 C 3.2 km/h
2318 03-05-2019 01:05:00 10.7 C 8.84 g/m*3 9.81 C 8.1 km/h
2319 03-05-2019 01:10:00 10.6 C 8.69 g/m*3 9.69 C 8.1 km/h
2320 03-05-2019 01:15:00 10.6 C 8.59 g/m*3 8.71 C 14.5 km/h
2321 03-05-2019 01:20:00 10.6 C 8.49 g/m*3 8.71 C 14.5 km/h
2322 03-05-2019 01:25:00 10.6 C 8.49 g/m*3 9.69 C 8.1 km/h
2323 03-05-2019 01:30:00 10.6 C 8.39 g/m*3 9.4 C 9.7 km/h
2324 03-05-2019 01:35:00 10.5 C 8.34 g/m*3 9.57 C 8.1 km/h
2325 03-05-2019 01:40:00 10.4 C 8.19 g/m*3 9.46 C 8.1 km/h
Sensor: Nr:Datum:Temp:Abs-Feuchte:Windchill:Wind:
Aussen-T/F 2326 03-05-2019 01:45:00 10.4 C 8.19 g/m*3 10.4 C 3.2 km/h
2327 03-05-2019 01:50:00 10.3 C 8.04 g/m*3 8.78 C 11.3 km/h
2328 03-05-2019 01:55:00 10.3 C 7.95 g/m*3 9.04 C 9.7 km/h
2329 03-05-2019 02:00:00 10.3 C 7.95 g/m*3 9.72 C 6.4 km/h
2330 03-05-2019 02:05:00 10.2 C 7.9 g/m*3 9.22 C 8.1 km/h
2331 03-05-2019 02:10:00 10.1 C 7.85 g/m*3 8.54 C 11.3 km/h
2332 03-05-2019 02:15:00 9.9 C 7.75 g/m*3 8.87 C 8.1 km/h
2333 03-05-2019 02:20:00 9.8 C 7.79 g/m*3 8.75 C 8.1 km/h
2334 03-05-2019 02:25:00 9.8 C 7.79 g/m*3 8.75 C 8.1 km/h
2335 03-05-2019 02:30:00 9.8 C 7.89 g/m*3 9.8 C 1.6 km/h
2336 03-05-2019 02:35:00 9.7 C 7.84 g/m*3 9.7 C 1.6 km/h
2337 03-05-2019 02:40:00 9.7 C 7.84 g/m*3 9.7 C 0 km/h
2338 03-05-2019 02:45:00 9.7 C 7.84 g/m*3 9.7 C 1.6 km/h
2339 03-05-2019 02:50:00 9.6 C 7.79 g/m*3 7.48 C 14.5 km/h
2340 03-05-2019 02:55:00 9.6 C 7.79 g/m*3 9.6 C 1.6 km/h
2341 03-05-2019 03:00:00 9.5 C 7.74 g/m*3 9.5 C 4.8 km/h
2342 03-05-2019 03:05:00 9.5 C 7.74 g/m*3 9.5 C 4.8 km/h
2343 03-05-2019 03:10:00 9.4 C 7.69 g/m*3 9.4 C 3.2 km/h
2344 03-05-2019 03:15:00 9.4 C 7.69 g/m*3 7.97 C 9.7 km/h
2345 03-05-2019 03:20:00 9.4 C 7.78 g/m*3 9.4 C 0 km/h
2346 03-05-2019 03:25:00 9.4 C 7.78 g/m*3 9.4 C 1.6 km/h
2347 03-05-2019 03:30:00 9.4 C 7.78 g/m*3 9.4 C 1.6 km/h
2348 03-05-2019 03:35:00 9.3 C 7.73 g/m*3 9.3 C 4.8 km/h
2349 03-05-2019 03:40:00 9.3 C 7.73 g/m*3 9.3 C 1.6 km/h
2350 03-05-2019 03:45:00 9.3 C 7.73 g/m*3 9.3 C 0 km/h
Sensor: Nr:Datum:Temp:Abs-Feuchte:Windchill:Wind:
Aussen-T/F 2351 03-05-2019 03:50:00 9.3 C 7.73 g/m*3 9.3 C 0 km/h
2352 03-05-2019 03:55:00 9.3 C 7.82 g/m*3 9.3 C 0 km/h
2353 03-05-2019 04:00:00 9.3 C 7.82 g/m*3 9.3 C 0 km/h
2354 03-05-2019 04:05:00 9.2 C 7.77 g/m*3 9.2 C 0 km/h
2355 03-05-2019 04:10:00 9.2 C 7.77 g/m*3 9.2 C 0 km/h
2356 03-05-2019 04:15:00 9.2 C 7.77 g/m*3 9.2 C 0 km/h
2357 03-05-2019 04:20:00 9.2 C 7.86 g/m*3 9.2 C 0 km/h
2358 03-05-2019 04:25:00 9.2 C 7.86 g/m*3 9.2 C 0 km/h
2359 03-05-2019 04:30:00 9.1 C 7.81 g/m*3 9.1 C 0 km/h
2360 03-05-2019 04:35:00 9.1 C 7.81 g/m*3 9.1 C 0 km/h
2361 03-05-2019 04:40:00 9.1 C 7.81 g/m*3 9.1 C 3.2 km/h
2362 03-05-2019 04:45:00 9.1 C 7.81 g/m*3 9.1 C 0 km/h
2363 03-05-2019 04:50:00 9.1 C 7.81 g/m*3 9.1 C 3.2 km/h
2364 03-05-2019 04:55:00 9.2 C 7.86 g/m*3 9.2 C 0 km/h
2365 03-05-2019 05:00:00 9.2 C 7.86 g/m*3 9.2 C 3.2 km/h
2366 03-05-2019 05:05:00 9.2 C 7.86 g/m*3 9.2 C 1.6 km/h
2367 03-05-2019 05:10:00 9.3 C 7.91 g/m*3 8.56 C 6.4 km/h
2368 03-05-2019 05:15:00 9.3 C 7.91 g/m*3 8.56 C 6.4 km/h
2369 03-05-2019 05:20:00 9.3 C 7.91 g/m*3 8.56 C 6.4 km/h
2370 03-05-2019 05:25:00 9.3 C 7.91 g/m*3 9.3 C 0 km/h
2371 03-05-2019 05:30:00 9.3 C 7.91 g/m*3 9.3 C 1.6 km/h
2372 03-05-2019 05:35:00 9.3 C 7.91 g/m*3 9.3 C 3.2 km/h
2373 03-05-2019 05:40:00 9.3 C 7.91 g/m*3 9.3 C 1.6 km/h
2374 03-05-2019 05:45:00 9.3 C 7.91 g/m*3 9.3 C 3.2 km/h
2375 03-05-2019 05:50:00 9.3 C 7.91 g/m*3 9.3 C 4.8 km/h
Sensor: Nr:Datum:Temp:Abs-Feuchte:Windchill:Wind:
Aussen-T/F 2376 03-05-2019 05:55:00 9.3 C 7.91 g/m*3 9.3 C 3.2 km/h
2377 03-05-2019 06:00:00 9.3 C 7.91 g/m*3 9.3 C 0 km/h
2378 03-05-2019 06:05:00 9.3 C 7.91 g/m*3 8.56 C 6.4 km/h
2379 03-05-2019 06:10:00 9.3 C 7.91 g/m*3 9.3 C 3.2 km/h
2380 03-05-2019 06:15:00 9.2 C 7.86 g/m*3 9.2 C 4.8 km/h
2381 03-05-2019 06:20:00 9.2 C 7.86 g/m*3 9.2 C 1.6 km/h
2382 03-05-2019 06:25:00 9.2 C 7.86 g/m*3 9.2 C 3.2 km/h
2383 03-05-2019 06:30:00 9.2 C 7.77 g/m*3 8.45 C 6.4 km/h
2384 03-05-2019 06:35:00 9.2 C 7.77 g/m*3 8.05 C 8.1 km/h
2385 03-05-2019 06:40:00 9.2 C 7.77 g/m*3 9.2 C 1.6 km/h
2386 03-05-2019 06:45:00 9.3 C 7.91 g/m*3 9.3 C 1.6 km/h
2387 03-05-2019 06:50:00 9.3 C 7.91 g/m*3 9.3 C 1.6 km/h
2388 03-05-2019 06:55:00 9.3 C 7.91 g/m*3 9.3 C 3.2 km/h
2389 03-05-2019 07:00:00 9.2 C 7.86 g/m*3 9.2 C 1.6 km/h
2390 03-05-2019 07:05:00 9.2 C 7.77 g/m*3 9.2 C 4.8 km/h
2391 03-05-2019 07:10:00 9.2 C 7.77 g/m*3 9.2 C 4.8 km/h
2392 03-05-2019 07:15:00 9.2 C 7.68 g/m*3 8.45 C 6.4 km/h
2393 03-05-2019 07:20:00 9.2 C 7.68 g/m*3 9.2 C 4.8 km/h
2394 03-05-2019 07:25:00 9.3 C 7.73 g/m*3 8.16 C 8.1 km/h
2395 03-05-2019 07:30:00 9.2 C 7.59 g/m*3 8.05 C 8.1 km/h
2396 03-05-2019 07:35:00 9.3 C 7.64 g/m*3 9.3 C 0 km/h
2397 03-05-2019 07:40:00 9.3 C 7.64 g/m*3 7.85 C 9.7 km/h
2398 03-05-2019 07:45:00 9.3 C 7.64 g/m*3 8.16 C 8.1 km/h
2399 03-05-2019 07:50:00 9.3 C 7.55 g/m*3 8.56 C 6.4 km/h
2400 03-05-2019 07:55:00 9.3 C 7.55 g/m*3 9.3 C 4.8 km/h
Sensor: Nr:Datum:Temp:Abs-Feuchte:Windchill:Wind:
Aussen-T/F 2401 03-05-2019 08:00:00 9.4 C 7.69 g/m*3 9.4 C 0 km/h
2402 03-05-2019 08:05:00 9.5 C 7.74 g/m*3 8.79 C 6.4 km/h
2403 03-05-2019 08:10:00 9.6 C 7.69 g/m*3 9.6 C 1.6 km/h
2404 03-05-2019 08:15:00 9.7 C 7.74 g/m*3 8.63 C 8.1 km/h
2405 03-05-2019 08:20:00 9.8 C 7.79 g/m*3 9.14 C 6.4 km/h
2406 03-05-2019 08:25:00 9.8 C 7.79 g/m*3 9.14 C 6.4 km/h
2407 03-05-2019 08:30:00 9.7 C 7.65 g/m*3 8.63 C 8.1 km/h
2408 03-05-2019 08:35:00 9.7 C 7.65 g/m*3 9.02 C 6.4 km/h
2409 03-05-2019 08:40:00 9.7 C 7.56 g/m*3 8.33 C 9.7 km/h
2410 03-05-2019 08:45:00 9.6 C 7.6 g/m*3 9.6 C 1.6 km/h
2411 03-05-2019 08:50:00 9.7 C 7.65 g/m*3 9.02 C 6.4 km/h
2412 03-05-2019 08:55:00 9.7 C 7.56 g/m*3 8.63 C 8.1 km/h
2413 03-05-2019 09:00:00 9.7 C 7.56 g/m*3 8.63 C 8.1 km/h
2414 03-05-2019 09:05:00 9.8 C 7.61 g/m*3 7.73 C 14.5 km/h
2415 03-05-2019 09:10:00 9.9 C 7.56 g/m*3 8.3 C 11.3 km/h
2416 03-05-2019 09:15:00 10 C 7.52 g/m*3 8.68 C 9.7 km/h
2417 03-05-2019 09:20:00 10.1 C 7.56 g/m*3 9.1 C 8.1 km/h
2418 03-05-2019 09:25:00 10.1 C 7.56 g/m*3 8.31 C 12.9 km/h
2419 03-05-2019 09:30:00 10.1 C 7.47 g/m*3 9.1 C 8.1 km/h
2420 03-05-2019 09:35:00 10.1 C 7.47 g/m*3 9.1 C 8.1 km/h
2421 03-05-2019 09:40:00 10.2 C 7.52 g/m*3 10.2 C 4.8 km/h
2422 03-05-2019 09:45:00 10.3 C 7.47 g/m*3 9.04 C 9.7 km/h
2423 03-05-2019 09:50:00 10.4 C 7.61 g/m*3 9.46 C 8.1 km/h
2424 03-05-2019 09:55:00 10.6 C 7.32 g/m*3 9.4 C 9.7 km/h
2425 03-05-2019 10:00:00 10.7 C 7.27 g/m*3 9.04 C 12.9 km/h
Sensor: Nr:Datum:Temp:Abs-Feuchte:Windchill:Wind:
Aussen-T/F 2426 03-05-2019 10:05:00 10.7 C 7.17 g/m*3 9.04 C 12.9 km/h
2427 03-05-2019 10:10:00 10.7 C 7.37 g/m*3 9.52 C 9.7 km/h
2428 03-05-2019 10:15:00 10.7 C 7.37 g/m*3 9.26 C 11.3 km/h
2429 03-05-2019 10:20:00 10.7 C 7.46 g/m*3 9.52 C 9.7 km/h
2430 03-05-2019 10:25:00 10.7 C 7.27 g/m*3 9.26 C 11.3 km/h
2431 03-05-2019 10:30:00 10.8 C 7.51 g/m*3 10.8 C 4.8 km/h
2432 03-05-2019 10:35:00 10.9 C 7.36 g/m*3 9.08 C 14.5 km/h
2433 03-05-2019 10:40:00 10.8 C 7.12 g/m*3 9.38 C 11.3 km/h
2434 03-05-2019 10:45:00 10.8 C 7.22 g/m*3 9.38 C 11.3 km/h
2435 03-05-2019 10:50:00 10.9 C 7.06 g/m*3 9.76 C 9.7 km/h
2436 03-05-2019 10:55:00 11 C 7.21 g/m*3 9.21 C 14.5 km/h
2437 03-05-2019 11:00:00 11.1 C 7.05 g/m*3 11.1 C 14.5 km/h
2438 03-05-2019 11:05:00 11.1 C 6.95 g/m*3 11.1 C 12.9 km/h
2439 03-05-2019 11:10:00 11.2 C 6.99 g/m*3 11.2 C 8.1 km/h
2440 03-05-2019 11:15:00 11.3 C 7.14 g/m*3 11.3 C 9.7 km/h
2441 03-05-2019 11:20:00 11.4 C 7.08 g/m*3 11.4 C 6.4 km/h
2442 03-05-2019 11:25:00 11.4 C 6.98 g/m*3 11.4 C 8.1 km/h
2443 03-05-2019 11:30:00 11.3 C 6.94 g/m*3 11.3 C 8.1 km/h
2444 03-05-2019 11:35:00 11.1 C 6.95 g/m*3 11.1 C 12.9 km/h
2445 03-05-2019 11:40:00 10.9 C 6.86 g/m*3 9.51 C 11.3 km/h
2446 03-05-2019 11:45:00 10.9 C 6.96 g/m*3 9.51 C 11.3 km/h
2447 03-05-2019 11:50:00 11.1 C 6.95 g/m*3 11.1 C 11.3 km/h
2448 03-05-2019 11:55:00 11.2 C 6.99 g/m*3 11.2 C 12.9 km/h
2449 03-05-2019 12:00:00 11.1 C 6.95 g/m*3 11.1 C 8.1 km/h
2450 03-05-2019 12:05:00 11 C 6.91 g/m*3 9.88 C 9.7 km/h
Sensor: Nr:Datum:Temp:Abs-Feuchte:Windchill:Wind:
Aussen-T/F 2451 03-05-2019 12:10:00 10.9 C 6.96 g/m*3 10.41 C 6.4 km/h
2452 03-05-2019 12:15:00 10.9 C 6.86 g/m*3 10.04 C 8.1 km/h
2453 03-05-2019 12:20:00 10.9 C 6.86 g/m*3 9.76 C 9.7 km/h
2454 03-05-2019 12:25:00 11.1 C 7.05 g/m*3 11.1 C 4.8 km/h
2455 03-05-2019 12:30:00 11.3 C 7.24 g/m*3 11.3 C 9.7 km/h
2456 03-05-2019 12:35:00 11.6 C 7.38 g/m*3 11.6 C 8.1 km/h
2457 03-05-2019 12:40:00 11.8 C 7.05 g/m*3 11.8 C 9.7 km/h
2458 03-05-2019 12:45:00 11.8 C 7.16 g/m*3 11.8 C 9.7 km/h
2459 03-05-2019 12:50:00 11.9 C 7.1 g/m*3 11.9 C 11.3 km/h
2460 03-05-2019 12:55:00 11.8 C 7.05 g/m*3 11.8 C 8.1 km/h
2461 03-05-2019 13:00:00 11.8 C 7.05 g/m*3 11.8 C 9.7 km/h
2462 03-05-2019 13:05:00 11.8 C 6.95 g/m*3 11.8 C 9.7 km/h
2463 03-05-2019 13:10:00 11.8 C 6.95 g/m*3 11.8 C 4.8 km/h
2464 03-05-2019 13:15:00 11.8 C 6.95 g/m*3 11.8 C 9.7 km/h
2465 03-05-2019 13:20:00 11.9 C 6.88 g/m*3 11.9 C 8.1 km/h
2466 03-05-2019 13:25:00 12.1 C 7.08 g/m*3 12.1 C 9.7 km/h
2467 03-05-2019 13:30:00 12.2 C 7.12 g/m*3 12.2 C 14.5 km/h
2468 03-05-2019 13:35:00 12.3 C 7.17 g/m*3 12.3 C 6.4 km/h
2469 03-05-2019 13:40:00 12.4 C 6.99 g/m*3 12.4 C 12.9 km/h
2470 03-05-2019 13:45:00 12.3 C 6.95 g/m*3 12.3 C 8.1 km/h
2471 03-05-2019 13:50:00 12.2 C 6.91 g/m*3 12.2 C 14.5 km/h
2472 03-05-2019 13:55:00 12.3 C 7.28 g/m*3 12.3 C 11.3 km/h
2473 03-05-2019 14:00:00 12.6 C 7.19 g/m*3 12.6 C 8.1 km/h
2474 03-05-2019 14:05:00 12.8 C 6.94 g/m*3 12.8 C 12.9 km/h
2475 03-05-2019 14:10:00 12.9 C 6.88 g/m*3 12.9 C 12.9 km/h
Sensor: Nr:Datum:Temp:Abs-Feuchte:Windchill:Wind:
Aussen-T/F 2476 03-05-2019 14:15:00 12.9 C 6.76 g/m*3 12.9 C 12.9 km/h
2477 03-05-2019 14:20:00 12.7 C 6.79 g/m*3 12.7 C 12.9 km/h
2478 03-05-2019 14:25:00 12.7 C 6.57 g/m*3 12.7 C 14.5 km/h
2479 03-05-2019 14:30:00 12.7 C 6.68 g/m*3 12.7 C 14.5 km/h
2480 03-05-2019 14:35:00 12.8 C 6.72 g/m*3 12.8 C 12.9 km/h
2481 03-05-2019 14:40:00 13.1 C 6.73 g/m*3 13.1 C 16.1 km/h
2482 03-05-2019 14:45:00 13.3 C 6.47 g/m*3 13.3 C 22.5 km/h
2483 03-05-2019 14:50:00 13.7 C 6.63 g/m*3 13.7 C 17.7 km/h
2484 03-05-2019 14:55:00 13.6 C 6.47 g/m*3 13.6 C 20.9 km/h
2485 03-05-2019 15:00:00 13.3 C 6.35 g/m*3 13.3 C 12.9 km/h
2486 03-05-2019 15:05:00 13.3 C 6.47 g/m*3 13.3 C 16.1 km/h
2487 03-05-2019 15:10:00 13.7 C 6.39 g/m*3 13.7 C 17.7 km/h
2488 03-05-2019 15:15:00 13.9 C 6.23 g/m*3 13.9 C 16.1 km/h
2489 03-05-2019 15:20:00 14.3 C 6.51 g/m*3 14.3 C 22.5 km/h
2490 03-05-2019 15:25:00 14.3 C 6.51 g/m*3 14.3 C 20.9 km/h
2491 03-05-2019 15:30:00 14.3 C 6.51 g/m*3 14.3 C 9.7 km/h
2492 03-05-2019 15:35:00 14.4 C 6.68 g/m*3 14.4 C 11.3 km/h
2493 03-05-2019 15:40:00 14.9 C 6.75 g/m*3 14.9 C 11.3 km/h
2494 03-05-2019 15:45:00 15.2 C 6.75 g/m*3 15.2 C 17.7 km/h
2495 03-05-2019 15:50:00 15.4 C 6.57 g/m*3 15.4 C 11.3 km/h
2496 03-05-2019 15:55:00 15.6 C 6.65 g/m*3 15.6 C 12.9 km/h
2497 03-05-2019 16:00:00 15.6 C 6.52 g/m*3 15.6 C 16.1 km/h
2498 03-05-2019 16:05:00 15.3 C 6.53 g/m*3 15.3 C 12.9 km/h
2499 03-05-2019 16:10:00 15.4 C 6.57 g/m*3 15.4 C 14.5 km/h
2500 03-05-2019 16:15:00 15.4 C 6.44 g/m*3 15.4 C 17.7 km/h
Sensor: Nr:Datum:Temp:Abs-Feuchte:Windchill:Wind:
Aussen-T/F 2501 03-05-2019 16:20:00 15.3 C 6.53 g/m*3 15.3 C 12.9 km/h
2502 03-05-2019 16:25:00 15 C 6.54 g/m*3 15 C 16.1 km/h
2503 03-05-2019 16:30:00 14.7 C 6.42 g/m*3 14.7 C 14.5 km/h
2504 03-05-2019 16:35:00 14.3 C 6.39 g/m*3 14.3 C 11.3 km/h
2505 03-05-2019 16:40:00 14.1 C 6.43 g/m*3 14.1 C 11.3 km/h
2506 03-05-2019 16:45:00 14.4 C 6.68 g/m*3 14.4 C 8.1 km/h
2507 03-05-2019 16:50:00 15.2 C 6.88 g/m*3 15.2 C 14.5 km/h
2508 03-05-2019 16:55:00 15.3 C 6.53 g/m*3 15.3 C 8.1 km/h
2509 03-05-2019 17:00:00 15.2 C 6.62 g/m*3 15.2 C 11.3 km/h
2510 03-05-2019 17:05:00 15.1 C 6.84 g/m*3 15.1 C 12.9 km/h
2511 03-05-2019 17:10:00 14.8 C 6.33 g/m*3 14.8 C 16.1 km/h
2512 03-05-2019 17:15:00 14.5 C 6.47 g/m*3 14.5 C 17.7 km/h
2513 03-05-2019 17:20:00 14.2 C 6.35 g/m*3 14.2 C 14.5 km/h
2514 03-05-2019 17:25:00 14 C 6.51 g/m*3 14 C 12.9 km/h
2515 03-05-2019 17:30:00 13.8 C 6.67 g/m*3 13.8 C 14.5 km/h
2516 03-05-2019 17:35:00 13.8 C 6.67 g/m*3 13.8 C 12.9 km/h
2517 03-05-2019 17:40:00 13.7 C 6.63 g/m*3 13.7 C 16.1 km/h
2518 03-05-2019 17:45:00 13.5 C 6.55 g/m*3 13.5 C 9.7 km/h
2519 03-05-2019 17:50:00 13.5 C 6.55 g/m*3 13.5 C 11.3 km/h
2520 03-05-2019 17:55:00 13.4 C 6.39 g/m*3 13.4 C 12.9 km/h
2521 03-05-2019 18:00:00 13.3 C 6.47 g/m*3 13.3 C 11.3 km/h
2522 03-05-2019 18:05:00 13.4 C 6.51 g/m*3 13.4 C 11.3 km/h
2523 03-05-2019 18:10:00 13.6 C 6.71 g/m*3 13.6 C 11.3 km/h
2524 03-05-2019 18:15:00 13.9 C 6.59 g/m*3 13.9 C 11.3 km/h
2525 03-05-2019 18:20:00 14 C 6.63 g/m*3 14 C 11.3 km/h
Sensor: Nr:Datum:Temp:Abs-Feuchte:Windchill:Wind:
Aussen-T/F 2526 03-05-2019 18:25:00 13.9 C 6.59 g/m*3 13.9 C 11.3 km/h
2527 03-05-2019 18:30:00 13.8 C 6.67 g/m*3 13.8 C 9.7 km/h
2528 03-05-2019 18:35:00 13.8 C 6.67 g/m*3 13.8 C 8.1 km/h
2529 03-05-2019 18:40:00 13.7 C 6.75 g/m*3 13.7 C 8.1 km/h
2530 03-05-2019 18:45:00 13.6 C 6.71 g/m*3 13.6 C 11.3 km/h
2531 03-05-2019 18:50:00 13.4 C 6.74 g/m*3 13.4 C 6.4 km/h
2532 03-05-2019 18:55:00 13.3 C 6.7 g/m*3 13.3 C 11.3 km/h
2533 03-05-2019 19:00:00 13.1 C 6.73 g/m*3 13.1 C 8.1 km/h
2534 03-05-2019 19:05:00 12.9 C 6.65 g/m*3 12.9 C 11.3 km/h
2535 03-05-2019 19:10:00 12.7 C 6.57 g/m*3 12.7 C 8.1 km/h
2536 03-05-2019 19:15:00 12.6 C 6.64 g/m*3 12.6 C 8.1 km/h
2537 03-05-2019 19:20:00 12.5 C 6.71 g/m*3 12.5 C 9.7 km/h
2538 03-05-2019 19:25:00 12.4 C 6.56 g/m*3 12.4 C 6.4 km/h
2539 03-05-2019 19:30:00 12.4 C 6.56 g/m*3 12.4 C 6.4 km/h
2540 03-05-2019 19:35:00 12.3 C 6.41 g/m*3 12.3 C 8.1 km/h
2541 03-05-2019 19:40:00 12.2 C 6.37 g/m*3 12.2 C 9.7 km/h
2542 03-05-2019 19:45:00 12 C 6.5 g/m*3 12 C 6.4 km/h
2543 03-05-2019 19:50:00 11.9 C 6.46 g/m*3 11.9 C 9.7 km/h
2544 03-05-2019 19:55:00 11.8 C 6.53 g/m*3 11.8 C 4.8 km/h
2545 03-05-2019 20:00:00 11.7 C 6.48 g/m*3 11.7 C 4.8 km/h
2546 03-05-2019 20:05:00 11.7 C 6.48 g/m*3 11.7 C 4.8 km/h
2547 03-05-2019 20:10:00 11.6 C 6.44 g/m*3 11.6 C 9.7 km/h
2548 03-05-2019 20:15:00 11.5 C 6.51 g/m*3 11.5 C 3.2 km/h
2549 03-05-2019 20:20:00 11.4 C 6.47 g/m*3 11.4 C 6.4 km/h
2550 03-05-2019 20:25:00 11.3 C 6.53 g/m*3 11.3 C 3.2 km/h
Sensor: Nr:Datum:Temp:Abs-Feuchte:Windchill:Wind:
Aussen-T/F 2551 03-05-2019 20:30:00 11.3 C 6.53 g/m*3 11.3 C 4.8 km/h
2552 03-05-2019 20:35:00 11.2 C 6.59 g/m*3 11.2 C 11.3 km/h
2553 03-05-2019 20:40:00 11 C 6.51 g/m*3 9.63 C 11.3 km/h
2554 03-05-2019 20:45:00 10.7 C 6.48 g/m*3 9.26 C 11.3 km/h
2555 03-05-2019 20:50:00 10.5 C 6.5 g/m*3 9.57 C 8.1 km/h
2556 03-05-2019 20:55:00 10.3 C 6.51 g/m*3 9.34 C 8.1 km/h
2557 03-05-2019 21:00:00 10.2 C 6.47 g/m*3 9.6 C 6.4 km/h
2558 03-05-2019 21:05:00 10.1 C 6.52 g/m*3 8.8 C 9.7 km/h
2559 03-05-2019 21:10:00 10 C 6.48 g/m*3 8.99 C 8.1 km/h
2560 03-05-2019 21:15:00 9.9 C 6.44 g/m*3 9.25 C 6.4 km/h
2561 03-05-2019 21:20:00 9.9 C 6.54 g/m*3 9.9 C 4.8 km/h
2562 03-05-2019 21:25:00 9.8 C 6.49 g/m*3 9.8 C 4.8 km/h
2563 03-05-2019 21:30:00 9.8 C 6.59 g/m*3 9.8 C 4.8 km/h
2564 03-05-2019 21:35:00 9.8 C 6.59 g/m*3 9.8 C 3.2 km/h
2565 03-05-2019 21:40:00 9.8 C 6.59 g/m*3 9.8 C 3.2 km/h
2566 03-05-2019 21:45:00 9.8 C 6.59 g/m*3 9.8 C 0 km/h
2567 03-05-2019 21:50:00 9.7 C 6.55 g/m*3 9.7 C 1.6 km/h
2568 03-05-2019 21:55:00 9.7 C 6.64 g/m*3 9.7 C 4.8 km/h
2569 03-05-2019 22:00:00 9.7 C 6.64 g/m*3 9.7 C 1.6 km/h
2570 03-05-2019 22:05:00 9.7 C 6.64 g/m*3 9.7 C 0 km/h
2571 03-05-2019 22:10:00 9.6 C 6.69 g/m*3 9.6 C 0 km/h
2572 03-05-2019 22:15:00 9.6 C 6.78 g/m*3 9.6 C 0 km/h
2573 03-05-2019 22:20:00 9.5 C 6.74 g/m*3 9.5 C 3.2 km/h
2574 03-05-2019 22:25:00 9.4 C 6.87 g/m*3 9.4 C 1.6 km/h
2575 03-05-2019 22:30:00 9.3 C 6.74 g/m*3 8.56 C 6.4 km/h
Sensor: Nr:Datum:Temp:Abs-Feuchte:Windchill:Wind:
Aussen-T/F 2576 03-05-2019 22:35:00 9.2 C 6.7 g/m*3 8.45 C 6.4 km/h
2577 03-05-2019 22:40:00 9.2 C 6.79 g/m*3 9.2 C 3.2 km/h
2578 03-05-2019 22:45:00 9.1 C 6.65 g/m*3 7.93 C 8.1 km/h
2579 03-05-2019 22:50:00 9.1 C 6.65 g/m*3 9.1 C 3.2 km/h
2580 03-05-2019 22:55:00 9.1 C 6.65 g/m*3 9.1 C 3.2 km/h
2581 03-05-2019 23:00:00 9.1 C 6.74 g/m*3 9.1 C 3.2 km/h
2582 03-05-2019 23:05:00 8.9 C 6.66 g/m*3 8.9 C 3.2 km/h
2583 03-05-2019 23:10:00 8.9 C 6.75 g/m*3 8.9 C 3.2 km/h
2584 03-05-2019 23:15:00 8.9 C 6.75 g/m*3 8.9 C 0 km/h
2585 03-05-2019 23:20:00 8.8 C 6.79 g/m*3 8.8 C 0 km/h
2586 03-05-2019 23:25:00 8.7 C 6.83 g/m*3 8.7 C 0 km/h
2587 03-05-2019 23:30:00 8.6 C 6.79 g/m*3 8.6 C 0 km/h
2588 03-05-2019 23:35:00 8.6 C 6.87 g/m*3 8.6 C 0 km/h
2589 03-05-2019 23:40:00 8.4 C 6.79 g/m*3 8.4 C 0 km/h
2590 03-05-2019 23:45:00 8.4 C 6.79 g/m*3 8.4 C 0 km/h
2591 03-05-2019 23:50:00 8.3 C 6.83 g/m*3 8.3 C 0 km/h
2592 03-05-2019 23:55:00 8.3 C 6.74 g/m*3 8.3 C 0 km/h
2593 04-05-2019 00:00:00 8.2 C 6.78 g/m*3 8.2 C 0 km/h
2594 04-05-2019 00:05:00 8.2 C 6.78 g/m*3 8.2 C 0 km/h
2595 04-05-2019 00:10:00 8.2 C 6.78 g/m*3 8.2 C 0 km/h
2596 04-05-2019 00:15:00 8.2 C 6.78 g/m*3 8.2 C 0 km/h
2597 04-05-2019 00:20:00 8.2 C 6.87 g/m*3 8.2 C 0 km/h
2598 04-05-2019 00:25:00 8.1 C 6.82 g/m*3 8.1 C 0 km/h
2599 04-05-2019 00:30:00 8.1 C 6.82 g/m*3 8.1 C 0 km/h
2600 04-05-2019 00:35:00 8 C 6.78 g/m*3 8 C 0 km/h
Sensor: Nr:Datum:Temp:Abs-Feuchte:Windchill:Wind:
Aussen-T/F 2601 04-05-2019 00:40:00 7.9 C 6.74 g/m*3 7.9 C 0 km/h
2602 04-05-2019 00:45:00 7.9 C 6.74 g/m*3 7.9 C 0 km/h
2603 04-05-2019 00:50:00 7.9 C 6.74 g/m*3 7.9 C 0 km/h
2604 04-05-2019 00:55:00 7.8 C 6.69 g/m*3 7.8 C 0 km/h
2605 04-05-2019 01:00:00 7.8 C 6.77 g/m*3 7.8 C 0 km/h
2606 04-05-2019 01:05:00 7.7 C 6.73 g/m*3 7.7 C 0 km/h
2607 04-05-2019 01:10:00 7.7 C 6.73 g/m*3 7.7 C 0 km/h
2608 04-05-2019 01:15:00 7.7 C 6.73 g/m*3 7.7 C 0 km/h
2609 04-05-2019 01:20:00 7.6 C 6.69 g/m*3 7.6 C 0 km/h
2610 04-05-2019 01:25:00 7.6 C 6.69 g/m*3 7.6 C 0 km/h
2611 04-05-2019 01:30:00 7.6 C 6.69 g/m*3 7.6 C 0 km/h
2612 04-05-2019 01:35:00 7.6 C 6.69 g/m*3 7.6 C 0 km/h
2613 04-05-2019 01:40:00 7.6 C 6.77 g/m*3 7.6 C 0 km/h
2614 04-05-2019 01:45:00 7.6 C 6.69 g/m*3 7.6 C 0 km/h
2615 04-05-2019 01:50:00 7.5 C 6.64 g/m*3 7.5 C 0 km/h
2616 04-05-2019 01:55:00 7.5 C 6.72 g/m*3 7.5 C 0 km/h
2617 04-05-2019 02:00:00 7.5 C 6.72 g/m*3 7.5 C 0 km/h
2618 04-05-2019 02:05:00 7.5 C 6.72 g/m*3 7.5 C 0 km/h
2619 04-05-2019 02:10:00 7.5 C 6.72 g/m*3 7.5 C 0 km/h
2620 04-05-2019 02:15:00 7.6 C 6.85 g/m*3 7.6 C 0 km/h
2621 04-05-2019 02:20:00 7.6 C 6.85 g/m*3 7.6 C 0 km/h
2622 04-05-2019 02:25:00 7.6 C 6.85 g/m*3 7.6 C 0 km/h
2623 04-05-2019 02:30:00 7.6 C 6.85 g/m*3 7.6 C 0 km/h
2624 04-05-2019 02:35:00 7.6 C 6.85 g/m*3 7.6 C 0 km/h
2625 04-05-2019 02:40:00 7.6 C 6.85 g/m*3 7.6 C 0 km/h
Sensor: Nr:Datum:Temp:Abs-Feuchte:Windchill:Wind:
Aussen-T/F 2626 04-05-2019 02:45:00 7.6 C 6.85 g/m*3 7.6 C 0 km/h
2627 04-05-2019 02:50:00 7.6 C 6.85 g/m*3 7.6 C 0 km/h
2628 04-05-2019 02:55:00 7.6 C 6.85 g/m*3 7.6 C 0 km/h
2629 04-05-2019 03:00:00 7.5 C 6.8 g/m*3 7.5 C 0 km/h
2630 04-05-2019 03:05:00 7.5 C 6.88 g/m*3 7.5 C 0 km/h
2631 04-05-2019 03:10:00 7.4 C 6.84 g/m*3 7.4 C 0 km/h
2632 04-05-2019 03:15:00 7.4 C 6.84 g/m*3 7.4 C 0 km/h
2633 04-05-2019 03:20:00 7.4 C 6.84 g/m*3 7.4 C 0 km/h
2634 04-05-2019 03:25:00 7.4 C 6.92 g/m*3 7.4 C 0 km/h
2635 04-05-2019 03:30:00 7.4 C 6.92 g/m*3 7.4 C 0 km/h
2636 04-05-2019 03:35:00 7.4 C 6.92 g/m*3 7.4 C 0 km/h
2637 04-05-2019 03:40:00 7.4 C 6.92 g/m*3 7.4 C 0 km/h
2638 04-05-2019 03:45:00 7.4 C 7 g/m*3 7.4 C 0 km/h
2639 04-05-2019 03:50:00 7.5 C 7.04 g/m*3 7.5 C 0 km/h
2640 04-05-2019 03:55:00 7.5 C 7.04 g/m*3 7.5 C 0 km/h
2641 04-05-2019 04:00:00 7.6 C 7.17 g/m*3 7.6 C 0 km/h
2642 04-05-2019 04:05:00 7.6 C 7.09 g/m*3 7.6 C 0 km/h
2643 04-05-2019 04:10:00 7.6 C 7.17 g/m*3 7.6 C 0 km/h
2644 04-05-2019 04:15:00 7.6 C 7.25 g/m*3 7.6 C 1.6 km/h
2645 04-05-2019 04:20:00 7.6 C 7.25 g/m*3 7.6 C 4.8 km/h
2646 04-05-2019 04:25:00 7.6 C 7.25 g/m*3 6.6 C 6.4 km/h
2647 04-05-2019 04:30:00 7.6 C 7.25 g/m*3 7.6 C 4.8 km/h
2648 04-05-2019 04:35:00 7.5 C 7.28 g/m*3 5.7 C 9.7 km/h
2649 04-05-2019 04:40:00 7.4 C 7.24 g/m*3 5.02 C 12.9 km/h
2650 04-05-2019 04:45:00 7.2 C 7.14 g/m*3 6.13 C 6.4 km/h
Sensor: Nr:Datum:Temp:Abs-Feuchte:Windchill:Wind:
Aussen-T/F 2651 04-05-2019 04:50:00 6.9 C 7.01 g/m*3 4.41 C 12.9 km/h
2652 04-05-2019 04:55:00 6.6 C 6.87 g/m*3 2.99 C 20.9 km/h
2653 04-05-2019 05:00:00 6.2 C 6.62 g/m*3 2.86 C 17.7 km/h
2654 04-05-2019 05:05:00 5.9 C 6.56 g/m*3 3.19 C 12.9 km/h
2655 04-05-2019 05:10:00 5.6 C 6.43 g/m*3 3.11 C 11.3 km/h
2656 04-05-2019 05:15:00 5.3 C 6.24 g/m*3 2.75 C 11.3 km/h
2657 04-05-2019 05:20:00 5.1 C 6.22 g/m*3 2.22 C 12.9 km/h
2658 04-05-2019 05:25:00 4.9 C 6.14 g/m*3 1.46 C 16.1 km/h
2659 04-05-2019 05:30:00 4.8 C 6.17 g/m*3 1.58 C 14.5 km/h
2660 04-05-2019 05:35:00 4.7 C 6.13 g/m*3 1.73 C 12.9 km/h
2661 04-05-2019 05:40:00 4.6 C 6.09 g/m*3 1.91 C 11.3 km/h
2662 04-05-2019 05:45:00 4.5 C 6.05 g/m*3 1.48 C 12.9 km/h
2663 04-05-2019 05:50:00 4.4 C 6.01 g/m*3 1.36 C 12.9 km/h
2664 04-05-2019 05:55:00 4.3 C 5.97 g/m*3 1.55 C 11.3 km/h
2665 04-05-2019 06:00:00 4.2 C 5.93 g/m*3 1.43 C 11.3 km/h
2666 04-05-2019 06:05:00 4.1 C 5.89 g/m*3 1.65 C 9.7 km/h
2667 04-05-2019 06:10:00 4.1 C 5.89 g/m*3 1.31 C 11.3 km/h
2668 04-05-2019 06:15:00 3.9 C 5.81 g/m*3 1.06 C 11.3 km/h
2669 04-05-2019 06:20:00 3.8 C 5.77 g/m*3 0.63 C 12.9 km/h
2670 04-05-2019 06:25:00 3.7 C 5.73 g/m*3 0.82 C 11.3 km/h
2671 04-05-2019 06:30:00 3.6 C 5.69 g/m*3 1.06 C 9.7 km/h
2672 04-05-2019 06:35:00 3.6 C 5.76 g/m*3 0.7 C 11.3 km/h
2673 04-05-2019 06:40:00 3.6 C 5.69 g/m*3 1.06 C 9.7 km/h
2674 04-05-2019 06:45:00 3.5 C 5.72 g/m*3 1.34 C 8.1 km/h
2675 04-05-2019 06:50:00 3.4 C 5.68 g/m*3 1.23 C 8.1 km/h
Sensor: Nr:Datum:Temp:Abs-Feuchte:Windchill:Wind:
Aussen-T/F 2676 04-05-2019 06:55:00 3.4 C 5.68 g/m*3 0.82 C 9.7 km/h
2677 04-05-2019 07:00:00 3.3 C 5.64 g/m*3 0.7 C 9.7 km/h
2678 04-05-2019 07:05:00 3.3 C 5.64 g/m*3 1.63 C 6.4 km/h
2679 04-05-2019 07:10:00 3.3 C 5.64 g/m*3 3.3 C 3.2 km/h
2680 04-05-2019 07:15:00 3.3 C 5.64 g/m*3 1.63 C 6.4 km/h
2681 04-05-2019 07:20:00 3.3 C 5.64 g/m*3 1.63 C 6.4 km/h
2682 04-05-2019 07:25:00 3.2 C 5.6 g/m*3 0.22 C 11.3 km/h
2683 04-05-2019 07:30:00 3.2 C 5.6 g/m*3 1.51 C 6.4 km/h
2684 04-05-2019 07:35:00 3.2 C 5.6 g/m*3 1.51 C 6.4 km/h
2685 04-05-2019 07:40:00 3.2 C 5.6 g/m*3 0.99 C 8.1 km/h
2686 04-05-2019 07:45:00 3.2 C 5.6 g/m*3 3.2 C 3.2 km/h
2687 04-05-2019 07:50:00 3.2 C 5.6 g/m*3 3.2 C 4.8 km/h
2688 04-05-2019 07:55:00 3.1 C 5.57 g/m*3 3.1 C 4.8 km/h
2689 04-05-2019 08:00:00 3.2 C 5.6 g/m*3 3.2 C 3.2 km/h
2690 04-05-2019 08:05:00 3.2 C 5.6 g/m*3 3.2 C 3.2 km/h
2691 04-05-2019 08:10:00 3.2 C 5.66 g/m*3 1.51 C 6.4 km/h
2692 04-05-2019 08:15:00 3.2 C 5.66 g/m*3 3.2 C 4.8 km/h
2693 04-05-2019 08:20:00 3.2 C 5.66 g/m*3 1.51 C 6.4 km/h
2694 04-05-2019 08:25:00 3.2 C 5.66 g/m*3 3.2 C 4.8 km/h
2695 04-05-2019 08:30:00 3.2 C 5.66 g/m*3 0.58 C 9.7 km/h
2696 04-05-2019 08:35:00 3.3 C 5.7 g/m*3 0.7 C 9.7 km/h
2697 04-05-2019 08:40:00 3.3 C 5.7 g/m*3 3.3 C 3.2 km/h
2698 04-05-2019 08:45:00 3.3 C 5.7 g/m*3 3.3 C 1.6 km/h
2699 04-05-2019 08:50:00 3.4 C 5.74 g/m*3 3.4 C 3.2 km/h
2700 04-05-2019 08:55:00 3.5 C 5.78 g/m*3 3.5 C 4.8 km/h
Sensor: Nr:Datum:Temp:Abs-Feuchte:Windchill:Wind:
Aussen-T/F 2701 04-05-2019 09:00:00 3.6 C 5.82 g/m*3 3.6 C 3.2 km/h
2702 04-05-2019 09:05:00 3.7 C 5.86 g/m*3 3.7 C 4.8 km/h
2703 04-05-2019 09:10:00 3.7 C 5.86 g/m*3 2.09 C 6.4 km/h
2704 04-05-2019 09:15:00 3.8 C 5.9 g/m*3 3.8 C 3.2 km/h
2705 04-05-2019 09:20:00 3.8 C 5.9 g/m*3 3.8 C 1.6 km/h
2706 04-05-2019 09:25:00 3.9 C 5.94 g/m*3 3.9 C 4.8 km/h
2707 04-05-2019 09:30:00 3.9 C 5.94 g/m*3 3.9 C 4.8 km/h
2708 04-05-2019 09:35:00 4.1 C 6.02 g/m*3 4.1 C 1.6 km/h
2709 04-05-2019 09:40:00 4.2 C 6.06 g/m*3 2.17 C 8.1 km/h
2710 04-05-2019 09:45:00 4.2 C 6.06 g/m*3 4.2 C 0 km/h
2711 04-05-2019 09:50:00 4.4 C 6.14 g/m*3 4.4 C 1.6 km/h
2712 04-05-2019 09:55:00 4.6 C 6.22 g/m*3 4.6 C 4.8 km/h
2713 04-05-2019 10:00:00 4.5 C 6.11 g/m*3 3.02 C 6.4 km/h
2714 04-05-2019 10:05:00 4.5 C 6.11 g/m*3 4.5 C 4.8 km/h
2715 04-05-2019 10:10:00 4.6 C 6.09 g/m*3 2.64 C 8.1 km/h
2716 04-05-2019 10:15:00 4.5 C 5.98 g/m*3 2.52 C 8.1 km/h
2717 04-05-2019 10:20:00 4.5 C 5.98 g/m*3 2.52 C 8.1 km/h
2718 04-05-2019 10:25:00 4.5 C 5.98 g/m*3 3.02 C 6.4 km/h
2719 04-05-2019 10:30:00 4.6 C 6.02 g/m*3 2.64 C 8.1 km/h
2720 04-05-2019 10:35:00 4.7 C 6.06 g/m*3 3.25 C 6.4 km/h
2721 04-05-2019 10:40:00 4.8 C 6.1 g/m*3 2.49 C 9.7 km/h
2722 04-05-2019 10:45:00 4.9 C 6.08 g/m*3 2.99 C 8.1 km/h
2723 04-05-2019 10:50:00 4.8 C 5.97 g/m*3 3.36 C 6.4 km/h
2724 04-05-2019 10:55:00 4.8 C 5.97 g/m*3 3.36 C 6.4 km/h
2725 04-05-2019 11:00:00 4.8 C 5.97 g/m*3 3.36 C 6.4 km/h
Sensor: Nr:Datum:Temp:Abs-Feuchte:Windchill:Wind:
Aussen-T/F 2726 04-05-2019 11:05:00 4.8 C 5.97 g/m*3 2.87 C 8.1 km/h
2727 04-05-2019 11:10:00 4.8 C 6.04 g/m*3 4.8 C 4.8 km/h
2728 04-05-2019 11:15:00 4.9 C 6.08 g/m*3 4.9 C 4.8 km/h
2729 04-05-2019 11:20:00 4.9 C 6.08 g/m*3 2.61 C 9.7 km/h
2730 04-05-2019 11:25:00 4.9 C 6.01 g/m*3 2.61 C 9.7 km/h
2731 04-05-2019 11:30:00 4.9 C 6.01 g/m*3 2.61 C 9.7 km/h
2732 04-05-2019 11:35:00 5 C 6.05 g/m*3 3.11 C 8.1 km/h
2733 04-05-2019 11:40:00 5.2 C 6.13 g/m*3 5.2 C 4.8 km/h
2734 04-05-2019 11:45:00 5.3 C 6.24 g/m*3 3.46 C 8.1 km/h
2735 04-05-2019 11:50:00 5.3 C 6.1 g/m*3 2.75 C 11.3 km/h
2736 04-05-2019 11:55:00 5.3 C 6.03 g/m*3 3.08 C 9.7 km/h
2737 04-05-2019 12:00:00 5.3 C 6.03 g/m*3 3.46 C 8.1 km/h
2738 04-05-2019 12:05:00 5.4 C 6.07 g/m*3 3.2 C 9.7 km/h
2739 04-05-2019 12:10:00 5.4 C 6.07 g/m*3 3.2 C 9.7 km/h
2740 04-05-2019 12:15:00 5.5 C 6.11 g/m*3 3.32 C 9.7 km/h
2741 04-05-2019 12:20:00 5.6 C 6.15 g/m*3 4.29 C 6.4 km/h
2742 04-05-2019 12:25:00 5.8 C 6.23 g/m*3 4.52 C 6.4 km/h
2743 04-05-2019 12:30:00 6 C 6.24 g/m*3 3.92 C 9.7 km/h
2744 04-05-2019 12:35:00 6.2 C 6.32 g/m*3 4.15 C 9.7 km/h
2745 04-05-2019 12:40:00 6.3 C 6.29 g/m*3 3.96 C 11.3 km/h
2746 04-05-2019 12:45:00 6.5 C 6.3 g/m*3 4.87 C 8.1 km/h
2747 04-05-2019 12:50:00 6.6 C 6.27 g/m*3 4.99 C 8.1 km/h
2748 04-05-2019 12:55:00 6.6 C 6.19 g/m*3 4.99 C 8.1 km/h
2749 04-05-2019 13:00:00 6.7 C 6.15 g/m*3 5.11 C 8.1 km/h
2750 04-05-2019 13:05:00 6.7 C 6.08 g/m*3 5.11 C 8.1 km/h
Sensor: Nr:Datum:Temp:Abs-Feuchte:Windchill:Wind:
Aussen-T/F 2751 04-05-2019 13:10:00 6.7 C 6.08 g/m*3 5.11 C 8.1 km/h
2752 04-05-2019 13:15:00 6.9 C 6.08 g/m*3 4.41 C 12.9 km/h
2753 04-05-2019 13:20:00 7.1 C 6.4 g/m*3 5.58 C 8.1 km/h
2754 04-05-2019 13:25:00 7.3 C 6.32 g/m*3 5.81 C 8.1 km/h
2755 04-05-2019 13:30:00 7.5 C 6.24 g/m*3 6.05 C 8.1 km/h
2756 04-05-2019 13:35:00 7.6 C 6.2 g/m*3 5.53 C 11.3 km/h
2757 04-05-2019 13:40:00 7.6 C 6.2 g/m*3 5.26 C 12.9 km/h
2758 04-05-2019 13:45:00 7.6 C 6.04 g/m*3 6.16 C 8.1 km/h
2759 04-05-2019 13:50:00 7.7 C 6 g/m*3 6.71 C 6.4 km/h
2760 04-05-2019 13:55:00 7.7 C 6.16 g/m*3 6.71 C 6.4 km/h
2761 04-05-2019 14:00:00 7.7 C 6.41 g/m*3 5.38 C 12.9 km/h
2762 04-05-2019 14:05:00 7.6 C 6.61 g/m*3 5.53 C 11.3 km/h
2763 04-05-2019 14:10:00 7.5 C 6.4 g/m*3 5.7 C 9.7 km/h
2764 04-05-2019 14:15:00 7.7 C 6.24 g/m*3 5.15 C 14.5 km/h
2765 04-05-2019 14:20:00 7.9 C 6.16 g/m*3 5.18 C 16.1 km/h
2766 04-05-2019 14:25:00 8.2 C 6.28 g/m*3 5.99 C 12.9 km/h
2767 04-05-2019 14:30:00 8.3 C 6.32 g/m*3 5.89 C 14.5 km/h
2768 04-05-2019 14:35:00 8.3 C 6.24 g/m*3 6.66 C 9.7 km/h
2769 04-05-2019 14:40:00 8.3 C 6.32 g/m*3 5.68 C 16.1 km/h
2770 04-05-2019 14:45:00 7.4 C 6.12 g/m*3 2.9 C 33.8 km/h
2771 04-05-2019 14:50:00 5.8 C 5.73 g/m*3 2.36 C 17.7 km/h
2772 04-05-2019 14:55:00 4.6 C 5.49 g/m*3 1.91 C 11.3 km/h
2773 04-05-2019 15:00:00 4 C 5.4 g/m*3 0.6 C 14.5 km/h
2774 04-05-2019 15:05:00 3.8 C 5.46 g/m*3 1.7 C 8.1 km/h
2775 04-05-2019 15:10:00 3.7 C 5.55 g/m*3 1.18 C 9.7 km/h
Sensor: Nr:Datum:Temp:Abs-Feuchte:Windchill:Wind:
Aussen-T/F 2776 04-05-2019 15:15:00 3.7 C 5.61 g/m*3 0.51 C 12.9 km/h
2777 04-05-2019 15:20:00 3.8 C 5.71 g/m*3 3.8 C 4.8 km/h
2778 04-05-2019 15:25:00 4 C 5.85 g/m*3 4 C 4.8 km/h
2779 04-05-2019 15:30:00 4.4 C 5.94 g/m*3 2.4 C 8.1 km/h
2780 04-05-2019 15:35:00 4.7 C 6 g/m*3 4.7 C 3.2 km/h
2781 04-05-2019 15:40:00 5.2 C 6.2 g/m*3 5.2 C 1.6 km/h
2782 04-05-2019 15:45:00 5.9 C 6.27 g/m*3 5.9 C 4.8 km/h
2783 04-05-2019 15:50:00 6.5 C 6.6 g/m*3 6.5 C 4.8 km/h
2784 04-05-2019 15:55:00 7.2 C 7.06 g/m*3 7.2 C 3.2 km/h
2785 04-05-2019 16:00:00 7.9 C 7.15 g/m*3 6.94 C 6.4 km/h
2786 04-05-2019 16:05:00 8.2 C 7.12 g/m*3 7.29 C 6.4 km/h
2787 04-05-2019 16:10:00 8.4 C 6.96 g/m*3 6.24 C 12.9 km/h
2788 04-05-2019 16:15:00 8.3 C 6.74 g/m*3 6.99 C 8.1 km/h
2789 04-05-2019 16:20:00 7.7 C 6.49 g/m*3 4.55 C 19.3 km/h
2790 04-05-2019 16:25:00 7.4 C 6.6 g/m*3 6.37 C 6.4 km/h
2791 04-05-2019 16:30:00 7.2 C 6.59 g/m*3 5.69 C 8.1 km/h
2792 04-05-2019 16:35:00 7.2 C 6.75 g/m*3 7.2 C 1.6 km/h
2793 04-05-2019 16:40:00 7.2 C 6.75 g/m*3 7.2 C 1.6 km/h
2794 04-05-2019 16:45:00 7.5 C 7.2 g/m*3 7.5 C 0 km/h
2795 04-05-2019 16:50:00 7.9 C 7.39 g/m*3 7.9 C 1.6 km/h
2796 04-05-2019 16:55:00 8.8 C 7.75 g/m*3 8.8 C 3.2 km/h
2797 04-05-2019 17:00:00 9.2 C 7.68 g/m*3 9.2 C 0 km/h
2798 04-05-2019 17:05:00 9.8 C 7.89 g/m*3 9.8 C 4.8 km/h
2799 04-05-2019 17:10:00 10.3 C 7.95 g/m*3 9.34 C 8.1 km/h
2800 04-05-2019 17:15:00 10.4 C 7.71 g/m*3 10.4 C 3.2 km/h
Sensor: Nr:Datum:Temp:Abs-Feuchte:Windchill:Wind:
Aussen-T/F 2801 04-05-2019 17:20:00 10.3 C 7.66 g/m*3 10.3 C 1.6 km/h
2802 04-05-2019 17:25:00 9.9 C 7 g/m*3 9.25 C 6.4 km/h
2803 04-05-2019 17:30:00 9.8 C 7.7 g/m*3 9.8 C 0 km/h
2804 04-05-2019 17:35:00 9.7 C 7.19 g/m*3 8.63 C 8.1 km/h
2805 04-05-2019 17:40:00 10 C 6.95 g/m*3 8.42 C 11.3 km/h
2806 04-05-2019 17:45:00 10.4 C 6.84 g/m*3 8.67 C 12.9 km/h
2807 04-05-2019 17:50:00 10.7 C 6.48 g/m*3 9.04 C 12.9 km/h
2808 04-05-2019 17:55:00 11.1 C 6.65 g/m*3 11.1 C 12.9 km/h
2809 04-05-2019 18:00:00 11.1 C 6.35 g/m*3 11.1 C 12.9 km/h
2810 04-05-2019 18:05:00 10.8 C 5.93 g/m*3 8.96 C 14.5 km/h
2811 04-05-2019 18:10:00 10.5 C 5.92 g/m*3 9.02 C 11.3 km/h
2812 04-05-2019 18:15:00 10.6 C 5.76 g/m*3 8.53 C 16.1 km/h
2813 04-05-2019 18:20:00 10.6 C 5.76 g/m*3 8.53 C 16.1 km/h
2814 04-05-2019 18:25:00 10.7 C 6.09 g/m*3 8.18 C 20.9 km/h
2815 04-05-2019 18:30:00 10.6 C 5.47 g/m*3 8.53 C 16.1 km/h
2816 04-05-2019 18:35:00 10.1 C 5.39 g/m*3 7.73 C 17.7 km/h
2817 04-05-2019 18:40:00 9.6 C 5.31 g/m*3 7.48 C 14.5 km/h
2818 04-05-2019 18:45:00 9.7 C 5.72 g/m*3 7.61 C 14.5 km/h
2819 04-05-2019 18:50:00 10 C 6.11 g/m*3 7.98 C 14.5 km/h
2820 04-05-2019 18:55:00 10.1 C 6.24 g/m*3 8.1 C 14.5 km/h
2821 04-05-2019 19:00:00 10.2 C 6.47 g/m*3 7.7 C 19.3 km/h
2822 04-05-2019 19:05:00 10.2 C 6.38 g/m*3 8.22 C 14.5 km/h
2823 04-05-2019 19:10:00 10.1 C 6.15 g/m*3 8.1 C 14.5 km/h
2824 04-05-2019 19:15:00 10 C 6.3 g/m*3 8.19 C 12.9 km/h
2825 04-05-2019 19:20:00 9.8 C 5.94 g/m*3 7.94 C 12.9 km/h
Sensor: Nr:Datum:Temp:Abs-Feuchte:Windchill:Wind:
Aussen-T/F 2826 04-05-2019 19:25:00 9.6 C 5.95 g/m*3 7.94 C 11.3 km/h
2827 04-05-2019 19:30:00 9.3 C 6.02 g/m*3 7.85 C 9.7 km/h
2828 04-05-2019 19:35:00 9.2 C 5.8 g/m*3 6.79 C 16.1 km/h
2829 04-05-2019 19:40:00 8.9 C 5.87 g/m*3 6.62 C 14.5 km/h
2830 04-05-2019 19:45:00 8.4 C 5.77 g/m*3 5.8 C 16.1 km/h
2831 04-05-2019 19:50:00 8.1 C 5.91 g/m*3 6.75 C 8.1 km/h
2832 04-05-2019 19:55:00 7.8 C 5.96 g/m*3 5.77 C 11.3 km/h
2833 04-05-2019 20:00:00 7.8 C 6.12 g/m*3 5.77 C 11.3 km/h
2834 04-05-2019 20:05:00 7.8 C 6.12 g/m*3 6.83 C 6.4 km/h
2835 04-05-2019 20:10:00 7.8 C 6.04 g/m*3 7.8 C 3.2 km/h
2836 04-05-2019 20:15:00 7.8 C 6.04 g/m*3 6.4 C 8.1 km/h
2837 04-05-2019 20:20:00 7.7 C 5.84 g/m*3 5.94 C 9.7 km/h
2838 04-05-2019 20:25:00 7.6 C 5.88 g/m*3 7.6 C 3.2 km/h
2839 04-05-2019 20:30:00 7.5 C 5.92 g/m*3 7.5 C 3.2 km/h
2840 04-05-2019 20:35:00 7.4 C 6.04 g/m*3 7.4 C 3.2 km/h
2841 04-05-2019 20:40:00 7.3 C 6.08 g/m*3 7.3 C 0 km/h
2842 04-05-2019 20:45:00 7.1 C 5.93 g/m*3 5.58 C 8.1 km/h
2843 04-05-2019 20:50:00 7 C 5.89 g/m*3 7 C 3.2 km/h
2844 04-05-2019 20:55:00 6.9 C 5.93 g/m*3 6.9 C 3.2 km/h
2845 04-05-2019 21:00:00 6.8 C 5.97 g/m*3 6.8 C 4.8 km/h
2846 04-05-2019 21:05:00 6.8 C 5.89 g/m*3 5.67 C 6.4 km/h
2847 04-05-2019 21:10:00 6.7 C 5.93 g/m*3 6.7 C 3.2 km/h
2848 04-05-2019 21:15:00 6.7 C 5.93 g/m*3 6.7 C 3.2 km/h
2849 04-05-2019 21:20:00 6.7 C 5.93 g/m*3 6.7 C 3.2 km/h
2850 04-05-2019 21:25:00 6.6 C 5.89 g/m*3 6.6 C 4.8 km/h
Sensor: Nr:Datum:Temp:Abs-Feuchte:Windchill:Wind:
Aussen-T/F 2851 04-05-2019 21:30:00 6.6 C 5.96 g/m*3 4.32 C 11.3 km/h
2852 04-05-2019 21:35:00 6.4 C 5.89 g/m*3 4.75 C 8.1 km/h
2853 04-05-2019 21:40:00 6.3 C 6 g/m*3 4.27 C 9.7 km/h
2854 04-05-2019 21:45:00 6.2 C 5.96 g/m*3 6.2 C 1.6 km/h
2855 04-05-2019 21:50:00 6.1 C 5.92 g/m*3 4.86 C 6.4 km/h
2856 04-05-2019 21:55:00 6 C 5.95 g/m*3 4.75 C 6.4 km/h
2857 04-05-2019 22:00:00 5.8 C 5.95 g/m*3 4.52 C 6.4 km/h
2858 04-05-2019 22:05:00 5.6 C 5.87 g/m*3 5.6 C 4.8 km/h
2859 04-05-2019 22:10:00 5.5 C 5.9 g/m*3 3.7 C 8.1 km/h
2860 04-05-2019 22:15:00 5.3 C 5.82 g/m*3 3.46 C 8.1 km/h
2861 04-05-2019 22:20:00 5.3 C 5.82 g/m*3 3.94 C 6.4 km/h
2862 04-05-2019 22:25:00 5.1 C 5.81 g/m*3 3.71 C 6.4 km/h
2863 04-05-2019 22:30:00 5 C 5.78 g/m*3 5 C 1.6 km/h
2864 04-05-2019 22:35:00 4.8 C 5.77 g/m*3 4.8 C 0 km/h
2865 04-05-2019 22:40:00 4.7 C 5.73 g/m*3 4.7 C 0 km/h
2866 04-05-2019 22:45:00 4.5 C 5.65 g/m*3 4.5 C 0 km/h
2867 04-05-2019 22:50:00 4.3 C 5.64 g/m*3 4.3 C 0 km/h
2868 04-05-2019 22:55:00 4.2 C 5.61 g/m*3 4.2 C 0 km/h
2869 04-05-2019 23:00:00 4 C 5.59 g/m*3 4 C 4.8 km/h
2870 04-05-2019 23:05:00 3.9 C 5.62 g/m*3 2.32 C 6.4 km/h
2871 04-05-2019 23:10:00 3.9 C 5.62 g/m*3 2.32 C 6.4 km/h
2872 04-05-2019 23:15:00 3.9 C 5.62 g/m*3 3.9 C 3.2 km/h
2873 04-05-2019 23:20:00 3.8 C 5.65 g/m*3 3.8 C 1.6 km/h
2874 04-05-2019 23:25:00 3.8 C 5.65 g/m*3 3.8 C 0 km/h
2875 04-05-2019 23:30:00 3.8 C 5.65 g/m*3 1.7 C 8.1 km/h
Sensor: Nr:Datum:Temp:Abs-Feuchte:Windchill:Wind:
Aussen-T/F 2876 04-05-2019 23:35:00 3.8 C 5.65 g/m*3 3.8 C 1.6 km/h
2877 04-05-2019 23:40:00 3.7 C 5.61 g/m*3 3.7 C 3.2 km/h
2878 04-05-2019 23:45:00 3.7 C 5.61 g/m*3 3.7 C 0 km/h
2879 04-05-2019 23:50:00 3.7 C 5.61 g/m*3 3.7 C 0 km/h
2880 04-05-2019 23:55:00 3.6 C 5.63 g/m*3 3.6 C 0 km/h
2881 05-05-2019 00:00:00 3.6 C 5.63 g/m*3 3.6 C 0 km/h
2882 05-05-2019 00:05:00 3.6 C 5.63 g/m*3 3.6 C 0 km/h
2883 05-05-2019 00:10:00 3.6 C 5.63 g/m*3 3.6 C 0 km/h
2884 05-05-2019 00:15:00 3.7 C 5.73 g/m*3 3.7 C 3.2 km/h
2885 05-05-2019 00:20:00 3.7 C 5.73 g/m*3 3.7 C 0 km/h
2886 05-05-2019 00:25:00 3.7 C 5.73 g/m*3 3.7 C 0 km/h
2887 05-05-2019 00:30:00 3.8 C 5.77 g/m*3 1.7 C 8.1 km/h
2888 05-05-2019 00:35:00 3.8 C 5.77 g/m*3 3.8 C 0 km/h
2889 05-05-2019 00:40:00 3.8 C 5.77 g/m*3 3.8 C 1.6 km/h
2890 05-05-2019 00:45:00 3.8 C 5.77 g/m*3 3.8 C 4.8 km/h
2891 05-05-2019 00:50:00 3.8 C 5.77 g/m*3 3.8 C 3.2 km/h
2892 05-05-2019 00:55:00 3.7 C 5.73 g/m*3 3.7 C 4.8 km/h
2893 05-05-2019 01:00:00 3.8 C 5.77 g/m*3 3.8 C 0 km/h
2894 05-05-2019 01:05:00 3.7 C 5.73 g/m*3 3.7 C 3.2 km/h
2895 05-05-2019 01:10:00 3.7 C 5.73 g/m*3 3.7 C 0 km/h
2896 05-05-2019 01:15:00 3.7 C 5.73 g/m*3 3.7 C 0 km/h
2897 05-05-2019 01:20:00 3.7 C 5.8 g/m*3 3.7 C 0 km/h
2898 05-05-2019 01:25:00 3.8 C 5.83 g/m*3 3.8 C 0 km/h
2899 05-05-2019 01:30:00 3.9 C 5.87 g/m*3 3.9 C 1.6 km/h
2900 05-05-2019 01:35:00 3.9 C 5.87 g/m*3 3.9 C 0 km/h
Sensor: Nr:Datum:Temp:Abs-Feuchte:Windchill:Wind:
Aussen-T/F 2901 05-05-2019 01:40:00 3.9 C 5.87 g/m*3 3.9 C 0 km/h
2902 05-05-2019 01:45:00 3.9 C 5.87 g/m*3 3.9 C 0 km/h
2903 05-05-2019 01:50:00 3.9 C 5.87 g/m*3 3.9 C 0 km/h
2904 05-05-2019 01:55:00 3.8 C 5.83 g/m*3 3.8 C 1.6 km/h
2905 05-05-2019 02:00:00 3.8 C 5.83 g/m*3 3.8 C 0 km/h
2906 05-05-2019 02:05:00 3.7 C 5.8 g/m*3 3.7 C 0 km/h
2907 05-05-2019 02:10:00 3.6 C 5.69 g/m*3 3.6 C 0 km/h
2908 05-05-2019 02:15:00 3.5 C 5.66 g/m*3 3.5 C 0 km/h
2909 05-05-2019 02:20:00 3.4 C 5.62 g/m*3 3.4 C 0 km/h
2910 05-05-2019 02:25:00 3.3 C 5.58 g/m*3 3.3 C 0 km/h
2911 05-05-2019 02:30:00 3.3 C 5.64 g/m*3 3.3 C 4.8 km/h
2912 05-05-2019 02:35:00 3.4 C 5.68 g/m*3 3.4 C 3.2 km/h
2913 05-05-2019 02:40:00 3.4 C 5.68 g/m*3 3.4 C 1.6 km/h
2914 05-05-2019 02:45:00 3.4 C 5.68 g/m*3 3.4 C 0 km/h
2915 05-05-2019 02:50:00 3.4 C 5.68 g/m*3 3.4 C 0 km/h
2916 05-05-2019 02:55:00 3.3 C 5.64 g/m*3 3.3 C 0 km/h
2917 05-05-2019 03:00:00 3.3 C 5.64 g/m*3 3.3 C 0 km/h
2918 05-05-2019 03:05:00 3.4 C 5.74 g/m*3 3.4 C 1.6 km/h
2919 05-05-2019 03:10:00 3.5 C 5.78 g/m*3 3.5 C 1.6 km/h
2920 05-05-2019 03:15:00 3.6 C 5.82 g/m*3 3.6 C 0 km/h
2921 05-05-2019 03:20:00 3.7 C 5.86 g/m*3 3.7 C 0 km/h
2922 05-05-2019 03:25:00 3.7 C 5.86 g/m*3 3.7 C 1.6 km/h
2923 05-05-2019 03:30:00 3.8 C 5.9 g/m*3 3.8 C 0 km/h
2924 05-05-2019 03:35:00 3.8 C 5.9 g/m*3 3.8 C 0 km/h
2925 05-05-2019 03:40:00 3.8 C 5.9 g/m*3 3.8 C 0 km/h
Sensor: Nr:Datum:Temp:Abs-Feuchte:Windchill:Wind:
Aussen-T/F 2926 05-05-2019 03:45:00 3.9 C 5.94 g/m*3 3.9 C 0 km/h
2927 05-05-2019 03:50:00 3.9 C 5.87 g/m*3 3.9 C 4.8 km/h
2928 05-05-2019 03:55:00 3.8 C 5.83 g/m*3 3.8 C 3.2 km/h
2929 05-05-2019 04:00:00 3.8 C 5.83 g/m*3 3.8 C 0 km/h
2930 05-05-2019 04:05:00 3.8 C 5.83 g/m*3 3.8 C 4.8 km/h
2931 05-05-2019 04:10:00 3.8 C 5.83 g/m*3 3.8 C 0 km/h
2932 05-05-2019 04:15:00 3.7 C 5.8 g/m*3 3.7 C 0 km/h
2933 05-05-2019 04:20:00 3.7 C 5.8 g/m*3 3.7 C 3.2 km/h
2934 05-05-2019 04:25:00 3.7 C 5.8 g/m*3 3.7 C 1.6 km/h
2935 05-05-2019 04:30:00 3.7 C 5.8 g/m*3 3.7 C 0 km/h
2936 05-05-2019 04:35:00 3.7 C 5.8 g/m*3 3.7 C 4.8 km/h
2937 05-05-2019 04:40:00 3.6 C 5.76 g/m*3 1.98 C 6.4 km/h
2938 05-05-2019 04:45:00 3.6 C 5.69 g/m*3 1.98 C 6.4 km/h
2939 05-05-2019 04:50:00 3.6 C 5.69 g/m*3 3.6 C 1.6 km/h
2940 05-05-2019 04:55:00 3.6 C 5.69 g/m*3 3.6 C 4.8 km/h
2941 05-05-2019 05:00:00 3.5 C 5.66 g/m*3 3.5 C 3.2 km/h
2942 05-05-2019 05:05:00 3.5 C 5.66 g/m*3 3.5 C 1.6 km/h
2943 05-05-2019 05:10:00 3.4 C 5.62 g/m*3 3.4 C 0 km/h
2944 05-05-2019 05:15:00 3.4 C 5.62 g/m*3 1.23 C 8.1 km/h
2945 05-05-2019 05:20:00 3.3 C 5.58 g/m*3 0.7 C 9.7 km/h
2946 05-05-2019 05:25:00 3.3 C 5.58 g/m*3 0.7 C 9.7 km/h
2947 05-05-2019 05:30:00 3.3 C 5.58 g/m*3 3.3 C 1.6 km/h
2948 05-05-2019 05:35:00 3.3 C 5.58 g/m*3 3.3 C 4.8 km/h
2949 05-05-2019 05:40:00 3.3 C 5.58 g/m*3 3.3 C 0 km/h
2950 05-05-2019 05:45:00 3.3 C 5.58 g/m*3 3.3 C 1.6 km/h
Sensor: Nr:Datum:Temp:Abs-Feuchte:Windchill:Wind:
Aussen-T/F 2951 05-05-2019 05:50:00 3.2 C 5.54 g/m*3 3.2 C 3.2 km/h
2952 05-05-2019 05:55:00 3.2 C 5.54 g/m*3 3.2 C 0 km/h
2953 05-05-2019 06:00:00 3.1 C 5.51 g/m*3 3.1 C 4.8 km/h
2954 05-05-2019 06:05:00 3.1 C 5.51 g/m*3 3.1 C 0 km/h
2955 05-05-2019 06:10:00 3 C 5.47 g/m*3 3 C 0 km/h
2956 05-05-2019 06:15:00 2.9 C 5.43 g/m*3 2.9 C 0 km/h
2957 05-05-2019 06:20:00 2.8 C 5.4 g/m*3 2.8 C 0 km/h
2958 05-05-2019 06:25:00 2.7 C 5.36 g/m*3 2.7 C 0 km/h
2959 05-05-2019 06:30:00 2.7 C 5.36 g/m*3 2.7 C 0 km/h
2960 05-05-2019 06:35:00 2.6 C 5.32 g/m*3 2.6 C 0 km/h
2961 05-05-2019 06:40:00 2.5 C 5.29 g/m*3 2.5 C 0 km/h
2962 05-05-2019 06:45:00 2.5 C 5.29 g/m*3 2.5 C 0 km/h
2963 05-05-2019 06:50:00 2.5 C 5.29 g/m*3 2.5 C 0 km/h
2964 05-05-2019 06:55:00 2.4 C 5.31 g/m*3 2.4 C 0 km/h
2965 05-05-2019 07:00:00 2.4 C 5.31 g/m*3 2.4 C 0 km/h
2966 05-05-2019 07:05:00 2.4 C 5.31 g/m*3 2.4 C 0 km/h
2967 05-05-2019 07:10:00 2.4 C 5.31 g/m*3 2.4 C 0 km/h
2968 05-05-2019 07:15:00 2.3 C 5.27 g/m*3 2.3 C 0 km/h
2969 05-05-2019 07:20:00 2.3 C 5.27 g/m*3 2.3 C 0 km/h
2970 05-05-2019 07:25:00 2.3 C 5.27 g/m*3 2.3 C 0 km/h
2971 05-05-2019 07:30:00 2.3 C 5.27 g/m*3 2.3 C 0 km/h
2972 05-05-2019 07:35:00 2.3 C 5.27 g/m*3 2.3 C 0 km/h
2973 05-05-2019 07:40:00 2.5 C 5.4 g/m*3 2.5 C 0 km/h
2974 05-05-2019 07:45:00 2.7 C 5.48 g/m*3 2.7 C 0 km/h
2975 05-05-2019 07:50:00 2.8 C 5.51 g/m*3 2.8 C 0 km/h
Sensor: Nr:Datum:Temp:Abs-Feuchte:Windchill:Wind:
Aussen-T/F 2976 05-05-2019 07:55:00 2.9 C 5.55 g/m*3 2.9 C 3.2 km/h
2977 05-05-2019 08:00:00 2.9 C 5.55 g/m*3 2.9 C 4.8 km/h
2978 05-05-2019 08:05:00 3 C 5.59 g/m*3 3 C 3.2 km/h
2979 05-05-2019 08:10:00 3.1 C 5.63 g/m*3 3.1 C 3.2 km/h
2980 05-05-2019 08:15:00 3.1 C 5.63 g/m*3 3.1 C 4.8 km/h
2981 05-05-2019 08:20:00 3.2 C 5.66 g/m*3 1.51 C 6.4 km/h
2982 05-05-2019 08:25:00 3.3 C 5.7 g/m*3 1.11 C 8.1 km/h
2983 05-05-2019 08:30:00 3.3 C 5.7 g/m*3 1.63 C 6.4 km/h
2984 05-05-2019 08:35:00 3.4 C 5.74 g/m*3 1.75 C 6.4 km/h
2985 05-05-2019 08:40:00 3.6 C 5.82 g/m*3 3.6 C 3.2 km/h
2986 05-05-2019 08:45:00 3.7 C 5.86 g/m*3 2.09 C 6.4 km/h
2987 05-05-2019 08:50:00 3.8 C 5.9 g/m*3 2.21 C 6.4 km/h
2988 05-05-2019 08:55:00 3.9 C 5.94 g/m*3 2.32 C 6.4 km/h
2989 05-05-2019 09:00:00 3.9 C 5.94 g/m*3 3.9 C 4.8 km/h
2990 05-05-2019 09:05:00 4.1 C 6.02 g/m*3 1.65 C 9.7 km/h
2991 05-05-2019 09:10:00 4.1 C 5.95 g/m*3 2.05 C 8.1 km/h
2992 05-05-2019 09:15:00 4.3 C 6.03 g/m*3 4.3 C 4.8 km/h
2993 05-05-2019 09:20:00 4.5 C 6.05 g/m*3 4.5 C 4.8 km/h
2994 05-05-2019 09:25:00 4.7 C 6.06 g/m*3 3.25 C 6.4 km/h
2995 05-05-2019 09:30:00 4.9 C 6.14 g/m*3 4.9 C 4.8 km/h
2996 05-05-2019 09:35:00 5.1 C 6.09 g/m*3 5.1 C 3.2 km/h
2997 05-05-2019 09:40:00 5.2 C 6.13 g/m*3 5.2 C 0 km/h
2998 05-05-2019 09:45:00 5.3 C 6.1 g/m*3 5.3 C 4.8 km/h
2999 05-05-2019 09:50:00 5.3 C 6.17 g/m*3 5.3 C 0 km/h
3000 05-05-2019 09:55:00 5.4 C 6.14 g/m*3 5.4 C 0 km/h
Sensor: Nr:Datum:Temp:Abs-Feuchte:Windchill:Wind:
Aussen-T/F 3001 05-05-2019 10:00:00 5.4 C 6.07 g/m*3 5.4 C 1.6 km/h
3002 05-05-2019 10:05:00 5.5 C 6.11 g/m*3 5.5 C 3.2 km/h
3003 05-05-2019 10:10:00 5.6 C 6.15 g/m*3 5.6 C 4.8 km/h
3004 05-05-2019 10:15:00 5.6 C 6.15 g/m*3 4.29 C 6.4 km/h
3005 05-05-2019 10:20:00 5.6 C 6.08 g/m*3 3.81 C 8.1 km/h
3006 05-05-2019 10:25:00 5.7 C 6.12 g/m*3 5.7 C 4.8 km/h
3007 05-05-2019 10:30:00 5.7 C 6.19 g/m*3 5.7 C 3.2 km/h
3008 05-05-2019 10:35:00 5.9 C 6.27 g/m*3 4.17 C 8.1 km/h
3009 05-05-2019 10:40:00 5.9 C 6.27 g/m*3 3.8 C 9.7 km/h
3010 05-05-2019 10:45:00 6.2 C 6.32 g/m*3 4.98 C 6.4 km/h
3011 05-05-2019 10:50:00 6.4 C 6.41 g/m*3 4.39 C 9.7 km/h
3012 05-05-2019 10:55:00 6.6 C 6.42 g/m*3 4.99 C 8.1 km/h
3013 05-05-2019 11:00:00 6.6 C 6.27 g/m*3 4.32 C 11.3 km/h
3014 05-05-2019 11:05:00 6.6 C 6.34 g/m*3 5.44 C 6.4 km/h
3015 05-05-2019 11:10:00 6.6 C 6.34 g/m*3 4.63 C 9.7 km/h
3016 05-05-2019 11:15:00 6.7 C 6.31 g/m*3 5.56 C 6.4 km/h
3017 05-05-2019 11:20:00 6.8 C 6.42 g/m*3 5.67 C 6.4 km/h
3018 05-05-2019 11:25:00 6.9 C 6.47 g/m*3 5.79 C 6.4 km/h
3019 05-05-2019 11:30:00 7.2 C 6.67 g/m*3 6.13 C 6.4 km/h
3020 05-05-2019 11:35:00 7.3 C 6.64 g/m*3 5.81 C 8.1 km/h
3021 05-05-2019 11:40:00 7.3 C 6.56 g/m*3 6.25 C 6.4 km/h
3022 05-05-2019 11:45:00 7.3 C 6.48 g/m*3 7.3 C 4.8 km/h
3023 05-05-2019 11:50:00 7.2 C 6.52 g/m*3 5.69 C 8.1 km/h
3024 05-05-2019 11:55:00 7.3 C 6.56 g/m*3 6.25 C 6.4 km/h
3025 05-05-2019 12:00:00 7.2 C 6.44 g/m*3 6.13 C 6.4 km/h
Sensor: Nr:Datum:Temp:Abs-Feuchte:Windchill:Wind:
Aussen-T/F 3026 05-05-2019 12:05:00 7.3 C 6.48 g/m*3 6.25 C 6.4 km/h
3027 05-05-2019 12:10:00 7.3 C 6.48 g/m*3 6.25 C 6.4 km/h
3028 05-05-2019 12:15:00 7.3 C 6.4 g/m*3 6.25 C 6.4 km/h
3029 05-05-2019 12:20:00 7.4 C 6.44 g/m*3 5.93 C 8.1 km/h
3030 05-05-2019 12:25:00 7.7 C 6.65 g/m*3 5.65 C 11.3 km/h
3031 05-05-2019 12:30:00 7.8 C 6.61 g/m*3 6.83 C 6.4 km/h
3032 05-05-2019 12:35:00 7.9 C 6.57 g/m*3 6.18 C 9.7 km/h
3033 05-05-2019 12:40:00 7.9 C 6.49 g/m*3 5.39 C 14.5 km/h
3034 05-05-2019 12:45:00 7.8 C 6.45 g/m*3 6.83 C 6.4 km/h
3035 05-05-2019 12:50:00 7.9 C 6.57 g/m*3 7.9 C 4.8 km/h
3036 05-05-2019 12:55:00 8.1 C 6.57 g/m*3 6.75 C 8.1 km/h
3037 05-05-2019 13:00:00 8.2 C 6.7 g/m*3 8.2 C 4.8 km/h
3038 05-05-2019 13:05:00 8.3 C 6.66 g/m*3 8.3 C 4.8 km/h
3039 05-05-2019 13:10:00 8.5 C 6.66 g/m*3 7.22 C 8.1 km/h
3040 05-05-2019 13:15:00 8.7 C 6.4 g/m*3 6.85 C 11.3 km/h
3041 05-05-2019 13:20:00 8.8 C 6.44 g/m*3 7.98 C 6.4 km/h
3042 05-05-2019 13:25:00 8.9 C 6.31 g/m*3 6.85 C 12.9 km/h
3043 05-05-2019 13:30:00 8.9 C 6.39 g/m*3 6.85 C 12.9 km/h
3044 05-05-2019 13:35:00 9.1 C 6.3 g/m*3 7.33 C 11.3 km/h
3045 05-05-2019 13:40:00 9.3 C 6.29 g/m*3 7.58 C 11.3 km/h
3046 05-05-2019 13:45:00 9.4 C 6.33 g/m*3 7.46 C 12.9 km/h
3047 05-05-2019 13:50:00 9.5 C 6.28 g/m*3 8.79 C 6.4 km/h
3048 05-05-2019 13:55:00 9.4 C 6.15 g/m*3 7.97 C 9.7 km/h
3049 05-05-2019 14:00:00 9.5 C 6.19 g/m*3 7.58 C 12.9 km/h
3050 05-05-2019 14:05:00 9.8 C 6.31 g/m*3 8.18 C 11.3 km/h
Sensor: Nr:Datum:Temp:Abs-Feuchte:Windchill:Wind:
Aussen-T/F 3051 05-05-2019 14:10:00 10 C 6.11 g/m*3 7.78 C 16.1 km/h
3052 05-05-2019 14:15:00 10.1 C 6.15 g/m*3 9.1 C 8.1 km/h
3053 05-05-2019 14:20:00 10 C 6.11 g/m*3 8.19 C 12.9 km/h
3054 05-05-2019 14:25:00 9.9 C 6.16 g/m*3 8.56 C 9.7 km/h
3055 05-05-2019 14:30:00 9.6 C 6.41 g/m*3 7.94 C 11.3 km/h
3056 05-05-2019 14:35:00 9.1 C 6.48 g/m*3 7.09 C 12.9 km/h
3057 05-05-2019 14:40:00 8.8 C 6.61 g/m*3 6.3 C 16.1 km/h
3058 05-05-2019 14:45:00 8.4 C 6.53 g/m*3 6.24 C 12.9 km/h
3059 05-05-2019 14:50:00 8.2 C 6.53 g/m*3 6.25 C 11.3 km/h
3060 05-05-2019 14:55:00 8.1 C 6.49 g/m*3 6.13 C 11.3 km/h
3061 05-05-2019 15:00:00 8.2 C 6.62 g/m*3 8.2 C 3.2 km/h
3062 05-05-2019 15:05:00 8.3 C 6.57 g/m*3 8.3 C 0 km/h
3063 05-05-2019 15:10:00 8.7 C 6.66 g/m*3 8.7 C 0 km/h
3064 05-05-2019 15:15:00 9.1 C 6.57 g/m*3 9.1 C 4.8 km/h
3065 05-05-2019 15:20:00 9.3 C 6.65 g/m*3 9.3 C 4.8 km/h
3066 05-05-2019 15:25:00 9.8 C 6.59 g/m*3 9.14 C 6.4 km/h
3067 05-05-2019 15:30:00 10.3 C 6.7 g/m*3 9.34 C 8.1 km/h
3068 05-05-2019 15:35:00 10.8 C 6.23 g/m*3 10.29 C 6.4 km/h
3069 05-05-2019 15:40:00 10.8 C 5.93 g/m*3 9.64 C 9.7 km/h
3070 05-05-2019 15:45:00 10.8 C 5.93 g/m*3 9.16 C 12.9 km/h
3071 05-05-2019 15:50:00 11 C 6.01 g/m*3 9.63 C 11.3 km/h
3072 05-05-2019 15:55:00 11.3 C 6.22 g/m*3 11.3 C 9.7 km/h
3073 05-05-2019 16:00:00 11.5 C 5.99 g/m*3 11.5 C 16.1 km/h
3074 05-05-2019 16:05:00 11.7 C 6.07 g/m*3 11.7 C 16.1 km/h
3075 05-05-2019 16:10:00 11.8 C 6.21 g/m*3 11.8 C 16.1 km/h
Sensor: Nr:Datum:Temp:Abs-Feuchte:Windchill:Wind:
Aussen-T/F 3076 05-05-2019 16:15:00 12.2 C 6.47 g/m*3 12.2 C 11.3 km/h
3077 05-05-2019 16:20:00 12.3 C 6.08 g/m*3 12.3 C 12.9 km/h
3078 05-05-2019 16:25:00 12.3 C 6.08 g/m*3 12.3 C 11.3 km/h
3079 05-05-2019 16:30:00 12.4 C 6.45 g/m*3 12.4 C 9.7 km/h
3080 05-05-2019 16:35:00 12.7 C 6.57 g/m*3 12.7 C 9.7 km/h
3081 05-05-2019 16:40:00 12.9 C 6.42 g/m*3 12.9 C 9.7 km/h
3082 05-05-2019 16:45:00 13.2 C 6.2 g/m*3 13.2 C 11.3 km/h
3083 05-05-2019 16:50:00 13.1 C 6.39 g/m*3 13.1 C 12.9 km/h
3084 05-05-2019 16:55:00 12.6 C 6.53 g/m*3 12.6 C 12.9 km/h
3085 05-05-2019 17:00:00 11.8 C 6.42 g/m*3 11.8 C 11.3 km/h
3086 05-05-2019 17:05:00 11.6 C 6.55 g/m*3 11.6 C 11.3 km/h
3087 05-05-2019 17:10:00 11.7 C 6.48 g/m*3 11.7 C 9.7 km/h
3088 05-05-2019 17:15:00 12.2 C 6.58 g/m*3 12.2 C 8.1 km/h
3089 05-05-2019 17:20:00 12.3 C 6.41 g/m*3 12.3 C 11.3 km/h
3090 05-05-2019 17:25:00 12.4 C 6.23 g/m*3 12.4 C 9.7 km/h
3091 05-05-2019 17:30:00 12.8 C 6.61 g/m*3 12.8 C 12.9 km/h
3092 05-05-2019 17:35:00 13.1 C 6.5 g/m*3 13.1 C 14.5 km/h
3093 05-05-2019 17:40:00 13.1 C 6.39 g/m*3 13.1 C 17.7 km/h
3094 05-05-2019 17:45:00 13.2 C 6.54 g/m*3 13.2 C 12.9 km/h
3095 05-05-2019 17:50:00 13.3 C 6.59 g/m*3 13.3 C 9.7 km/h
3096 05-05-2019 17:55:00 13.2 C 6.43 g/m*3 13.2 C 12.9 km/h
3097 05-05-2019 18:00:00 13.4 C 6.63 g/m*3 13.4 C 14.5 km/h
3098 05-05-2019 18:05:00 13.4 C 6.51 g/m*3 13.4 C 14.5 km/h
3099 05-05-2019 18:10:00 12.8 C 6.5 g/m*3 12.8 C 9.7 km/h
3100 05-05-2019 18:15:00 11.7 C 6.59 g/m*3 11.7 C 14.5 km/h
Sensor: Nr:Datum:Temp:Abs-Feuchte:Windchill:Wind:
Aussen-T/F 3101 05-05-2019 18:20:00 11 C 6.51 g/m*3 9.4 C 12.9 km/h
3102 05-05-2019 18:25:00 10.4 C 6.46 g/m*3 9.83 C 6.4 km/h
3103 05-05-2019 18:30:00 10.3 C 6.61 g/m*3 9.34 C 8.1 km/h
3104 05-05-2019 18:35:00 10.3 C 6.7 g/m*3 9.34 C 8.1 km/h
3105 05-05-2019 18:40:00 10.6 C 6.83 g/m*3 8.92 C 12.9 km/h
3106 05-05-2019 18:45:00 10.8 C 6.52 g/m*3 9.38 C 11.3 km/h
3107 05-05-2019 18:50:00 10.6 C 6.54 g/m*3 9.4 C 9.7 km/h
3108 05-05-2019 18:55:00 10.3 C 6.42 g/m*3 9.72 C 6.4 km/h
3109 05-05-2019 19:00:00 10.1 C 6.43 g/m*3 9.1 C 8.1 km/h
3110 05-05-2019 19:05:00 9.8 C 6.31 g/m*3 8.18 C 11.3 km/h
3111 05-05-2019 19:10:00 9.7 C 6.45 g/m*3 9.7 C 4.8 km/h
3112 05-05-2019 19:15:00 9.7 C 6.45 g/m*3 8.63 C 8.1 km/h
3113 05-05-2019 19:20:00 9.6 C 6.41 g/m*3 9.6 C 3.2 km/h
3114 05-05-2019 19:25:00 9.6 C 6.41 g/m*3 9.6 C 4.8 km/h
3115 05-05-2019 19:30:00 9.6 C 6.5 g/m*3 8.52 C 8.1 km/h
3116 05-05-2019 19:35:00 9.6 C 6.41 g/m*3 8.52 C 8.1 km/h
3117 05-05-2019 19:40:00 9.6 C 6.5 g/m*3 8.52 C 8.1 km/h
3118 05-05-2019 19:45:00 9.6 C 6.5 g/m*3 8.91 C 6.4 km/h
3119 05-05-2019 19:50:00 9.6 C 6.6 g/m*3 8.91 C 6.4 km/h
3120 05-05-2019 19:55:00 9.5 C 6.46 g/m*3 7.82 C 11.3 km/h
3121 05-05-2019 20:00:00 9.5 C 6.46 g/m*3 7.82 C 11.3 km/h
3122 05-05-2019 20:05:00 9.4 C 6.42 g/m*3 7.46 C 12.9 km/h
3123 05-05-2019 20:10:00 9.4 C 6.42 g/m*3 7.97 C 9.7 km/h
3124 05-05-2019 20:15:00 9.3 C 6.29 g/m*3 7.85 C 9.7 km/h
3125 05-05-2019 20:20:00 9.3 C 6.38 g/m*3 8.56 C 6.4 km/h
Sensor: Nr:Datum:Temp:Abs-Feuchte:Windchill:Wind:
Aussen-T/F 3126 05-05-2019 20:25:00 9.3 C 6.38 g/m*3 9.3 C 4.8 km/h
3127 05-05-2019 20:30:00 9.2 C 6.34 g/m*3 8.45 C 6.4 km/h
3128 05-05-2019 20:35:00 9.2 C 6.43 g/m*3 9.2 C 4.8 km/h
3129 05-05-2019 20:40:00 9.1 C 6.48 g/m*3 7.09 C 12.9 km/h
3130 05-05-2019 20:45:00 8.9 C 6.39 g/m*3 8.1 C 6.4 km/h
3131 05-05-2019 20:50:00 8.9 C 6.48 g/m*3 8.9 C 4.8 km/h
3132 05-05-2019 20:55:00 8.8 C 6.53 g/m*3 8.8 C 4.8 km/h
3133 05-05-2019 21:00:00 8.7 C 6.57 g/m*3 8.7 C 4.8 km/h
3134 05-05-2019 21:05:00 8.6 C 6.44 g/m*3 7.01 C 9.7 km/h
3135 05-05-2019 21:10:00 8.6 C 6.62 g/m*3 8.6 C 0 km/h
3136 05-05-2019 21:15:00 8.4 C 6.53 g/m*3 8.4 C 3.2 km/h
3137 05-05-2019 21:20:00 8.3 C 6.41 g/m*3 8.3 C 4.8 km/h
3138 05-05-2019 21:25:00 8.2 C 6.36 g/m*3 8.2 C 4.8 km/h
3139 05-05-2019 21:30:00 8.2 C 6.36 g/m*3 7.29 C 6.4 km/h
3140 05-05-2019 21:35:00 8.2 C 6.36 g/m*3 7.29 C 6.4 km/h
3141 05-05-2019 21:40:00 8.1 C 6.24 g/m*3 8.1 C 4.8 km/h
3142 05-05-2019 21:45:00 8 C 6.28 g/m*3 8 C 4.8 km/h
3143 05-05-2019 21:50:00 8 C 6.37 g/m*3 8 C 4.8 km/h
3144 05-05-2019 21:55:00 7.9 C 6.24 g/m*3 6.94 C 6.4 km/h
3145 05-05-2019 22:00:00 7.9 C 6.24 g/m*3 6.94 C 6.4 km/h
3146 05-05-2019 22:05:00 7.8 C 6.2 g/m*3 6.06 C 9.7 km/h
3147 05-05-2019 22:10:00 7.7 C 6.32 g/m*3 7.7 C 0 km/h
3148 05-05-2019 22:15:00 7.6 C 6.36 g/m*3 7.6 C 0 km/h
3149 05-05-2019 22:20:00 7.3 C 6.24 g/m*3 7.3 C 4.8 km/h
3150 05-05-2019 22:25:00 7.2 C 6.28 g/m*3 7.2 C 4.8 km/h
Sensor: Nr:Datum:Temp:Abs-Feuchte:Windchill:Wind:
Aussen-T/F 3151 05-05-2019 22:30:00 7.1 C 6.32 g/m*3 7.1 C 0 km/h
3152 05-05-2019 22:35:00 6.9 C 6.24 g/m*3 6.9 C 0 km/h
3153 05-05-2019 22:40:00 6.8 C 6.27 g/m*3 6.8 C 0 km/h
3154 05-05-2019 22:45:00 6.6 C 6.27 g/m*3 6.6 C 0 km/h
3155 05-05-2019 22:50:00 6.5 C 6.22 g/m*3 6.5 C 4.8 km/h
3156 05-05-2019 22:55:00 6.4 C 6.26 g/m*3 6.4 C 0 km/h
3157 05-05-2019 23:00:00 6.4 C 6.26 g/m*3 6.4 C 0 km/h
3158 05-05-2019 23:05:00 6.3 C 6.29 g/m*3 6.3 C 0 km/h
3159 05-05-2019 23:10:00 6.3 C 6.29 g/m*3 6.3 C 1.6 km/h
3160 05-05-2019 23:15:00 6.3 C 6.29 g/m*3 6.3 C 1.6 km/h
3161 05-05-2019 23:20:00 6.3 C 6.29 g/m*3 6.3 C 0 km/h
3162 05-05-2019 23:25:00 6.3 C 6.29 g/m*3 6.3 C 1.6 km/h
3163 05-05-2019 23:30:00 6.2 C 6.25 g/m*3 6.2 C 0 km/h
3164 05-05-2019 23:35:00 6.2 C 6.32 g/m*3 6.2 C 0 km/h
3165 05-05-2019 23:40:00 6.2 C 6.32 g/m*3 6.2 C 0 km/h
3166 05-05-2019 23:45:00 6.2 C 6.32 g/m*3 6.2 C 0 km/h
3167 05-05-2019 23:50:00 6.2 C 6.32 g/m*3 6.2 C 0 km/h
3168 05-05-2019 23:55:00 6.1 C 6.28 g/m*3 6.1 C 0 km/h
3169 06-05-2019 00:00:00 6.1 C 6.28 g/m*3 6.1 C 0 km/h
3170 06-05-2019 00:05:00 6.1 C 6.28 g/m*3 6.1 C 0 km/h
3171 06-05-2019 00:10:00 6.1 C 6.28 g/m*3 6.1 C 0 km/h
3172 06-05-2019 00:15:00 6.1 C 6.28 g/m*3 6.1 C 0 km/h
3173 06-05-2019 00:20:00 6.1 C 6.36 g/m*3 6.1 C 0 km/h
3174 06-05-2019 00:25:00 6.1 C 6.36 g/m*3 6.1 C 3.2 km/h
3175 06-05-2019 00:30:00 6.2 C 6.4 g/m*3 6.2 C 0 km/h
Sensor: Nr:Datum:Temp:Abs-Feuchte:Windchill:Wind:
Aussen-T/F 3176 06-05-2019 00:35:00 6.2 C 6.32 g/m*3 6.2 C 0 km/h
3177 06-05-2019 00:40:00 6.1 C 6.28 g/m*3 6.1 C 0 km/h
3178 06-05-2019 00:45:00 6.1 C 6.36 g/m*3 6.1 C 0 km/h
3179 06-05-2019 00:50:00 6.1 C 6.36 g/m*3 6.1 C 0 km/h
3180 06-05-2019 00:55:00 6.1 C 6.36 g/m*3 6.1 C 0 km/h
3181 06-05-2019 01:00:00 6.1 C 6.36 g/m*3 6.1 C 0 km/h
3182 06-05-2019 01:05:00 6.1 C 6.36 g/m*3 6.1 C 0 km/h
3183 06-05-2019 01:10:00 6.1 C 6.43 g/m*3 6.1 C 0 km/h
3184 06-05-2019 01:15:00 6.1 C 6.43 g/m*3 6.1 C 3.2 km/h
3185 06-05-2019 01:20:00 6 C 6.39 g/m*3 6 C 1.6 km/h
3186 06-05-2019 01:25:00 6 C 6.39 g/m*3 6 C 0 km/h
3187 06-05-2019 01:30:00 5.9 C 6.35 g/m*3 5.9 C 4.8 km/h
3188 06-05-2019 01:35:00 5.8 C 6.3 g/m*3 5.8 C 0 km/h
3189 06-05-2019 01:40:00 5.8 C 6.3 g/m*3 5.8 C 3.2 km/h
3190 06-05-2019 01:45:00 5.7 C 6.19 g/m*3 5.7 C 1.6 km/h
3191 06-05-2019 01:50:00 5.7 C 6.19 g/m*3 5.7 C 3.2 km/h
3192 06-05-2019 01:55:00 5.6 C 6.15 g/m*3 4.29 C 6.4 km/h
3193 06-05-2019 02:00:00 5.6 C 6.15 g/m*3 4.29 C 6.4 km/h
3194 06-05-2019 02:05:00 5.6 C 6.15 g/m*3 5.6 C 1.6 km/h
3195 06-05-2019 02:10:00 5.4 C 6.07 g/m*3 5.4 C 1.6 km/h
3196 06-05-2019 02:15:00 5.3 C 6.03 g/m*3 5.3 C 3.2 km/h
3197 06-05-2019 02:20:00 5.3 C 6.1 g/m*3 5.3 C 0 km/h
3198 06-05-2019 02:25:00 5.2 C 6.06 g/m*3 5.2 C 1.6 km/h
3199 06-05-2019 02:30:00 5.1 C 6.02 g/m*3 5.1 C 3.2 km/h
3200 06-05-2019 02:35:00 4.9 C 5.94 g/m*3 4.9 C 0 km/h
Sensor: Nr:Datum:Temp:Abs-Feuchte:Windchill:Wind:
Aussen-T/F 3201 06-05-2019 02:40:00 4.8 C 5.9 g/m*3 4.8 C 0 km/h
3202 06-05-2019 02:45:00 4.7 C 5.93 g/m*3 4.7 C 1.6 km/h
3203 06-05-2019 02:50:00 4.7 C 5.93 g/m*3 4.7 C 0 km/h
3204 06-05-2019 02:55:00 4.6 C 5.89 g/m*3 4.6 C 0 km/h
3205 06-05-2019 03:00:00 4.6 C 5.96 g/m*3 4.6 C 0 km/h
3206 06-05-2019 03:05:00 4.6 C 5.96 g/m*3 4.6 C 0 km/h
3207 06-05-2019 03:10:00 4.4 C 5.88 g/m*3 4.4 C 0 km/h
3208 06-05-2019 03:15:00 4.4 C 5.88 g/m*3 4.4 C 0 km/h
3209 06-05-2019 03:20:00 4.3 C 5.84 g/m*3 4.3 C 0 km/h
3210 06-05-2019 03:25:00 4.2 C 5.8 g/m*3 4.2 C 1.6 km/h
3211 06-05-2019 03:30:00 4.2 C 5.8 g/m*3 4.2 C 0 km/h
3212 06-05-2019 03:35:00 4.1 C 5.82 g/m*3 4.1 C 0 km/h
3213 06-05-2019 03:40:00 4.1 C 5.82 g/m*3 4.1 C 0 km/h
3214 06-05-2019 03:45:00 4.1 C 5.82 g/m*3 4.1 C 1.6 km/h
3215 06-05-2019 03:50:00 4.1 C 5.82 g/m*3 4.1 C 0 km/h
3216 06-05-2019 03:55:00 4 C 5.79 g/m*3 4 C 0 km/h
3217 06-05-2019 04:00:00 3.9 C 5.75 g/m*3 3.9 C 0 km/h
3218 06-05-2019 04:05:00 3.9 C 5.75 g/m*3 3.9 C 0 km/h
3219 06-05-2019 04:10:00 3.8 C 5.71 g/m*3 3.8 C 0 km/h
3220 06-05-2019 04:15:00 3.8 C 5.71 g/m*3 3.8 C 0 km/h
3221 06-05-2019 04:20:00 3.7 C 5.67 g/m*3 3.7 C 0 km/h
3222 06-05-2019 04:25:00 3.7 C 5.67 g/m*3 3.7 C 0 km/h
3223 06-05-2019 04:30:00 3.6 C 5.63 g/m*3 3.6 C 0 km/h
3224 06-05-2019 04:35:00 3.4 C 5.56 g/m*3 3.4 C 0 km/h